Provisional Data: Young Woman's Creek near North Bend, PA


Please select a monitoring station.
Please select start date.
Please select start date.

Toggle Unit: C/F Toggle Unit: C/F
Sample Time Temperature (C) Temperature (F) Specific Conductivity (mS/cm) pH   Turbidity (NTU+) DO (mg/L)
2/4/2021 12:00:00 AM 0.13 32.234 0.033 7.1 2.59 14.18
2/4/2021 12:15:00 AM 0.1 32.18 0.033 7.09 2.63 14.2
2/4/2021 12:30:00 AM 0.07 32.126 0.033 7.08 2.63 14.21
2/4/2021 12:45:00 AM 0.05 32.09 0.034 7.08 2.49 14.22
2/4/2021 1:00:00 AM 0.02 32.036 0.034 7.08 2.54 14.23
2/4/2021 1:15:00 AM -0.01 31.982 0.034 7.1 2.49 14.25
2/4/2021 1:30:00 AM -0.04 31.928 0.034 7.09 2.66 14.28
2/4/2021 1:45:00 AM -0.07 31.874 0.034 7.08 2.53 14.29
2/4/2021 2:00:00 AM -0.1 31.82 0.034 7.08 2.59 14.32
2/4/2021 2:15:00 AM -0.1 31.82 0.034 7.08 2.85 14.32
2/4/2021 2:30:00 AM -0.09 31.838 0.034 7.08 3.16 14.35
2/4/2021 2:45:00 AM -0.09 31.838 0.034 7.07 2.84 14.36
2/4/2021 3:00:00 AM -0.09 31.838 0.034 7.09 2.85 14.37
2/4/2021 3:15:00 AM -0.09 31.838 0.034 7.09 2.78 14.37
2/4/2021 3:30:00 AM -0.09 31.838 0.034 7.09 2.69 14.37
2/4/2021 3:45:00 AM -0.09 31.838 0.034 7.08 2.72 14.37
2/4/2021 4:00:00 AM -0.09 31.838 0.034 7.07 2.63 14.38
2/4/2021 4:15:00 AM -0.09 31.838 0.034 7.07 2.64 14.38
2/4/2021 4:30:00 AM -0.09 31.838 0.034 7.09 2.7 14.38
2/4/2021 4:45:00 AM -0.09 31.838 0.034 7.09 3.13 14.4
2/4/2021 5:00:00 AM -0.09 31.838 0.034 7.09 3.04 14.39
2/4/2021 5:15:00 AM -0.09 31.838 0.034 7.1 3.12 14.39
2/4/2021 5:30:00 AM -0.09 31.838 0.035 7.09 3.21 14.39
2/4/2021 5:45:00 AM -0.09 31.838 0.035 7.09 3.18 14.39
2/4/2021 6:00:00 AM -0.09 31.838 0.035 7.08 3.36 14.4
2/4/2021 6:15:00 AM -0.09 31.838 0.035 7.1 3.38 14.39
2/4/2021 6:30:00 AM -0.09 31.838 0.035 7.09 3.35 14.4
2/4/2021 6:45:00 AM -0.09 31.838 0.035 7.09 3.54 14.4
2/4/2021 7:00:00 AM -0.09 31.838 0.035 7.08 3.74 14.41
2/4/2021 7:15:00 AM -0.09 31.838 0.035 7.09 3.64 14.4
2/4/2021 7:30:00 AM -0.09 31.838 0.035 7.06 3.65 14.41
2/4/2021 7:45:00 AM -0.09 31.838 0.035 7.09 4 14.43
2/4/2021 8:00:00 AM -0.09 31.838 0.035 7.09 3.93 14.44
2/4/2021 8:15:00 AM -0.09 31.838 0.035 7.1 4 14.46
2/4/2021 8:30:00 AM -0.08 31.856 0.035 7.11 3.88 14.48
2/4/2021 8:45:00 AM -0.08 31.856 0.035 7.11 4.05 14.49
2/4/2021 9:00:00 AM -0.09 31.838 0.035 7.12 4.03 14.52
2/4/2021 9:15:00 AM -0.08 31.856 0.035 7.11 4.02 14.53
2/4/2021 9:30:00 AM -0.08 31.856 0.035 7.12 4.02 14.54
2/4/2021 9:45:00 AM -0.08 31.856 0.035 7.12 4.01 14.55
2/4/2021 10:00:00 AM -0.08 31.856 0.035 7.12 3.73 14.56
2/4/2021 10:15:00 AM -0.08 31.856 0.035 7.13 3.77 14.57
2/4/2021 10:30:00 AM -0.08 31.856 0.035 7.12 3.81 14.57
2/4/2021 10:45:00 AM -0.08 31.856 0.035 7.14 3.61 14.57
2/4/2021 11:00:00 AM -0.08 31.856 0.035 7.15 3.36 14.58
2/4/2021 11:15:00 AM -0.08 31.856 0.035 7.15 2.66 14.58
2/4/2021 11:30:00 AM -0.07 31.874 0.035 7.16 2.64 14.57
2/4/2021 11:45:00 AM -0.07 31.874 0.035 7.16 2.61 14.56
2/4/2021 12:00:00 PM -0.07 31.874 0.035 7.16 2.66 14.56
2/4/2021 12:15:00 PM -0.06 31.892 0.035 7.17 2.71 14.54
2/4/2021 12:30:00 PM -0.05 31.91 0.034 7.16 2.74 14.52
2/4/2021 12:45:00 PM -0.03 31.946 0.034 7.17 2.86 14.5
2/4/2021 1:00:00 PM -0.04 31.928 0.034 7.16 2.84 14.5
2/4/2021 1:15:00 PM -0.04 31.928 0.034 7.17 2.93 14.49
2/4/2021 1:30:00 PM -0.03 31.946 0.034 7.16 2.8 14.48
2/4/2021 1:45:00 PM -0.02 31.964 0.034 7.16 2.86 14.47
2/4/2021 2:00:00 PM -0.01 31.982 0.034 7.16 2.7 14.47
2/4/2021 2:15:00 PM 0 32 0.034 7.16 2.73 14.47
2/4/2021 2:30:00 PM 0 32 0.033 7.15 2.9 14.46
2/4/2021 2:45:00 PM -0.01 31.982 0.033 7.16 3.26 14.46
2/4/2021 3:00:00 PM -0.01 31.982 0.033 7.16 2.81 14.46
2/4/2021 3:15:00 PM -0.02 31.964 0.033 7.15 2.99 14.46
2/4/2021 3:30:00 PM -0.02 31.964 0.033 7.14 3.17 14.46
2/4/2021 3:45:00 PM -0.03 31.946 0.033 7.13 3.22 14.46
2/4/2021 4:00:00 PM -0.03 31.946 0.033 7.13 2.93 14.44
2/4/2021 4:15:00 PM -0.04 31.928 0.033 7.12 2.94 14.44
2/4/2021 4:30:00 PM -0.04 31.928 0.033 7.13 2.91 14.42
2/4/2021 4:45:00 PM -0.04 31.928 0.033 7.13 2.94 14.43
2/4/2021 5:00:00 PM -0.05 31.91 0.033 7.13 2.7 14.4
2/4/2021 5:15:00 PM -0.05 31.91 0.033 7.13 2.79 14.39
2/4/2021 5:30:00 PM -0.05 31.91 0.033 7.12 2.73 14.37
2/4/2021 5:45:00 PM -0.06 31.892 0.033 7.12 2.72 14.35
2/4/2021 6:00:00 PM -0.06 31.892 0.033 7.11 2.61 14.35
2/4/2021 6:15:00 PM -0.07 31.874 0.033 7.11 2.89 14.34
2/4/2021 6:30:00 PM -0.07 31.874 0.033 7.1 2.79 14.33
2/4/2021 6:45:00 PM -0.07 31.874 0.033 7.09 2.66 14.33
2/4/2021 7:00:00 PM -0.07 31.874 0.033 7.09 2.65 14.32
2/4/2021 7:15:00 PM -0.07 31.874 0.033 7.08 2.68 14.33
2/4/2021 7:30:00 PM -0.08 31.856 0.033 7.09 2.64 14.33
2/4/2021 7:45:00 PM -0.08 31.856 0.033 7.08 2.58 14.32
2/4/2021 8:00:00 PM -0.08 31.856 0.033 7.08 2.62 14.32
2/4/2021 8:15:00 PM -0.08 31.856 0.033 7.09 2.59 14.32
2/4/2021 8:30:00 PM -0.08 31.856 0.033 7.08 2.52 14.31
2/4/2021 8:45:00 PM -0.08 31.856 0.033 7.08 2.64 14.31
2/4/2021 9:00:00 PM -0.07 31.874 0.033 7.08 2.55 14.32
2/4/2021 9:15:00 PM -0.07 31.874 0.033 7.09 2.61 14.3
2/4/2021 9:30:00 PM -0.06 31.892 0.033 7.09 2.57 14.29
2/4/2021 9:45:00 PM -0.06 31.892 0.033 7.08 2.45 14.28
2/4/2021 10:00:00 PM -0.05 31.91 0.033 7.08 2.56 14.28
2/4/2021 10:15:00 PM -0.05 31.91 0.033 7.08 2.56 14.27
2/4/2021 10:30:00 PM -0.04 31.928 0.033 7.09 2.54 14.26
2/4/2021 10:45:00 PM -0.03 31.946 0.033 7.09 2.97 14.25
2/4/2021 11:00:00 PM -0.02 31.964 0.033 7.09 2.79 14.25
2/4/2021 11:15:00 PM -0.01 31.982 0.033 7.1 2.61 14.23
2/4/2021 11:30:00 PM 0.01 32.018 0.034 7.09 2.49 14.23
2/4/2021 11:45:00 PM 0.02 32.036 0.034 7.08 2.74 14.22
2/5/2021 12:00:00 AM -0.02 31.964 0.034 7.09 2.69 14.23
2/5/2021 12:15:00 AM 0 32 0.034 7.1 2.67 14.21
2/5/2021 12:30:00 AM 0.03 32.054 0.034 7.1 2.64 14.2
2/5/2021 12:45:00 AM 0.05 32.09 0.034 7.09 2.64 14.19
2/5/2021 1:00:00 AM 0.07 32.126 0.034 7.1 2.6 14.18
2/5/2021 1:15:00 AM 0.08 32.144 0.034 7.11 2.6 14.17
2/5/2021 1:30:00 AM 0.1 32.18 0.034 7.1 2.59 14.16
2/5/2021 1:45:00 AM 0.11 32.198 0.034 7.1 2.75 14.15
2/5/2021 2:00:00 AM 0.13 32.234 0.034 7.09 2.57 14.15
2/5/2021 2:15:00 AM 0.14 32.252 0.034 7.09 2.66 14.13
2/5/2021 2:30:00 AM 0.15 32.27 0.034 7.09 3.2 14.12
2/5/2021 2:45:00 AM 0.14 32.252 0.034 7.09 2.64 14.1
2/5/2021 3:00:00 AM 0.14 32.252 0.034 7.1 2.62 14.11
2/5/2021 3:15:00 AM 0.17 32.306 0.034 7.11 2.68 14.1
2/5/2021 3:30:00 AM 0.19 32.342 0.034 7.12 2.65 14.09
2/5/2021 3:45:00 AM 0.19 32.342 0.034 7.11 2.57 14.08
2/5/2021 4:00:00 AM 0.18 32.324 0.034 7.11 2.53 14.07
2/5/2021 4:15:00 AM 0.19 32.342 0.034 7.11 2.63 14.06
2/5/2021 4:30:00 AM 0.19 32.342 0.034 7.11 2.53 14.05
2/5/2021 4:45:00 AM 0.21 32.378 0.034 7.1 2.55 14.04
2/5/2021 5:00:00 AM 0.24 32.432 0.034 7.11 2.53 14.04
2/5/2021 5:15:00 AM 0.26 32.468 0.034 7.11 2.43 14.02
2/5/2021 5:30:00 AM 0.26 32.468 0.034 7.09 2.59 14.01
2/5/2021 5:45:00 AM 0.26 32.468 0.034 7.11 2.56 14.01
2/5/2021 6:00:00 AM 0.28 32.504 0.034 7.09 2.52 14.01
2/5/2021 6:15:00 AM 0.31 32.558 0.034 7.09 2.65 14
2/5/2021 6:30:00 AM 0.33 32.594 0.034 7.1 2.53 14
2/5/2021 6:45:00 AM 0.35 32.63 0.034 7.1 2.69 14
2/5/2021 7:00:00 AM 0.37 32.666 0.034 7.11 2.5 13.98
2/5/2021 7:15:00 AM 0.38 32.684 0.034 7.11 2.53 13.98
2/5/2021 7:30:00 AM 0.39 32.702 0.034 7.1 2.51 13.98
2/5/2021 7:45:00 AM 0.41 32.738 0.034 7.09 2.49 13.97
2/5/2021 8:00:00 AM 0.44 32.792 0.034 7.12 2.55 13.99
2/5/2021 8:15:00 AM 0.46 32.828 0.034 7.11 2.46 14.01
2/5/2021 8:30:00 AM 0.48 32.864 0.034 7.12 2.51 14.02
2/5/2021 8:45:00 AM 0.52 32.936 0.034 7.14 2.57 14.05
2/5/2021 9:00:00 AM 0.56 33.008 0.034 7.13 2.53 14.06
2/5/2021 9:15:00 AM 0.62 33.116 0.034 7.16 2.66 14.08
2/5/2021 9:30:00 AM 0.67 33.206 0.034 7.17 2.47 14.07
2/5/2021 9:45:00 AM 0.72 33.296 0.034 7.18 2.51 14.08
2/5/2021 10:00:00 AM 0.76 33.368 0.034 7.18 2.57 14.07
2/5/2021 10:15:00 AM 0.83 33.494 0.034 7.17 2.57 14.06
2/5/2021 10:30:00 AM 0.89 33.602 0.033 7.19 2.48 14.05
2/5/2021 10:45:00 AM 0.92 33.656 0.033 7.19 2.5 14.03
2/5/2021 11:00:00 AM 1 33.8 0.033 7.18 2.52 14.01
2/5/2021 11:15:00 AM 1.09 33.962 0.033 7.19 2.52 14
2/5/2021 11:30:00 AM 1.16 34.088 0.033 7.19 2.55 13.97
2/5/2021 11:45:00 AM 1.23 34.214 0.033 7.19 2.45 13.94
2/5/2021 12:00:00 PM 1.33 34.394 0.033 7.19 2.47 13.9
2/5/2021 12:15:00 PM 1.44 34.592 0.033 7.18 2.52 13.87
2/5/2021 12:30:00 PM 1.45 34.61 0.033 7.18 2.52 13.85
2/5/2021 12:45:00 PM 1.49 34.682 0.033 7.19 2.47 13.83
2/5/2021 1:00:00 PM 1.48 34.664 0.033 7.18 2.55 13.8
2/5/2021 1:15:00 PM 1.48 34.664 0.033 7.21 2.6 13.81
2/5/2021 1:30:00 PM 1.51 34.718 0.033 7.19 2.46 13.82
2/5/2021 1:45:00 PM 1.54 34.772 0.033 7.19 2.44 13.8
2/5/2021 2:00:00 PM 1.57 34.826 0.033 7.19 2.57 13.78
2/5/2021 2:15:00 PM 1.63 34.934 0.033 7.2 2.52 13.76
2/5/2021 2:30:00 PM 1.68 35.024 0.033 7.2 2.49 13.74
2/5/2021 2:45:00 PM 1.73 35.114 0.033 7.2 2.69 13.73
2/5/2021 3:00:00 PM 1.74 35.132 0.033 7.18 2.61 13.72
2/5/2021 3:15:00 PM 1.73 35.114 0.033 7.2 2.49 13.71
2/5/2021 3:30:00 PM 1.73 35.114 0.033 7.2 2.98 13.72
2/5/2021 3:45:00 PM 1.72 35.096 0.033 7.19 2.53 13.71
2/5/2021 4:00:00 PM 1.71 35.078 0.033 7.2 2.5 13.71
2/5/2021 4:15:00 PM 1.7 35.06 0.033 7.19 2.53 13.69
2/5/2021 4:30:00 PM 1.68 35.024 0.033 7.17 2.59 13.67
2/5/2021 4:45:00 PM 1.67 35.006 0.033 7.17 2.57 13.65
2/5/2021 5:00:00 PM 1.66 34.988 0.033 7.16 2.53 13.64
2/5/2021 5:15:00 PM 1.65 34.97 0.033 7.16 2.62 13.61
2/5/2021 5:30:00 PM 1.63 34.934 0.033 7.15 2.48 13.58
2/5/2021 5:45:00 PM 1.62 34.916 0.033 7.15 2.57 13.57
2/5/2021 6:00:00 PM 1.6 34.88 0.033 7.13 2.66 13.57
2/5/2021 6:15:00 PM 1.57 34.826 0.033 7.12 2.64 13.55
2/5/2021 6:30:00 PM 1.55 34.79 0.033 7.12 2.57 13.55
2/5/2021 6:45:00 PM 1.52 34.736 0.033 7.12 2.58 13.55
2/5/2021 7:00:00 PM 1.5 34.7 0.033 7.12 2.46 13.56
2/5/2021 7:15:00 PM 1.47 34.646 0.033 7.11 2.64 13.57
2/5/2021 7:30:00 PM 1.44 34.592 0.033 7.11 2.64 13.57
2/5/2021 7:45:00 PM 1.41 34.538 0.033 7.11 2.63 13.58
2/5/2021 8:00:00 PM 1.39 34.502 0.033 7.12 2.52 13.6
2/5/2021 8:15:00 PM 1.36 34.448 0.033 7.11 2.59 13.6
2/5/2021 8:30:00 PM 1.35 34.43 0.033 7.11 2.5 13.62
2/5/2021 8:45:00 PM 1.33 34.394 0.033 7.11 2.6 13.63
2/5/2021 9:00:00 PM 1.31 34.358 0.033 7.1 2.63 13.64
2/5/2021 9:15:00 PM 1.28 34.304 0.034 7.1 2.5 13.65
2/5/2021 9:30:00 PM 1.24 34.232 0.034 7.1 2.52 13.66
2/5/2021 9:45:00 PM 1.22 34.196 0.034 7.11 2.57 13.68
2/5/2021 10:00:00 PM 1.19 34.142 0.034 7.11 2.56 13.7
2/5/2021 10:15:00 PM 1.18 34.124 0.034 7.09 2.47 13.7
2/5/2021 10:30:00 PM 1.16 34.088 0.034 7.1 2.5 13.73
2/5/2021 10:45:00 PM 1.14 34.052 0.034 7.1 2.62 13.73
2/5/2021 11:00:00 PM 1.12 34.016 0.034 7.1 3.09 13.74
2/5/2021 11:15:00 PM 1.09 33.962 0.034 7.11 2.62 13.76
2/5/2021 11:30:00 PM 1.07 33.926 0.034 7.1 2.61 13.78
2/5/2021 11:45:00 PM 1.04 33.872 0.034 7.11 2.59 13.79
2/6/2021 12:00:00 AM 1 33.8 0.034 7.11 2.58 13.8
2/6/2021 12:15:00 AM 0.98 33.764 0.034 7.1 2.57 13.81
2/6/2021 12:30:00 AM 0.96 33.728 0.034 7.09 2.56 13.82
2/6/2021 12:45:00 AM 0.93 33.674 0.034 7.1 2.56 13.83
2/6/2021 1:00:00 AM 0.91 33.638 0.034 7.09 2.6 13.84
2/6/2021 1:15:00 AM 0.9 33.62 0.034 7.11 2.6 13.85
2/6/2021 1:30:00 AM 0.89 33.602 0.034 7.1 2.47 13.86
2/6/2021 1:45:00 AM 0.86 33.548 0.034 7.11 2.47 13.86
2/6/2021 2:00:00 AM 0.84 33.512 0.034 7.11 2.53 13.89
2/6/2021 2:15:00 AM 0.81 33.458 0.034 7.11 2.67 13.88
2/6/2021 2:30:00 AM 0.77 33.386 0.034 7.11 2.49 13.9
2/6/2021 2:45:00 AM 0.74 33.332 0.034 7.1 2.54 13.91
2/6/2021 3:00:00 AM 0.72 33.296 0.034 7.11 2.6 13.92
2/6/2021 3:15:00 AM 0.69 33.242 0.034 7.11 2.53 13.93
2/6/2021 3:30:00 AM 0.66 33.188 0.034 7.09 2.56 13.95
2/6/2021 3:45:00 AM 0.62 33.116 0.034 7.1 2.57 13.95
2/6/2021 4:00:00 AM 0.6 33.08 0.034 7.1 2.51 13.97
2/6/2021 4:15:00 AM 0.59 33.062 0.034 7.12 2.61 13.99
2/6/2021 4:30:00 AM 0.57 33.026 0.034 7.11 2.74 14
2/6/2021 4:45:00 AM 0.56 33.008 0.034 7.11 2.5 14.01
2/6/2021 5:00:00 AM 0.54 32.972 0.034 7.11 2.51 14.02
2/6/2021 5:15:00 AM 0.53 32.954 0.034 7.11 2.6 14.03
2/6/2021 5:30:00 AM 0.51 32.918 0.034 7.1 2.49 14.04
2/6/2021 5:45:00 AM 0.48 32.864 0.034 7.1 2.67 14.06
2/6/2021 6:00:00 AM 0.46 32.828 0.034 7.1 2.57 14.06
2/6/2021 6:15:00 AM 0.45 32.81 0.034 7.11 2.43 14.08
2/6/2021 6:30:00 AM 0.43 32.774 0.034 7.1 2.57 14.09
2/6/2021 6:45:00 AM 0.4 32.72 0.034 7.11 2.5 14.1
2/6/2021 7:00:00 AM 0.38 32.684 0.035 7.1 2.43 14.11
2/6/2021 7:15:00 AM 0.35 32.63 0.034 7.11 2.54 14.13
2/6/2021 7:30:00 AM 0.34 32.612 0.034 7.11 2.53 14.15
2/6/2021 7:45:00 AM 0.31 32.558 0.034 7.13 2.44 14.18
2/6/2021 8:00:00 AM 0.28 32.504 0.034 7.13 2.5 14.21
2/6/2021 8:15:00 AM 0.25 32.45 0.034 7.13 2.61 14.25
2/6/2021 8:30:00 AM 0.21 32.378 0.034 7.14 2.56 14.3
2/6/2021 8:45:00 AM 0.18 32.324 0.034 7.14 2.54 14.32
2/6/2021 9:00:00 AM 0.16 32.288 0.034 7.14 2.54 14.36
2/6/2021 9:15:00 AM 0.13 32.234 0.034 7.15 2.51 14.38
2/6/2021 9:30:00 AM 0.1 32.18 0.034 7.16 2.61 14.42
2/6/2021 9:45:00 AM 0.08 32.144 0.034 7.16 2.52 14.44
2/6/2021 10:00:00 AM 0.07 32.126 0.034 7.16 2.51 14.45
2/6/2021 10:15:00 AM 0.06 32.108 0.034 7.17 2.61 14.49
2/6/2021 10:30:00 AM 0.07 32.126 0.034 7.17 2.84 14.5
2/6/2021 10:45:00 AM 0.08 32.144 0.034 7.17 2.68 14.52
2/6/2021 11:00:00 AM 0.13 32.234 0.034 7.18 2.67 14.51
2/6/2021 11:15:00 AM 0.23 32.414 0.034 7.19 2.5 14.5
2/6/2021 11:30:00 AM 0.35 32.63 0.034 7.19 2.57 14.49
2/6/2021 11:45:00 AM 0.46 32.828 0.034 7.18 2.46 14.47
2/6/2021 12:00:00 PM 0.59 33.062 0.034 7.18 2.51 14.42
2/6/2021 12:15:00 PM 0.73 33.314 0.034 7.19 2.51 14.4
2/6/2021 12:30:00 PM 0.86 33.548 0.034 7.19 2.45 14.35
2/6/2021 12:45:00 PM 0.97 33.746 0.034 7.2 2.5 14.31
2/6/2021 1:00:00 PM 1.06 33.908 0.034 7.19 2.48 14.27
2/6/2021 1:15:00 PM 1.13 34.034 0.034 7.18 2.5 14.23
2/6/2021 1:30:00 PM 1.17 34.106 0.034 7.19 2.43 14.2
2/6/2021 1:45:00 PM 1.16 34.088 0.034 7.18 2.43 14.18
2/6/2021 2:00:00 PM 1.17 34.106 0.034 7.18 2.43 14.16
2/6/2021 2:15:00 PM 1.17 34.106 0.034 7.17 2.53 14.14
2/6/2021 2:30:00 PM 1.19 34.142 0.034 7.18 2.47 14.13
2/6/2021 2:45:00 PM 1.19 34.142 0.034 7.18 2.53 14.13
2/6/2021 3:00:00 PM 1.19 34.142 0.034 7.19 2.54 14.11
2/6/2021 3:15:00 PM 1.17 34.106 0.034 7.18 2.48 14.09
2/6/2021 3:30:00 PM 1.15 34.07 0.034 7.18 2.45 14.08
2/6/2021 3:45:00 PM 1.1 33.98 0.034 7.17 2.5 14.09
2/6/2021 4:00:00 PM 1.06 33.908 0.034 7.17 2.49 14.1
2/6/2021 4:15:00 PM 1.02 33.836 0.034 7.16 2.47 14.1
2/6/2021 4:30:00 PM 0.97 33.746 0.034 7.16 2.63 14.11
2/6/2021 4:45:00 PM 0.92 33.656 0.034 7.16 2.49 14.11
2/6/2021 5:00:00 PM 0.88 33.584 0.034 7.16 2.49 14.12
2/6/2021 5:15:00 PM 0.84 33.512 0.034 7.14 2.51 14.11
2/6/2021 5:30:00 PM 0.81 33.458 0.034 7.14 2.58 14.1
2/6/2021 5:45:00 PM 0.77 33.386 0.034 7.13 2.58 14.1
2/6/2021 6:00:00 PM 0.73 33.314 0.034 7.13 2.44 14.1
2/6/2021 6:15:00 PM 0.69 33.242 0.034 7.11 2.55 14.09
2/6/2021 6:30:00 PM 0.66 33.188 0.034 7.11 2.46 14.1
2/6/2021 6:45:00 PM 0.62 33.116 0.034 7.1 2.59 14.1
2/6/2021 7:00:00 PM 0.59 33.062 0.034 7.11 2.48 14.11
2/6/2021 7:15:00 PM 0.56 33.008 0.034 7.11 2.51 14.11
2/6/2021 7:30:00 PM 0.53 32.954 0.034 7.11 2.64 14.11
2/6/2021 7:45:00 PM 0.5 32.9 0.034 7.1 2.57 14.15
2/6/2021 8:00:00 PM 0.48 32.864 0.034 7.1 2.45 14.14
2/6/2021 8:15:00 PM 0.45 32.81 0.034 7.11 2.5 14.15
2/6/2021 8:30:00 PM 0.42 32.756 0.034 7.11 2.46 14.17
2/6/2021 8:45:00 PM 0.38 32.684 0.034 7.1 2.43 14.18
2/6/2021 9:00:00 PM 0.35 32.63 0.034 7.1 2.45 14.2
2/6/2021 9:15:00 PM 0.31 32.558 0.034 7.1 2.44 14.21
2/6/2021 9:30:00 PM 0.27 32.486 0.034 7.09 2.49 14.24
2/6/2021 9:45:00 PM 0.23 32.414 0.034 7.1 2.45 14.25
2/6/2021 10:00:00 PM 0.18 32.324 0.035 7.1 2.47 14.3
2/6/2021 10:15:00 PM 0.12 32.216 0.035 7.1 2.51 14.29
2/6/2021 10:30:00 PM 0.08 32.144 0.035 7.1 2.49 14.31
2/6/2021 10:45:00 PM 0.02 32.036 0.035 7.11 2.52 14.33
2/6/2021 11:00:00 PM -0.04 31.928 0.035 7.11 2.46 14.36
2/6/2021 11:15:00 PM -0.09 31.838 0.035 7.1 2.61 14.38
2/6/2021 11:30:00 PM -0.11 31.802 0.035 7.08 2.52 14.41
2/6/2021 11:45:00 PM -0.09 31.838 0.034 7.07 2.67 14.43
2/7/2021 12:00:00 AM -0.09 31.838 0.035 7.08 2.59 14.44
2/7/2021 12:15:00 AM -0.09 31.838 0.035 7.08 2.55 14.45
2/7/2021 12:30:00 AM -0.09 31.838 0.035 7.07 2.6 14.44
2/7/2021 12:45:00 AM -0.09 31.838 0.035 7.07 2.61 14.44
2/7/2021 1:00:00 AM -0.09 31.838 0.035 7.09 2.51 14.44
2/7/2021 1:15:00 AM -0.09 31.838 0.035 7.08 2.58 14.44
2/7/2021 1:30:00 AM -0.09 31.838 0.035 7.07 2.56 14.44
2/7/2021 1:45:00 AM -0.09 31.838 0.035 7.07 2.57 14.43
2/7/2021 2:00:00 AM -0.09 31.838 0.035 7.07 2.49 14.44
2/7/2021 2:15:00 AM -0.09 31.838 0.036 7.07 2.46 14.44
2/7/2021 2:30:00 AM -0.09 31.838 0.036 7.08 2.45 14.43
2/7/2021 2:45:00 AM -0.09 31.838 0.036 7.08 2.38 14.43
2/7/2021 3:00:00 AM -0.09 31.838 0.036 7.09 2.37 14.42
2/7/2021 3:15:00 AM -0.08 31.856 0.036 7.09 2.41 14.42
2/7/2021 3:30:00 AM -0.09 31.838 0.036 7.1 2.39 14.42
2/7/2021 3:45:00 AM -0.09 31.838 0.036 7.1 2.44 14.41
2/7/2021 4:00:00 AM -0.08 31.856 0.036 7.1 2.28 14.41
2/7/2021 4:15:00 AM -0.08 31.856 0.036 7.1 2.31 14.4
2/7/2021 4:30:00 AM -0.08 31.856 0.036 7.11 2.29 14.4
2/7/2021 4:45:00 AM -0.09 31.838 0.036 7.11 2.37 14.39
2/7/2021 5:00:00 AM -0.09 31.838 0.036 7.11 2.22 14.38
2/7/2021 5:15:00 AM -0.08 31.856 0.036 7.11 2.29 14.38
2/7/2021 5:30:00 AM -0.08 31.856 0.036 7.11 2.28 14.38
2/7/2021 5:45:00 AM -0.08 31.856 0.036 7.09 2.25 14.37
2/7/2021 6:00:00 AM -0.08 31.856 0.036 7.09 2.38 14.36
2/7/2021 6:15:00 AM -0.08 31.856 0.036 7.09 2.34 14.36
2/7/2021 6:30:00 AM -0.08 31.856 0.036 7.09 2.43 14.35
2/7/2021 6:45:00 AM -0.08 31.856 0.036 7.1 2.44 14.35
2/7/2021 7:00:00 AM -0.08 31.856 0.037 7.1 2.32 14.35
2/7/2021 7:15:00 AM -0.08 31.856 0.037 7.09 2.33 14.34
2/7/2021 7:30:00 AM -0.08 31.856 0.037 7.1 2.35 14.35
2/7/2021 7:45:00 AM -0.08 31.856 0.037 7.1 2.41 14.35
2/7/2021 8:00:00 AM -0.08 31.856 0.037 7.1 2.51 14.36
2/7/2021 8:15:00 AM -0.08 31.856 0.037 7.1 2.43 14.38
2/7/2021 8:30:00 AM -0.08 31.856 0.037 7.11 2.47 14.41
2/7/2021 8:45:00 AM -0.08 31.856 0.036 7.12 2.45 14.43
2/7/2021 9:00:00 AM -0.08 31.856 0.037 7.12 2.71 14.46
2/7/2021 9:15:00 AM -0.08 31.856 0.037 7.13 2.53 14.48
2/7/2021 9:30:00 AM -0.08 31.856 0.036 7.13 2.53 14.51
2/7/2021 9:45:00 AM -0.08 31.856 0.036 7.14 2.55 14.52
2/7/2021 10:00:00 AM -0.08 31.856 0.036 7.14 2.62 14.54
2/7/2021 10:15:00 AM -0.08 31.856 0.036 7.15 2.49 14.57
2/7/2021 10:30:00 AM -0.08 31.856 0.036 7.15 2.49 14.57
2/7/2021 10:45:00 AM -0.08 31.856 0.036 7.15 2.54 14.57
2/7/2021 11:00:00 AM -0.08 31.856 0.036 7.16 2.55 14.57
2/7/2021 11:15:00 AM -0.08 31.856 0.036 7.16 2.45 14.58
2/7/2021 11:30:00 AM -0.08 31.856 0.036 7.17 2.52 14.58
2/7/2021 11:45:00 AM -0.08 31.856 0.036 7.16 2.48 14.59
2/7/2021 12:00:00 PM -0.08 31.856 0.036 7.17 2.5 14.58
2/7/2021 12:15:00 PM -0.08 31.856 0.036 7.17 2.51 14.58
2/7/2021 12:30:00 PM -0.07 31.874 0.035 7.17 2.62 14.59
2/7/2021 12:45:00 PM -0.07 31.874 0.035 7.18 3.01 14.57
2/7/2021 1:00:00 PM -0.07 31.874 0.035 7.18 2.7 14.57
2/7/2021 1:15:00 PM -0.07 31.874 0.035 7.15 2.8 14.56
2/7/2021 1:30:00 PM -0.07 31.874 0.035 7.17 2.67 14.56
2/7/2021 1:45:00 PM -0.06 31.892 0.035 7.16 3.04 14.56
2/7/2021 2:00:00 PM -0.07 31.874 0.035 7.13 2.81 14.54
2/7/2021 2:15:00 PM -0.07 31.874 0.035 7.13 2.84 14.55
2/7/2021 2:30:00 PM -0.07 31.874 0.035 7.15 2.94 14.57
2/7/2021 2:45:00 PM -0.07 31.874 0.035 7.12 2.65 14.56
2/7/2021 3:00:00 PM -0.07 31.874 0.034 7.14 2.94 14.55
2/7/2021 3:15:00 PM -0.07 31.874 0.034 7.17 2.84 14.53
2/7/2021 3:30:00 PM -0.08 31.856 0.034 7.15 2.89 14.53
2/7/2021 3:45:00 PM -0.08 31.856 0.034 7.16 2.76 14.52
2/7/2021 4:00:00 PM -0.08 31.856 0.034 7.14 2.82 14.55
2/7/2021 4:15:00 PM -0.08 31.856 0.034 7.14 2.8 14.52
2/7/2021 4:30:00 PM -0.09 31.838 0.034 7.14 2.67 14.51
2/7/2021 4:45:00 PM -0.08 31.856 0.034 7.14 2.7 14.52
2/7/2021 5:00:00 PM -0.09 31.838 0.034 7.13 2.59 14.49
2/7/2021 5:15:00 PM -0.09 31.838 0.034 7.14 2.73 14.51
2/7/2021 5:30:00 PM -0.09 31.838 0.034 7.12 2.54 14.5
2/7/2021 5:45:00 PM -0.09 31.838 0.034 7.09 2.64 14.48
2/7/2021 6:00:00 PM -0.09 31.838 0.034 7.1 2.55 14.46
2/7/2021 6:15:00 PM -0.09 31.838 0.034 7.11 2.76 14.46
2/7/2021 6:30:00 PM -0.09 31.838 0.034 7.11 2.71 14.46
2/7/2021 6:45:00 PM -0.09 31.838 0.034 7.09 2.76 14.45
2/7/2021 7:00:00 PM -0.09 31.838 0.034 7.07 2.86 14.46
2/7/2021 7:15:00 PM -0.09 31.838 0.034 7.08 2.7 14.46
2/7/2021 7:30:00 PM -0.1 31.82 0.034 7.09 2.89 14.46
2/7/2021 7:45:00 PM -0.1 31.82 0.034 7.08 2.74 14.46
2/7/2021 8:00:00 PM -0.09 31.838 0.034 7.05 2.94 14.49
2/7/2021 8:15:00 PM -0.1 31.82 0.034 7.07 3.01 14.47
2/7/2021 8:30:00 PM -0.09 31.838 0.034 7.09 3.02 14.48
2/7/2021 8:45:00 PM -0.09 31.838 0.034 7.09 2.87 14.48
2/7/2021 9:00:00 PM -0.09 31.838 0.034 7.08 2.98 14.49
2/7/2021 9:15:00 PM -0.09 31.838 0.034 7.08 2.86 14.49
2/7/2021 9:30:00 PM -0.09 31.838 0.034 7.08 3.05 14.49
2/7/2021 9:45:00 PM -0.09 31.838 0.034 7.06 2.99 14.5
2/7/2021 10:00:00 PM -0.09 31.838 0.035 7.06 3.01 14.5
2/7/2021 10:15:00 PM -0.09 31.838 0.035 7.06 3.07 14.51
2/7/2021 10:30:00 PM -0.09 31.838 0.035 7.06 2.93 14.5
2/7/2021 10:45:00 PM -0.09 31.838 0.035 7.06 3.14 14.5
2/7/2021 11:00:00 PM -0.09 31.838 0.035 7.06 3.07 14.51
2/7/2021 11:15:00 PM -0.09 31.838 0.035 7.08 3.2 14.5
2/7/2021 11:30:00 PM -0.09 31.838 0.035 7.07 3.02 14.51
2/7/2021 11:45:00 PM -0.09 31.838 0.035 7.08 3.1 14.5
2/8/2021 12:00:00 AM -0.09 31.838 0.035 7.06 3.15 14.49
2/8/2021 12:15:00 AM -0.09 31.838 0.035 7.06 3.2 14.51
2/8/2021 12:30:00 AM -0.09 31.838 0.035 7.07 3.18 14.51
2/8/2021 12:45:00 AM -0.09 31.838 0.035 7.07 3.04 14.51
2/8/2021 1:00:00 AM -0.09 31.838 0.035 7.08 3.26 14.51
2/8/2021 1:15:00 AM -0.09 31.838 0.036 7.08 3.16 14.5
2/8/2021 1:30:00 AM -0.09 31.838 0.036 7.06 3.16 14.5
2/8/2021 1:45:00 AM -0.09 31.838 0.036 7.08 3.13 14.52
2/8/2021 2:00:00 AM -0.09 31.838 0.036 7.09 3.26 14.51
2/8/2021 2:15:00 AM -0.09 31.838 0.036 7.07 3.14 14.51
2/8/2021 2:30:00 AM -0.09 31.838 0.036 7.08 3.07 14.51
2/8/2021 2:45:00 AM -0.08 31.856 0.036 7.09 3.17 14.51
2/8/2021 3:00:00 AM -0.09 31.838 0.036 7.06 3.11 14.5
2/8/2021 3:15:00 AM -0.08 31.856 0.036 7.08 3.2 14.5
2/8/2021 3:30:00 AM -0.09 31.838 0.036 7.05 3.2 14.51
2/8/2021 3:45:00 AM -0.08 31.856 0.036 7.05 3.15 14.51
2/8/2021 4:00:00 AM -0.08 31.856 0.037 7.07 3.25 14.51
2/8/2021 4:15:00 AM -0.08 31.856 0.037 7.06 3.2 14.51
2/8/2021 4:30:00 AM -0.08 31.856 0.037 7.04 3.19 14.51
2/8/2021 4:45:00 AM -0.09 31.838 0.037 7.05 3.19 14.51
2/8/2021 5:00:00 AM -0.09 31.838 0.036 7.06 3.23 14.5
2/8/2021 5:15:00 AM -0.09 31.838 0.037 7.05 3.11 14.5
2/8/2021 5:30:00 AM -0.09 31.838 0.037 7.06 3.19 14.5
2/8/2021 5:45:00 AM -0.09 31.838 0.037 7.06 3.2 14.5
2/8/2021 6:00:00 AM -0.09 31.838 0.037 7.05 3.23 14.49
2/8/2021 6:15:00 AM -0.08 31.856 0.037 7.06 3.2 14.49
2/8/2021 6:30:00 AM -0.09 31.838 0.039 7.05 2.29 14.48
2/8/2021 6:45:00 AM -0.09 31.838 0.037 7.06 3.18 14.48
2/8/2021 7:00:00 AM -0.08 31.856 0.037 7.05 3.59 14.48
2/8/2021 7:15:00 AM -0.09 31.838 0.037 7.04 3.28 14.48
2/8/2021 7:30:00 AM -0.09 31.838 0.037 7.06 3.54 14.48
2/8/2021 7:45:00 AM -0.09 31.838 0.037 7.06 3.31 14.48
2/8/2021 8:00:00 AM -0.08 31.856 0.038 7.06 3.37 14.51
2/8/2021 8:15:00 AM -0.08 31.856 0.038 7.06 3.37 14.55
2/8/2021 8:30:00 AM -0.08 31.856 0.038 7.06 3.34 14.59
2/8/2021 8:45:00 AM -0.08 31.856 0.038 7.07 3.46 14.62
2/8/2021 9:00:00 AM -0.08 31.856 0.038 7.08 3.24 14.65
2/8/2021 9:15:00 AM -0.08 31.856 0.038 7.08 3.32 14.68
2/8/2021 9:30:00 AM -0.08 31.856 0.038 7.08 3.43 14.72
2/8/2021 9:45:00 AM -0.08 31.856 0.038 7.1 3.23 14.73
2/8/2021 10:00:00 AM -0.08 31.856 0.038 7.11 3.22 14.75
2/8/2021 10:15:00 AM -0.08 31.856 0.038 7.11 3.11 14.76
2/8/2021 10:30:00 AM -0.08 31.856 0.037 7.13 3.11 14.78
2/8/2021 10:45:00 AM -0.08 31.856 0.038 7.13 3 14.78
2/8/2021 11:00:00 AM -0.08 31.856 0.037 7.12 2.89 14.79
2/8/2021 11:15:00 AM -0.08 31.856 0.037 7.13 2.88 14.81
2/8/2021 11:30:00 AM -0.08 31.856 0.037 7.13 5.12 14.81
2/8/2021 11:45:00 AM -0.07 31.874 0.037 7.15 2.49 14.81
2/8/2021 12:00:00 PM -0.07 31.874 0.037 7.15 2.44 14.8
2/8/2021 12:15:00 PM -0.07 31.874 0.037 7.16 2.53 14.79
2/8/2021 12:30:00 PM -0.08 31.856 0.037 7.17 2.61 14.78
2/8/2021 12:45:00 PM -0.08 31.856 0.037 7.17 2.53 14.77
2/8/2021 1:00:00 PM -0.08 31.856 0.037 7.16 2.56 14.78
2/8/2021 1:15:00 PM -0.07 31.874 0.037 7.17 2.64 14.78
2/8/2021 1:30:00 PM -0.08 31.856 0.037 7.18 2.57 14.78
2/8/2021 1:45:00 PM -0.07 31.874 0.037 7.17 2.58 14.79
2/8/2021 2:00:00 PM -0.07 31.874 0.037 7.17 3 14.79
2/8/2021 2:15:00 PM -0.07 31.874 0.037 7.17 2.91 14.79
2/8/2021 2:30:00 PM -0.07 31.874 0.036 7.18 2.95 14.78
2/8/2021 2:45:00 PM -0.07 31.874 0.037 7.18 2.61 14.78
2/8/2021 3:00:00 PM -0.07 31.874 0.036 7.19 2.68 14.78
2/8/2021 3:15:00 PM -0.07 31.874 0.036 7.19 2.67 14.78
2/8/2021 3:30:00 PM -0.08 31.856 0.036 7.19 2.86 14.78
2/8/2021 3:45:00 PM -0.08 31.856 0.036 7.18 2.91 14.78
2/8/2021 4:00:00 PM -0.08 31.856 0.036 7.18 2.82 14.77
2/8/2021 4:15:00 PM -0.08 31.856 0.036 7.15 3.4 14.77
2/8/2021 4:30:00 PM -0.08 31.856 0.036 7.15 3.1 14.76
2/8/2021 4:45:00 PM -0.08 31.856 0.036 7.17 3.11 14.77
2/8/2021 5:00:00 PM -0.08 31.856 0.036 7.15 3.36 14.75
2/8/2021 5:15:00 PM -0.08 31.856 0.036 7.14 3.54 14.72
2/8/2021 5:30:00 PM -0.08 31.856 0.036 7.15 4.89 14.7
2/8/2021 5:45:00 PM -0.08 31.856 0.036 7.13 3.61 14.66
2/8/2021 6:00:00 PM -0.08 31.856 0.036 7.12 3.46 14.64
2/8/2021 6:15:00 PM -0.08 31.856 0.036 7.12 3.35 14.61
2/8/2021 6:30:00 PM -0.08 31.856 0.036 7.11 3.14 14.59
2/8/2021 6:45:00 PM -0.08 31.856 0.036 7.11 2.94 14.58
2/8/2021 7:00:00 PM -0.08 31.856 0.035 7.11 2.94 14.57
2/8/2021 7:15:00 PM -0.08 31.856 0.036 7.1 2.84 14.56
2/8/2021 7:30:00 PM -0.08 31.856 0.035 7.09 2.85 14.56
2/8/2021 7:45:00 PM -0.08 31.856 0.036 7.08 2.75 14.54
2/8/2021 8:00:00 PM -0.08 31.856 0.036 7.08 2.73 14.53
2/8/2021 8:15:00 PM -0.08 31.856 0.036 7.1 2.85 14.54
2/8/2021 8:30:00 PM -0.08 31.856 0.036 7.09 2.86 14.53
2/8/2021 8:45:00 PM -0.08 31.856 0.036 7.09 2.89 14.53
2/8/2021 9:00:00 PM -0.08 31.856 0.035 7.08 2.94 14.52
2/8/2021 9:15:00 PM -0.08 31.856 0.035 7.08 2.74 14.53
2/8/2021 9:30:00 PM -0.08 31.856 0.035 7.07 2.67 14.52
2/8/2021 9:45:00 PM -0.08 31.856 0.035 7.07 2.6 14.52
2/8/2021 10:00:00 PM -0.08 31.856 0.036 7.06 2.64 14.51
2/8/2021 10:15:00 PM -0.08 31.856 0.035 7.06 2.67 14.51
2/8/2021 10:30:00 PM -0.08 31.856 0.035 7.07 2.72 14.51
2/8/2021 10:45:00 PM -0.08 31.856 0.035 7.08 2.66 14.51
2/8/2021 11:00:00 PM -0.08 31.856 0.035 7.08 2.62 14.51
2/8/2021 11:15:00 PM -0.08 31.856 0.035 7.07 2.64 14.5
2/8/2021 11:30:00 PM -0.08 31.856 0.035 7.06 2.66 14.51
2/8/2021 11:45:00 PM -0.08 31.856 0.035 7.07 2.63 14.5
2/9/2021 12:00:00 AM -0.08 31.856 0.035 7.07 2.67 14.49
2/9/2021 12:15:00 AM -0.08 31.856 0.035 7.06 2.72 14.49
2/9/2021 12:30:00 AM -0.08 31.856 0.035 7.06 2.71 14.49
2/9/2021 12:45:00 AM -0.08 31.856 0.035 7.07 2.7 14.49
2/9/2021 1:00:00 AM -0.08 31.856 0.035 7.06 2.65 14.48
2/9/2021 1:15:00 AM -0.08 31.856 0.035 7.06 2.72 14.48
2/9/2021 1:30:00 AM -0.08 31.856 0.035 7.07 2.69 14.48
2/9/2021 1:45:00 AM -0.08 31.856 0.035 7.06 2.7 14.48
2/9/2021 2:00:00 AM -0.08 31.856 0.035 7.06 2.59 14.48
2/9/2021 2:15:00 AM -0.08 31.856 0.035 7.07 2.68 14.47
2/9/2021 2:30:00 AM -0.08 31.856 0.035 7.06 2.6 14.47
2/9/2021 2:45:00 AM -0.08 31.856 0.035 7.06 2.63 14.47
2/9/2021 3:00:00 AM -0.08 31.856 0.035 7.07 2.69 14.46
2/9/2021 3:15:00 AM -0.08 31.856 0.035 7.06 2.57 14.47
2/9/2021 3:30:00 AM -0.08 31.856 0.036 7.04 2.47 14.45
2/9/2021 3:45:00 AM -0.08 31.856 0.035 7.05 2.56 14.45
2/9/2021 4:00:00 AM -0.08 31.856 0.035 7.06 2.62 14.45
2/9/2021 4:15:00 AM -0.08 31.856 0.037 7.03 3.41 14.45
2/9/2021 4:30:00 AM -0.08 31.856 0.035 7.07 3.03 14.45
2/9/2021 4:45:00 AM -0.08 31.856 0.035 7.06 2.56 14.45
2/9/2021 5:00:00 AM -0.08 31.856 0.035 7.03 2.58 14.45
2/9/2021 5:15:00 AM -0.08 31.856 0.036 7.05 2.47 14.44
2/9/2021 5:30:00 AM -0.08 31.856 0.035 7.05 2.48 14.44
2/9/2021 5:45:00 AM -0.08 31.856 0.035 7.06 2.53 14.44
2/9/2021 6:00:00 AM -0.08 31.856 0.035 7.06 2.56 14.43
2/9/2021 6:15:00 AM -0.08 31.856 0.035 7.07 2.47 14.43
2/9/2021 6:30:00 AM -0.08 31.856 0.035 7.06 2.59 14.43
2/9/2021 6:45:00 AM -0.08 31.856 0.035 7.05 2.53 14.44
2/9/2021 7:00:00 AM -0.08 31.856 0.036 7.06 2.64 14.43
2/9/2021 7:15:00 AM -0.08 31.856 0.036 7.06 2.63 14.43
2/9/2021 7:30:00 AM -0.08 31.856 0.036 7.06 2.58 14.44
2/9/2021 7:45:00 AM -0.08 31.856 0.036 7.06 2.51 14.44
2/9/2021 8:00:00 AM -0.08 31.856 0.036 7.07 2.63 14.45
2/9/2021 8:15:00 AM -0.08 31.856 0.035 7.08 2.69 14.46
2/9/2021 8:30:00 AM -0.08 31.856 0.035 7.07 2.64 14.48
2/9/2021 8:45:00 AM -0.08 31.856 0.035 7.08 2.58 14.51
2/9/2021 9:00:00 AM -0.08 31.856 0.035 7.09 2.61 14.54
2/9/2021 9:15:00 AM -0.08 31.856 0.035 7.1 2.61 14.56
2/9/2021 9:30:00 AM -0.08 31.856 0.036 7.11 2.52 14.59
2/9/2021 9:45:00 AM -0.08 31.856 0.035 7.11 2.51 14.6
2/9/2021 10:00:00 AM -0.08 31.856 0.035 7.11 2.57 14.63
2/9/2021 10:15:00 AM -0.08 31.856 0.035 7.11 2.69 14.64
2/9/2021 10:30:00 AM -0.08 31.856 0.035 7.11 2.72 14.65
2/9/2021 10:45:00 AM -0.08 31.856 0.035 7.12 2.55 14.66
2/9/2021 11:00:00 AM -0.07 31.874 0.035 7.12 2.56 14.68
2/9/2021 11:15:00 AM -0.07 31.874 0.035 7.12 2.64 14.68
2/9/2021 11:30:00 AM -0.07 31.874 0.035 7.14 2.72 14.69
2/9/2021 11:45:00 AM -0.07 31.874 0.035 7.14 2.84 14.69
2/9/2021 12:00:00 PM -0.07 31.874 0.035 7.15 2.6 14.69
2/9/2021 12:15:00 PM -0.07 31.874 0.035 7.15 2.8 14.69
2/9/2021 12:30:00 PM -0.06 31.892 0.035 7.15 2.78 14.68
2/9/2021 12:45:00 PM -0.07 31.874 0.035 7.15 2.76 14.67
2/9/2021 1:00:00 PM -0.07 31.874 0.035 7.15 3.3 14.67
2/9/2021 1:15:00 PM -0.07 31.874 0.035 7.15 2.98 14.67
2/9/2021 1:30:00 PM -0.07 31.874 0.034 7.15 2.89 14.65
2/9/2021 1:45:00 PM -0.07 31.874 0.034 7.15 2.82 14.65
2/9/2021 2:00:00 PM -0.07 31.874 0.034 7.15 3.25 14.65
2/9/2021 2:15:00 PM -0.07 31.874 0.034 7.13 3.52 14.64
2/9/2021 2:30:00 PM -0.07 31.874 0.034 7.13 3.33 14.63
2/9/2021 2:45:00 PM -0.07 31.874 0.034 7.15 2.96 14.63
2/9/2021 3:00:00 PM -0.07 31.874 0.034 7.16 2.93 14.63
2/9/2021 3:15:00 PM -0.07 31.874 0.034 7.16 3.03 14.62
2/9/2021 3:30:00 PM -0.07 31.874 0.034 7.15 3.21 14.62
2/9/2021 3:45:00 PM -0.07 31.874 0.034 7.16 3.27 14.62
2/9/2021 4:00:00 PM -0.07 31.874 0.034 7.13 3.02 14.61
2/9/2021 4:15:00 PM -0.07 31.874 0.034 7.14 2.94 14.61
2/9/2021 4:30:00 PM -0.07 31.874 0.034 7.13 3.12 14.6
2/9/2021 4:45:00 PM -0.07 31.874 0.034 7.13 2.88 14.58
2/9/2021 5:00:00 PM -0.07 31.874 0.034 7.11 2.82 14.57
2/9/2021 5:15:00 PM -0.07 31.874 0.034 7.11 2.85 14.54
2/9/2021 5:30:00 PM -0.07 31.874 0.034 7.1 2.74 14.52
2/9/2021 5:45:00 PM -0.07 31.874 0.034 7.1 3.05 14.51
2/9/2021 6:00:00 PM -0.07 31.874 0.034 7.09 3.18 14.48
2/9/2021 6:15:00 PM -0.07 31.874 0.034 7.07 2.75 14.47
2/9/2021 6:30:00 PM -0.07 31.874 0.034 7.08 2.82 14.45
2/9/2021 6:45:00 PM -0.07 31.874 0.034 7.06 2.87 14.44
2/9/2021 7:00:00 PM -0.07 31.874 0.034 7.05 2.96 14.43
2/9/2021 7:15:00 PM -0.07 31.874 0.034 7.06 2.91 14.43
2/9/2021 7:30:00 PM -0.07 31.874 0.034 7.02 2.84 14.43
2/9/2021 7:45:00 PM -0.07 31.874 0.034 7.04 3.13 14.42
2/9/2021 8:00:00 PM -0.07 31.874 0.034 7.05 2.85 14.42
2/9/2021 8:15:00 PM -0.07 31.874 0.034 7.04 2.73 14.42
2/9/2021 8:30:00 PM -0.07 31.874 0.034 7 2.75 14.42
2/9/2021 8:45:00 PM -0.07 31.874 0.034 7.03 2.83 14.43
2/9/2021 9:00:00 PM -0.07 31.874 0.034 7.04 2.83 14.42
2/9/2021 9:15:00 PM -0.07 31.874 0.034 7.03 2.72 14.42
2/9/2021 9:30:00 PM -0.07 31.874 0.034 7.04 2.84 14.42
2/9/2021 9:45:00 PM -0.07 31.874 0.034 7.03 2.76 14.43
2/9/2021 10:00:00 PM -0.07 31.874 0.034 7.05 2.8 14.43
2/9/2021 10:15:00 PM -0.07 31.874 0.034 7.03 2.77 14.44
2/9/2021 10:30:00 PM -0.07 31.874 0.034 7.04 2.81 14.44
2/9/2021 10:45:00 PM -0.07 31.874 0.034 7.04 2.79 14.44
2/9/2021 11:00:00 PM -0.07 31.874 0.034 7.05 2.79 14.44
2/9/2021 11:15:00 PM -0.08 31.856 0.034 7.05 2.73 14.44
2/9/2021 11:30:00 PM -0.07 31.874 0.034 7.04 2.74 14.44
2/9/2021 11:45:00 PM -0.07 31.874 0.034 7.05 2.74 14.45
2/10/2021 12:00:00 AM -0.07 31.874 0.034 7.05 2.71 14.44
2/10/2021 12:15:00 AM -0.07 31.874 0.034 7.05 2.91 14.45
2/10/2021 12:30:00 AM -0.07 31.874 0.034 7.01 2.8 14.45
2/10/2021 12:45:00 AM -0.07 31.874 0.034 7.05 2.62 14.44
2/10/2021 1:00:00 AM -0.07 31.874 0.034 7.04 2.67 14.46
2/10/2021 1:15:00 AM -0.08 31.856 0.034 7.06 2.63 14.45
2/10/2021 1:30:00 AM -0.08 31.856 0.034 7.05 2.75 14.46
2/10/2021 1:45:00 AM -0.08 31.856 0.034 7.07 2.58 14.47
2/10/2021 2:00:00 AM -0.08 31.856 0.034 7.07 2.69 14.48
2/10/2021 2:15:00 AM -0.08 31.856 0.034 7.05 2.76 14.48
2/10/2021 2:30:00 AM -0.08 31.856 0.034 7.02 2.73 14.47
2/10/2021 2:45:00 AM -0.08 31.856 0.034 7.04 2.71 14.47
2/10/2021 3:00:00 AM -0.08 31.856 0.034 7.07 2.7 14.46
2/10/2021 3:15:00 AM -0.08 31.856 0.034 7.05 2.66 14.47
2/10/2021 3:30:00 AM -0.08 31.856 0.034 7.06 2.62 14.48
2/10/2021 3:45:00 AM -0.08 31.856 0.034 7.06 2.57 14.47
2/10/2021 4:00:00 AM -0.08 31.856 0.034 7.04 2.64 14.48
2/10/2021 4:15:00 AM -0.08 31.856 0.034 7.06 2.68 14.49
2/10/2021 4:30:00 AM -0.08 31.856 0.034 7.04 2.64 14.48
2/10/2021 4:45:00 AM -0.08 31.856 0.035 7.03 2.62 14.48
2/10/2021 5:00:00 AM -0.08 31.856 0.035 7.05 2.7 14.49
2/10/2021 5:15:00 AM -0.08 31.856 0.035 7.07 2.6 14.49
2/10/2021 5:30:00 AM -0.09 31.838 0.035 7.04 2.56 14.49
2/10/2021 5:45:00 AM -0.09 31.838 0.035 7.06 2.55 14.5
2/10/2021 6:00:00 AM -0.09 31.838 0.035 7.05 2.55 14.51
2/10/2021 6:15:00 AM -0.09 31.838 0.035 7.05 2.6 14.51
2/10/2021 6:30:00 AM -0.09 31.838 0.035 7.07 2.55 14.51
2/10/2021 6:45:00 AM -0.09 31.838 0.035 7.05 2.54 14.52
2/10/2021 7:00:00 AM -0.09 31.838 0.035 7.06 2.58 14.53
2/10/2021 7:15:00 AM -0.1 31.82 0.035 7.06 2.57 14.53
2/10/2021 7:30:00 AM -0.1 31.82 0.035 7.07 2.54 14.55
2/10/2021 7:45:00 AM -0.1 31.82 0.035 7.06 2.62 14.57
2/10/2021 8:00:00 AM -0.1 31.82 0.035 7.06 2.58 14.59
2/10/2021 8:15:00 AM -0.1 31.82 0.035 7.06 2.69 14.61
2/10/2021 8:30:00 AM -0.09 31.838 0.035 7.05 2.52 14.64
2/10/2021 8:45:00 AM -0.09 31.838 0.035 7.07 2.51 14.66
2/10/2021 9:00:00 AM -0.09 31.838 0.035 7.07 2.49 14.69
2/10/2021 9:15:00 AM -0.09 31.838 0.035 7.08 2.57 14.72
2/10/2021 9:30:00 AM -0.08 31.856 0.035 7.11 2.51 14.75
2/10/2021 9:45:00 AM -0.08 31.856 0.035 7.1 2.62 14.75
2/10/2021 10:00:00 AM -0.08 31.856 0.035 7.1 2.43 14.76
2/10/2021 10:15:00 AM -0.07 31.874 0.035 7.12 2.54 14.78
2/10/2021 10:30:00 AM -0.07 31.874 0.035 7.12 2.6 14.8
2/10/2021 10:45:00 AM -0.06 31.892 0.035 7.15 2.52 14.79
2/10/2021 11:00:00 AM -0.05 31.91 0.035 7.12 2.58 14.8
2/10/2021 11:15:00 AM -0.05 31.91 0.035 7.12 2.57 14.8
2/10/2021 11:30:00 AM -0.05 31.91 0.035 7.13 2.66 14.81
2/10/2021 11:45:00 AM -0.03 31.946 0.034 7.13 2.61 14.8
2/10/2021 12:00:00 PM -0.03 31.946 0.034 7.14 2.51 14.79
2/10/2021 12:15:00 PM -0.03 31.946 0.034 7.13 2.61 14.8
2/10/2021 12:30:00 PM -0.03 31.946 0.034 7.15 2.6 14.78
2/10/2021 12:45:00 PM -0.04 31.928 0.034 7.17 2.63 14.78
2/10/2021 1:00:00 PM -0.04 31.928 0.034 7.16 2.74 14.77
2/10/2021 1:15:00 PM -0.05 31.91 0.034 7.16 2.67 14.76
2/10/2021 1:30:00 PM -0.04 31.928 0.034 7.18 2.63 14.75
2/10/2021 1:45:00 PM -0.04 31.928 0.034 7.17 2.99 14.75
2/10/2021 2:00:00 PM -0.05 31.91 0.034 7.16 2.65 14.75
2/10/2021 2:15:00 PM -0.05 31.91 0.034 7.17 2.6 14.74
2/10/2021 2:30:00 PM -0.05 31.91 0.034 7.16 2.61 14.74
2/10/2021 2:45:00 PM -0.04 31.928 0.034 7.18 2.76 14.74
2/10/2021 3:00:00 PM -0.05 31.91 0.034 7.16 2.66 14.72
2/10/2021 3:15:00 PM -0.05 31.91 0.034 7.17 2.66 14.72
2/10/2021 3:30:00 PM -0.05 31.91 0.034 7.17 2.75 14.71
2/10/2021 3:45:00 PM -0.05 31.91 0.034 7.18 2.63 14.71
2/10/2021 4:00:00 PM -0.05 31.91 0.034 7.17 2.64 14.7
2/10/2021 4:15:00 PM -0.05 31.91 0.034 7.16 2.7 14.69
2/10/2021 4:30:00 PM -0.06 31.892 0.034 7.16 2.77 14.68
2/10/2021 4:45:00 PM -0.06 31.892 0.034 7.15 2.54 14.67
2/10/2021 5:00:00 PM -0.07 31.874 0.034 7.16 2.6 14.64
2/10/2021 5:15:00 PM -0.07 31.874 0.034 7.14 2.62 14.62
2/10/2021 5:30:00 PM -0.07 31.874 0.034 7.13 2.56 14.6
2/10/2021 5:45:00 PM -0.07 31.874 0.034 7.13 2.55 14.57
2/10/2021 6:00:00 PM -0.07 31.874 0.034 7.11 2.83 14.55
2/10/2021 6:15:00 PM -0.07 31.874 0.034 7.1 2.59 14.52
2/10/2021 6:30:00 PM -0.07 31.874 0.034 7.1 2.74 14.51
2/10/2021 6:45:00 PM -0.07 31.874 0.034 7.09 2.7 14.51
2/10/2021 7:00:00 PM -0.07 31.874 0.034 7.1 2.7 14.51
2/10/2021 7:15:00 PM -0.08 31.856 0.034 7.1 2.7 14.5
2/10/2021 7:30:00 PM -0.08 31.856 0.034 7.09 2.75 14.5
2/10/2021 7:45:00 PM -0.08 31.856 0.034 7.09 2.9 14.49
2/10/2021 8:00:00 PM -0.08 31.856 0.034 7.08 2.67 14.48
2/10/2021 8:15:00 PM -0.08 31.856 0.034 7.06 2.72 14.48
2/10/2021 8:30:00 PM -0.08 31.856 0.034 7.08 2.87 14.48
2/10/2021 8:45:00 PM -0.08 31.856 0.034 7.07 2.67 14.49
2/10/2021 9:00:00 PM -0.08 31.856 0.034 7.08 2.64 14.48
2/10/2021 9:15:00 PM -0.08 31.856 0.034 7.08 2.75 14.48
2/10/2021 9:30:00 PM -0.08 31.856 0.034 7.07 2.76 14.48
2/10/2021 9:45:00 PM -0.08 31.856 0.034 7.08 2.64 14.48
2/10/2021 10:00:00 PM -0.08 31.856 0.034 7.07 2.75 14.48
2/10/2021 10:15:00 PM -0.08 31.856 0.034 7.07 2.76 14.49
2/10/2021 10:30:00 PM -0.08 31.856 0.034 7.08 2.65 14.48
2/10/2021 10:45:00 PM -0.08 31.856 0.034 7.07 2.78 14.48
2/10/2021 11:00:00 PM -0.08 31.856 0.034 7.08 2.64 14.49
2/10/2021 11:15:00 PM -0.08 31.856 0.034 7.05 2.74 14.48
2/10/2021 11:30:00 PM -0.08 31.856 0.034 7.07 2.69 14.47
2/10/2021 11:45:00 PM -0.08 31.856 0.035 7.07 2.6 14.48
2/11/2021 12:00:00 AM -0.08 31.856 0.034 7.06 2.59 14.48
2/11/2021 12:15:00 AM -0.08 31.856 0.034 7.06 2.55 14.46
2/11/2021 12:30:00 AM -0.08 31.856 0.034 7.06 2.55 14.46
2/11/2021 12:45:00 AM -0.08 31.856 0.034 7.07 2.56 14.46
2/11/2021 1:00:00 AM -0.08 31.856 0.034 7.07 2.53 14.47
2/11/2021 1:15:00 AM -0.08 31.856 0.034 7.06 2.55 14.46
2/11/2021 1:30:00 AM -0.08 31.856 0.034 7.07 2.55 14.45
2/11/2021 1:45:00 AM -0.08 31.856 0.034 7.07 2.57 14.45
2/11/2021 2:00:00 AM -0.08 31.856 0.034 7.07 2.51 14.45
2/11/2021 2:15:00 AM -0.08 31.856 0.035 7.06 2.54 14.45
2/11/2021 2:30:00 AM -0.08 31.856 0.035 7.06 2.48 14.45
2/11/2021 2:45:00 AM -0.08 31.856 0.035 7.07 2.51 14.45
2/11/2021 3:00:00 AM -0.08 31.856 0.035 7.07 2.58 14.44
2/11/2021 3:15:00 AM -0.08 31.856 0.035 7.07 2.59 14.45
2/11/2021 3:30:00 AM -0.08 31.856 0.035 7.07 2.51 14.45
2/11/2021 3:45:00 AM -0.08 31.856 0.035 7.05 2.57 14.44
2/11/2021 4:00:00 AM -0.08 31.856 0.035 7.05 2.54 14.45
2/11/2021 4:15:00 AM -0.08 31.856 0.035 7.05 2.51 14.44
2/11/2021 4:30:00 AM -0.08 31.856 0.035 7.05 2.5 14.44
2/11/2021 4:45:00 AM -0.08 31.856 0.035 7.04 2.49 14.44
2/11/2021 5:00:00 AM -0.08 31.856 0.035 7.06 2.53 14.44
2/11/2021 5:15:00 AM -0.08 31.856 0.035 7.05 2.61 14.45
2/11/2021 5:30:00 AM -0.08 31.856 0.035 7.06 2.51 14.45
2/11/2021 5:45:00 AM -0.08 31.856 0.035 7.06 2.51 14.45
2/11/2021 6:00:00 AM -0.08 31.856 0.035 7.07 2.53 14.45
2/11/2021 6:15:00 AM -0.08 31.856 0.035 7.06 2.55 14.45
2/11/2021 6:30:00 AM -0.08 31.856 0.035 7.06 2.55 14.45
2/11/2021 6:45:00 AM -0.08 31.856 0.035 7.04 2.53 14.47
2/11/2021 7:00:00 AM -0.08 31.856 0.035 7.06 2.5 14.46
2/11/2021 7:15:00 AM -0.08 31.856 0.035 7.06 2.5 14.46
2/11/2021 7:30:00 AM -0.08 31.856 0.035 7.06 2.48 14.47
2/11/2021 7:45:00 AM -0.08 31.856 0.035 7.07 2.48 14.47
2/11/2021 8:00:00 AM -0.08 31.856 0.035 7.07 2.6 14.48
2/11/2021 8:15:00 AM -0.08 31.856 0.035 7.08 2.35 14.5
2/11/2021 8:30:00 AM -0.08 31.856 0.035 7.09 2.51 14.53
2/11/2021 8:45:00 AM -0.08 31.856 0.035 7.1 2.51 14.55
2/11/2021 9:00:00 AM -0.08 31.856 0.035 7.09 2.62 14.57
2/11/2021 9:15:00 AM -0.07 31.874 0.035 7.1 2.54 14.6
2/11/2021 9:30:00 AM -0.07 31.874 0.035 7.12 2.59 14.62
2/11/2021 9:45:00 AM -0.07 31.874 0.035 7.11 2.43 14.64
2/11/2021 10:00:00 AM -0.06 31.892 0.035 7.13 2.67 14.66
2/11/2021 10:15:00 AM -0.06 31.892 0.035 7.14 2.52 14.67
2/11/2021 10:30:00 AM -0.07 31.874 0.035 7.13 2.56 14.68
2/11/2021 10:45:00 AM -0.07 31.874 0.035 7.13 2.58 14.68
2/11/2021 11:00:00 AM -0.07 31.874 0.035 7.14 2.49 14.69
2/11/2021 11:15:00 AM -0.06 31.892 0.035 7.15 2.47 14.7
2/11/2021 11:30:00 AM -0.05 31.91 0.034 7.15 2.52 14.7
2/11/2021 11:45:00 AM -0.03 31.946 0.034 7.16 2.54 14.72
2/11/2021 12:00:00 PM 0 32 0.034 7.16 2.6 14.71
2/11/2021 12:15:00 PM 0.02 32.036 0.034 7.17 2.59 14.71
2/11/2021 12:30:00 PM 0 32 0.034 7.17 2.75 14.7
2/11/2021 12:45:00 PM 0.03 32.054 0.034 7.17 2.57 14.7
2/11/2021 1:00:00 PM 0.05 32.09 0.034 7.18 2.52 14.69
2/11/2021 1:15:00 PM 0.03 32.054 0.034 7.18 2.59 14.68
2/11/2021 1:30:00 PM 0.03 32.054 0.034 7.18 2.54 14.67
2/11/2021 1:45:00 PM 0 32 0.034 7.18 2.64 14.66
2/11/2021 2:00:00 PM -0.01 31.982 0.034 7.17 2.67 14.67
2/11/2021 2:15:00 PM 0 32 0.034 7.18 2.55 14.65
2/11/2021 2:30:00 PM -0.01 31.982 0.034 7.18 2.58 14.67
2/11/2021 2:45:00 PM -0.01 31.982 0.034 7.17 2.54 14.64
2/11/2021 3:00:00 PM -0.03 31.946 0.034 7.17 2.65 14.65
2/11/2021 3:15:00 PM -0.03 31.946 0.034 7.17 2.56 14.64
2/11/2021 3:30:00 PM -0.04 31.928 0.034 7.15 2.54 14.64
2/11/2021 3:45:00 PM -0.04 31.928 0.034 7.16 2.57 14.62
2/11/2021 4:00:00 PM -0.04 31.928 0.034 7.16 2.59 14.63
2/11/2021 4:15:00 PM -0.04 31.928 0.034 7.16 2.57 14.63
2/11/2021 4:30:00 PM -0.05 31.91 0.034 7.17 2.68 14.63
2/11/2021 4:45:00 PM -0.05 31.91 0.034 7.15 2.6 14.61
2/11/2021 5:00:00 PM -0.06 31.892 0.034 7.16 2.57 14.61
2/11/2021 5:15:00 PM -0.07 31.874 0.034 7.14 2.59 14.6
2/11/2021 5:30:00 PM -0.07 31.874 0.034 7.13 2.56 14.58
2/11/2021 5:45:00 PM -0.08 31.856 0.034 7.13 2.56 14.57
2/11/2021 6:00:00 PM -0.08 31.856 0.034 7.13 2.51 14.55
2/11/2021 6:15:00 PM -0.09 31.838 0.034 7.11 2.63 14.54
2/11/2021 6:30:00 PM -0.09 31.838 0.034 7.11 2.6 14.55
2/11/2021 6:45:00 PM -0.09 31.838 0.034 7.09 2.55 14.53
2/11/2021 7:00:00 PM -0.09 31.838 0.034 7.11 2.59 14.53
2/11/2021 7:15:00 PM -0.09 31.838 0.034 7.1 2.47 14.53
2/11/2021 7:30:00 PM -0.09 31.838 0.034 7.08 2.43 14.53
2/11/2021 7:45:00 PM -0.1 31.82 0.034 7.09 2.51 14.52
2/11/2021 8:00:00 PM -0.1 31.82 0.034 7.07 2.53 14.54
2/11/2021 8:15:00 PM -0.1 31.82 0.034 7.06 2.57 14.54
2/11/2021 8:30:00 PM -0.09 31.838 0.034 7.05 2.55 14.54
2/11/2021 8:45:00 PM -0.09 31.838 0.034 7.05 2.59 14.53
2/11/2021 9:00:00 PM -0.09 31.838 0.034 7.06 2.52 14.54
2/11/2021 9:15:00 PM -0.09 31.838 0.034 7.05 2.59 14.53
2/11/2021 9:30:00 PM -0.09 31.838 0.034 7.05 2.57 14.53
2/11/2021 9:45:00 PM -0.09 31.838 0.034 7.05 2.48 14.53
2/11/2021 10:00:00 PM -0.09 31.838 0.034 7.06 2.49 14.53
2/11/2021 10:15:00 PM -0.09 31.838 0.034 7.05 2.52 14.53
2/11/2021 10:30:00 PM -0.09 31.838 0.034 7.06 2.48 14.53
2/11/2021 10:45:00 PM -0.09 31.838 0.034 7.06 2.5 14.53
2/11/2021 11:00:00 PM -0.09 31.838 0.034 7.05 2.51 14.53
2/11/2021 11:15:00 PM -0.09 31.838 0.034 7.05 2.59 14.53
2/11/2021 11:30:00 PM -0.09 31.838 0.034 7.05 2.6 14.54
2/11/2021 11:45:00 PM -0.09 31.838 0.035 7.06 2.49 14.54
2/12/2021 12:00:00 AM -0.09 31.838 0.035 7.06 2.49 14.53
2/12/2021 12:15:00 AM -0.09 31.838 0.035 7.06 2.44 14.53
2/12/2021 12:30:00 AM -0.09 31.838 0.035 7.06 2.52 14.53
2/12/2021 12:45:00 AM -0.09 31.838 0.035 7.07 2.52 14.53
2/12/2021 1:00:00 AM -0.09 31.838 0.035 7.06 2.42 14.54
2/12/2021 1:15:00 AM -0.09 31.838 0.035 7.07 2.43 14.53
2/12/2021 1:30:00 AM -0.09 31.838 0.035 7.07 2.6 14.53
2/12/2021 1:45:00 AM -0.09 31.838 0.035 7.06 2.46 14.54
2/12/2021 2:00:00 AM -0.09 31.838 0.035 7.06 2.59 14.53
2/12/2021 2:15:00 AM -0.09 31.838 0.035 7.07 2.47 14.54
2/12/2021 2:30:00 AM -0.09 31.838 0.035 7.06 2.37 14.54
2/12/2021 2:45:00 AM -0.09 31.838 0.035 7.06 2.44 14.54
2/12/2021 3:00:00 AM -0.09 31.838 0.035 7.06 2.49 14.54
2/12/2021 3:15:00 AM -0.09 31.838 0.035 7.06 2.63 14.54
2/12/2021 3:30:00 AM -0.09 31.838 0.035 7.06 2.54 14.54
2/12/2021 3:45:00 AM -0.09 31.838 0.035 7.06 2.52 14.54
2/12/2021 4:00:00 AM -0.09 31.838 0.036 7.07 2.49 14.53
2/12/2021 4:15:00 AM -0.09 31.838 0.036 7.06 2.46 14.53
2/12/2021 4:30:00 AM -0.09 31.838 0.036 7.06 2.61 14.53
2/12/2021 4:45:00 AM -0.09 31.838 0.036 7.06 2.55 14.54
2/12/2021 5:00:00 AM -0.09 31.838 0.036 7.05 2.5 14.54
2/12/2021 5:15:00 AM -0.09 31.838 0.036 7.05 2.55 14.54
2/12/2021 5:30:00 AM -0.09 31.838 0.036 7.06 2.55 14.54
2/12/2021 5:45:00 AM -0.09 31.838 0.036 7.07 2.55 14.53
2/12/2021 6:00:00 AM -0.09 31.838 0.036 7.07 2.55 14.52
2/12/2021 6:15:00 AM -0.09 31.838 0.036 7.06 2.44 14.52
2/12/2021 6:30:00 AM -0.09 31.838 0.036 7.06 2.47 14.51
2/12/2021 6:45:00 AM -0.09 31.838 0.036 7.05 2.44 14.51
2/12/2021 7:00:00 AM -0.09 31.838 0.036 7.05 2.54 14.52
2/12/2021 7:15:00 AM -0.09 31.838 0.036 7.05 2.57 14.51
2/12/2021 7:30:00 AM -0.09 31.838 0.036 7.06 2.61 14.52
2/12/2021 7:45:00 AM -0.09 31.838 0.036 7.06 2.58 14.53
2/12/2021 8:00:00 AM -0.08 31.856 0.036 7.07 2.54 14.54
2/12/2021 8:15:00 AM -0.08 31.856 0.036 7.07 2.56 14.56
2/12/2021 8:30:00 AM -0.08 31.856 0.036 7.08 2.63 14.58
2/12/2021 8:45:00 AM -0.08 31.856 0.036 7.08 2.52 14.6
2/12/2021 9:00:00 AM -0.08 31.856 0.036 7.09 2.49 14.61
2/12/2021 9:15:00 AM -0.08 31.856 0.036 7.1 2.57 14.65
2/12/2021 9:30:00 AM -0.08 31.856 0.036 7.1 2.52 14.67
2/12/2021 9:45:00 AM -0.08 31.856 0.036 7.11 2.47 14.68
2/12/2021 10:00:00 AM -0.08 31.856 0.036 7.12 2.46 14.7
2/12/2021 10:15:00 AM -0.08 31.856 0.036 7.13 2.48 14.72
2/12/2021 10:30:00 AM -0.08 31.856 0.036 7.12 2.47 14.72
2/12/2021 10:45:00 AM -0.08 31.856 0.036 7.13 2.49 14.73
2/12/2021 11:00:00 AM -0.08 31.856 0.036 7.13 2.49 14.73
2/12/2021 11:15:00 AM -0.08 31.856 0.036 7.14 2.55 14.74
2/12/2021 11:30:00 AM -0.08 31.856 0.036 7.15 2.53 14.75
2/12/2021 11:45:00 AM -0.08 31.856 0.036 7.14 2.41 14.75
2/12/2021 12:00:00 PM -0.08 31.856 0.036 7.14 2.58 14.75
2/12/2021 12:15:00 PM -0.08 31.856 0.036 7.15 2.59 14.75
2/12/2021 12:30:00 PM -0.08 31.856 0.036 7.15 2.5 14.76
2/12/2021 12:45:00 PM -0.08 31.856 0.036 7.15 2.55 14.76
2/12/2021 1:00:00 PM -0.08 31.856 0.036 7.15 2.53 14.75
2/12/2021 1:15:00 PM -0.08 31.856 0.036 7.14 2.51 14.75
2/12/2021 1:30:00 PM -0.08 31.856 0.036 7.14 2.53 14.75
2/12/2021 1:45:00 PM -0.08 31.856 0.036 7.14 2.58 14.75
2/12/2021 2:00:00 PM -0.08 31.856 0.036 7.15 2.55 14.74
2/12/2021 2:15:00 PM -0.08 31.856 0.036 7.16 2.58 14.74
2/12/2021 2:30:00 PM -0.08 31.856 0.036 7.15 2.53 14.73
2/12/2021 2:45:00 PM -0.08 31.856 0.036 7.16 2.46 14.74
2/12/2021 3:00:00 PM -0.08 31.856 0.036 7.15 2.51 14.73
2/12/2021 3:15:00 PM -0.08 31.856 0.035 7.15 2.57 14.71
2/12/2021 3:30:00 PM -0.08 31.856 0.036 7.15 2.48 14.71
2/12/2021 3:45:00 PM -0.08 31.856 0.035 7.13 2.56 14.71
2/12/2021 4:00:00 PM -0.08 31.856 0.035 7.14 2.49 14.7
2/12/2021 4:15:00 PM -0.08 31.856 0.035 7.13 2.47 14.69
2/12/2021 4:30:00 PM -0.08 31.856 0.035 7.13 2.49 14.68
2/12/2021 4:45:00 PM -0.08 31.856 0.035 7.12 2.54 14.66
2/12/2021 5:00:00 PM -0.08 31.856 0.035 7.11 2.51 14.64
2/12/2021 5:15:00 PM -0.08 31.856 0.035 7.12 2.53 14.62
2/12/2021 5:30:00 PM -0.08 31.856 0.035 7.09 2.63 14.6
2/12/2021 5:45:00 PM -0.08 31.856 0.035 7.1 2.61 14.59
2/12/2021 6:00:00 PM -0.08 31.856 0.035 7.09 2.54 14.56
2/12/2021 6:15:00 PM -0.08 31.856 0.035 7.09 2.5 14.54
2/12/2021 6:30:00 PM -0.08 31.856 0.035 7.08 2.53 14.53
2/12/2021 6:45:00 PM -0.08 31.856 0.035 7.06 2.47 14.53
2/12/2021 7:00:00 PM -0.08 31.856 0.035 7.06 2.51 14.52
2/12/2021 7:15:00 PM -0.08 31.856 0.035 7.06 2.57 14.5
2/12/2021 7:30:00 PM -0.08 31.856 0.037 7.03 4.26 14.5
2/12/2021 7:45:00 PM -0.08 31.856 0.035 7.06 2.51 14.49
2/12/2021 8:00:00 PM -0.08 31.856 0.035 7.05 2.49 14.5
2/12/2021 8:15:00 PM -0.08 31.856 0.035 7.05 2.43 14.49
2/12/2021 8:30:00 PM -0.08 31.856 0.035 7.04 2.52 14.49
2/12/2021 8:45:00 PM -0.08 31.856 0.035 7.05 2.48 14.48
2/12/2021 9:00:00 PM -0.08 31.856 0.035 7.04 2.6 14.48
2/12/2021 9:15:00 PM -0.08 31.856 0.035 7.05 2.53 14.49
2/12/2021 9:30:00 PM -0.08 31.856 0.035 7.05 2.68 14.48
2/12/2021 9:45:00 PM -0.08 31.856 0.035 7.05 2.45 14.48
2/12/2021 10:00:00 PM -0.08 31.856 0.035 7.05 2.56 14.49
2/12/2021 10:15:00 PM -0.08 31.856 0.035 7.05 2.5 14.48
2/12/2021 10:30:00 PM -0.08 31.856 0.035 7.04 2.56 14.48
2/12/2021 10:45:00 PM -0.08 31.856 0.035 7.05 2.52 14.48
2/12/2021 11:00:00 PM -0.08 31.856 0.035 7.06 2.5 14.47
2/12/2021 11:15:00 PM -0.08 31.856 0.035 7.04 2.55 14.48
2/12/2021 11:30:00 PM -0.08 31.856 0.036 7.05 2.44 14.47
2/12/2021 11:45:00 PM -0.08 31.856 0.035 7.05 2.57 14.48
2/13/2021 12:00:00 AM -0.08 31.856 0.035 7.05 2.5 14.48
2/13/2021 12:15:00 AM -0.08 31.856 0.035 7.05 2.45 14.48
2/13/2021 12:30:00 AM -0.08 31.856 0.035 7.04 2.52 14.48
2/13/2021 12:45:00 AM -0.08 31.856 0.035 7.04 2.57 14.48
2/13/2021 1:00:00 AM -0.08 31.856 0.035 7.05 2.55 14.48
2/13/2021 1:15:00 AM -0.09 31.838 0.035 7.05 2.59 14.48
2/13/2021 1:30:00 AM -0.09 31.838 0.035 7.05 2.66 14.49
2/13/2021 1:45:00 AM -0.09 31.838 0.035 7.04 2.62 14.49
2/13/2021 2:00:00 AM -0.09 31.838 0.035 7.04 2.67 14.49
2/13/2021 2:15:00 AM -0.09 31.838 0.035 7.05 2.72 14.49
2/13/2021 2:30:00 AM -0.09 31.838 0.036 7.03 2.6 14.49
2/13/2021 2:45:00 AM -0.09 31.838 0.036 7.04 2.62 14.51
2/13/2021 3:00:00 AM -0.09 31.838 0.036 7.06 2.68 14.5
2/13/2021 3:15:00 AM -0.09 31.838 0.036 7.05 2.73 14.5
2/13/2021 3:30:00 AM -0.09 31.838 0.036 7.04 2.73 14.5
2/13/2021 3:45:00 AM -0.09 31.838 0.036 7.04 2.7 14.5
2/13/2021 4:00:00 AM -0.09 31.838 0.036 7.04 2.71 14.5
2/13/2021 4:15:00 AM -0.09 31.838 0.036 7.04 2.72 14.5
2/13/2021 4:30:00 AM -0.09 31.838 0.036 7.04 2.74 14.49
2/13/2021 4:45:00 AM -0.09 31.838 0.036 7.05 2.63 14.49
2/13/2021 5:00:00 AM -0.09 31.838 0.036 7.05 2.79 14.5
2/13/2021 5:15:00 AM -0.09 31.838 0.036 7.05 2.69 14.49
2/13/2021 5:30:00 AM -0.09 31.838 0.036 7.05 2.83 14.5
2/13/2021 5:45:00 AM -0.09 31.838 0.036 7.06 2.74 14.5
2/13/2021 6:00:00 AM -0.09 31.838 0.036 7.05 2.73 14.5
2/13/2021 6:15:00 AM -0.09 31.838 0.036 7.05 2.75 14.5
2/13/2021 6:30:00 AM -0.09 31.838 0.036 7.06 2.82 14.51
2/13/2021 6:45:00 AM -0.09 31.838 0.036 7.04 2.77 14.5
2/13/2021 7:00:00 AM -0.09 31.838 0.036 7.05 2.77 14.5
2/13/2021 7:15:00 AM -0.09 31.838 0.036 7.05 2.73 14.5
2/13/2021 7:30:00 AM -0.09 31.838 0.036 7.06 2.71 14.5
2/13/2021 7:45:00 AM -0.08 31.856 0.036 7.06 2.79 14.52
2/13/2021 8:00:00 AM -0.08 31.856 0.036 7.08 2.99 14.54
2/13/2021 8:15:00 AM -0.08 31.856 0.036 7.07 2.81 14.56
2/13/2021 8:30:00 AM -0.08 31.856 0.036 7.08 2.77 14.58
2/13/2021 8:45:00 AM -0.08 31.856 0.036 7.09 2.78 14.61
2/13/2021 9:00:00 AM -0.08 31.856 0.036 7.1 2.64 14.63
2/13/2021 9:15:00 AM -0.08 31.856 0.037 7.1 2.62 14.66
2/13/2021 9:30:00 AM -0.08 31.856 0.036 7.11 2.76 14.68
2/13/2021 9:45:00 AM -0.08 31.856 0.036 7.1 2.64 14.7
2/13/2021 10:00:00 AM -0.08 31.856 0.036 7.12 2.69 14.73
2/13/2021 10:15:00 AM -0.08 31.856 0.036 7.13 2.67 14.73
2/13/2021 10:30:00 AM -0.08 31.856 0.036 7.14 2.58 14.75
2/13/2021 10:45:00 AM -0.07 31.874 0.036 7.14 2.57 14.76
2/13/2021 11:00:00 AM -0.08 31.856 0.036 7.14 2.62 14.76
2/13/2021 11:15:00 AM -0.07 31.874 0.036 7.15 2.5 14.78
2/13/2021 11:30:00 AM -0.07 31.874 0.036 7.14 2.59 14.78
2/13/2021 11:45:00 AM -0.07 31.874 0.036 7.16 2.5 14.79
2/13/2021 12:00:00 PM -0.08 31.856 0.036 7.17 2.65 14.78
2/13/2021 12:15:00 PM -0.07 31.874 0.036 7.16 2.45 14.78
2/13/2021 12:30:00 PM -0.07 31.874 0.036 7.16 2.43 14.79
2/13/2021 12:45:00 PM -0.08 31.856 0.036 7.17 2.48 14.78
2/13/2021 1:00:00 PM -0.08 31.856 0.036 7.16 2.4 14.78
2/13/2021 1:15:00 PM -0.08 31.856 0.036 7.15 2.46 14.78
2/13/2021 1:30:00 PM -0.08 31.856 0.036 7.16 2.46 14.77
2/13/2021 1:45:00 PM -0.07 31.874 0.036 7.17 2.54 14.77
2/13/2021 2:00:00 PM -0.07 31.874 0.036 7.18 2.46 14.77
2/13/2021 2:15:00 PM -0.07 31.874 0.036 7.17 2.54 14.76
2/13/2021 2:30:00 PM -0.07 31.874 0.036 7.18 2.52 14.76
2/13/2021 2:45:00 PM -0.07 31.874 0.036 7.17 2.64 14.75
2/13/2021 3:00:00 PM -0.07 31.874 0.036 7.15 2.48 14.75
2/13/2021 3:15:00 PM -0.07 31.874 0.036 7.17 2.48 14.74
2/13/2021 3:30:00 PM -0.08 31.856 0.036 7.17 2.5 14.73
2/13/2021 3:45:00 PM -0.08 31.856 0.036 7.16 2.52 14.72
2/13/2021 4:00:00 PM -0.08 31.856 0.036 7.16 2.55 14.71
2/13/2021 4:15:00 PM -0.08 31.856 0.036 7.17 2.49 14.7
2/13/2021 4:30:00 PM -0.08 31.856 0.035 7.14 2.66 14.68
2/13/2021 4:45:00 PM -0.08 31.856 0.036 7.14 2.53 14.67
2/13/2021 5:00:00 PM -0.08 31.856 0.035 7.14 2.5 14.63
2/13/2021 5:15:00 PM -0.08 31.856 0.036 7.13 2.55 14.61
2/13/2021 5:30:00 PM -0.08 31.856 0.035 7.12 2.52 14.59
2/13/2021 5:45:00 PM -0.08 31.856 0.036 7.11 2.53 14.56
2/13/2021 6:00:00 PM -0.08 31.856 0.035 7.1 2.57 14.54
2/13/2021 6:15:00 PM -0.08 31.856 0.036 7.1 2.45 14.52
2/13/2021 6:30:00 PM -0.08 31.856 0.036 7.08 2.49 14.5
2/13/2021 6:45:00 PM -0.08 31.856 0.036 7.08 2.57 14.48
2/13/2021 7:00:00 PM -0.08 31.856 0.036 7.08 2.5 14.46
2/13/2021 7:15:00 PM -0.08 31.856 0.036 7.07 2.46 14.45
2/13/2021 7:30:00 PM -0.08 31.856 0.036 7.07 2.54 14.44
2/13/2021 7:45:00 PM -0.08 31.856 0.036 7.06 2.51 14.43
2/13/2021 8:00:00 PM -0.08 31.856 0.036 7.06 2.5 14.42
2/13/2021 8:15:00 PM -0.08 31.856 0.036 7.06 2.5 14.41
2/13/2021 8:30:00 PM -0.08 31.856 0.036 7.06 2.5 14.41
2/13/2021 8:45:00 PM -0.08 31.856 0.036 7.05 2.45 14.4
2/13/2021 9:00:00 PM -0.08 31.856 0.036 7.05 2.49 14.4
2/13/2021 9:15:00 PM -0.08 31.856 0.036 7.05 2.43 14.39
2/13/2021 9:30:00 PM -0.08 31.856 0.036 7.04 2.46 14.39
2/13/2021 9:45:00 PM -0.08 31.856 0.036 7.04 2.46 14.39
2/13/2021 10:00:00 PM -0.08 31.856 0.036 7.04 2.48 14.39
2/13/2021 10:15:00 PM -0.08 31.856 0.036 7.04 2.56 14.39
2/13/2021 10:30:00 PM -0.08 31.856 0.036 7.04 2.47 14.39
2/13/2021 10:45:00 PM -0.08 31.856 0.036 7.04 2.51 14.38
2/13/2021 11:00:00 PM -0.08 31.856 0.035 7.03 2.5 14.38
2/13/2021 11:15:00 PM -0.08 31.856 0.036 7.03 2.48 14.38
2/13/2021 11:30:00 PM -0.08 31.856 0.036 7.03 2.49 14.37
2/13/2021 11:45:00 PM -0.08 31.856 0.035 7.03 2.45 14.38
2/14/2021 12:00:00 AM -0.08 31.856 0.035 7.04 2.48 14.37
2/14/2021 12:15:00 AM -0.08 31.856 0.036 7.04 2.58 14.38
2/14/2021 12:30:00 AM -0.08 31.856 0.036 7.03 2.57 14.38
2/14/2021 12:45:00 AM -0.08 31.856 0.036 7.03 2.54 14.38
2/14/2021 1:00:00 AM -0.08 31.856 0.035 7.02 2.48 14.38
2/14/2021 1:15:00 AM -0.08 31.856 0.035 7.04 2.45 14.38
2/14/2021 1:30:00 AM -0.08 31.856 0.035 7.02 2.44 14.37
2/14/2021 1:45:00 AM -0.08 31.856 0.035 7.02 2.49 14.37
2/14/2021 2:00:00 AM -0.08 31.856 0.035 7.02 2.5 14.37
2/14/2021 2:15:00 AM -0.08 31.856 0.035 7.03 2.47 14.37
2/14/2021 2:30:00 AM -0.08 31.856 0.035 7.03 2.46 14.37
2/14/2021 2:45:00 AM -0.08 31.856 0.035 7.03 2.51 14.37
2/14/2021 3:00:00 AM -0.08 31.856 0.035 7.02 2.48 14.37
2/14/2021 3:15:00 AM -0.08 31.856 0.035 7.03 2.46 14.36
2/14/2021 3:30:00 AM -0.08 31.856 0.035 7.04 2.46 14.38
2/14/2021 3:45:00 AM -0.08 31.856 0.035 7.03 2.52 14.37
2/14/2021 4:00:00 AM -0.08 31.856 0.035 7.03 2.51 14.37
2/14/2021 4:15:00 AM -0.08 31.856 0.035 7.03 2.44 14.37
2/14/2021 4:30:00 AM -0.08 31.856 0.035 7.03 2.52 14.37
2/14/2021 4:45:00 AM -0.08 31.856 0.035 7.03 2.53 14.37
2/14/2021 5:00:00 AM -0.08 31.856 0.035 7.03 2.53 14.37
2/14/2021 5:15:00 AM -0.08 31.856 0.035 7.03 2.57 14.38
2/14/2021 5:30:00 AM -0.08 31.856 0.035 7.02 2.46 14.37
2/14/2021 5:45:00 AM -0.08 31.856 0.035 7.03 2.46 14.37
2/14/2021 6:00:00 AM -0.08 31.856 0.035 7.02 2.44 14.38
2/14/2021 6:15:00 AM -0.08 31.856 0.035 7.04 2.53 14.38
2/14/2021 6:30:00 AM -0.08 31.856 0.035 7.03 2.46 14.38
2/14/2021 6:45:00 AM -0.08 31.856 0.035 7.03 2.59 14.38
2/14/2021 7:00:00 AM -0.08 31.856 0.035 7.02 2.55 14.39
2/14/2021 7:15:00 AM -0.08 31.856 0.035 7.03 2.49 14.39
2/14/2021 7:30:00 AM -0.08 31.856 0.035 7.04 2.52 14.39
2/14/2021 7:45:00 AM -0.08 31.856 0.036 7.05 2.46 14.4
2/14/2021 8:00:00 AM -0.08 31.856 0.036 7.05 2.46 14.43
2/14/2021 8:15:00 AM -0.07 31.874 0.036 7.06 2.47 14.45
2/14/2021 8:30:00 AM -0.07 31.874 0.036 7.05 2.51 14.46
2/14/2021 8:45:00 AM -0.07 31.874 0.035 7.07 2.56 14.49
2/14/2021 9:00:00 AM -0.07 31.874 0.035 7.06 2.42 14.53
2/14/2021 9:15:00 AM -0.07 31.874 0.035 7.09 2.56 14.56
2/14/2021 9:30:00 AM -0.07 31.874 0.036 7.08 2.5 14.59
2/14/2021 9:45:00 AM -0.07 31.874 0.035 7.1 2.46 14.61
2/14/2021 10:00:00 AM -0.07 31.874 0.035 7.09 2.55 14.64
2/14/2021 10:15:00 AM -0.07 31.874 0.035 7.1 2.64 14.66
2/14/2021 10:30:00 AM -0.07 31.874 0.035 7.12 2.45 14.66
2/14/2021 10:45:00 AM -0.07 31.874 0.035 7.12 2.64 14.67
2/14/2021 11:00:00 AM -0.06 31.892 0.035 7.13 2.68 14.69
2/14/2021 11:15:00 AM -0.06 31.892 0.035 7.12 2.55 14.7
2/14/2021 11:30:00 AM -0.06 31.892 0.035 7.12 2.51 14.7
2/14/2021 11:45:00 AM -0.06 31.892 0.035 7.13 2.53 14.7
2/14/2021 12:00:00 PM -0.06 31.892 0.035 7.13 2.65 14.72
2/14/2021 12:15:00 PM -0.06 31.892 0.035 7.13 2.58 14.71
2/14/2021 12:30:00 PM -0.06 31.892 0.035 7.13 2.51 14.73
2/14/2021 12:45:00 PM -0.05 31.91 0.035 7.14 2.61 14.75
2/14/2021 1:00:00 PM -0.06 31.892 0.035 7.14 2.48 14.73
2/14/2021 1:15:00 PM -0.06 31.892 0.035 7.15 2.51 14.73
2/14/2021 1:30:00 PM -0.05 31.91 0.035 7.15 2.67 14.72
2/14/2021 1:45:00 PM -0.05 31.91 0.035 7.15 2.64 14.73
2/14/2021 2:00:00 PM -0.06 31.892 0.035 7.15 2.57 14.72
2/14/2021 2:15:00 PM -0.05 31.91 0.035 7.15 2.52 14.72
2/14/2021 2:30:00 PM -0.06 31.892 0.035 7.15 2.56 14.72
2/14/2021 2:45:00 PM -0.06 31.892 0.035 7.15 2.52 14.71
2/14/2021 3:00:00 PM -0.06 31.892 0.035 7.17 2.52 14.72
2/14/2021 3:15:00 PM -0.06 31.892 0.035 7.16 2.64 14.71
2/14/2021 3:30:00 PM -0.06 31.892 0.035 7.16 2.58 14.71
2/14/2021 3:45:00 PM -0.06 31.892 0.034 7.15 2.55 14.7
2/14/2021 4:00:00 PM -0.06 31.892 0.035 7.17 2.58 14.7
2/14/2021 4:15:00 PM -0.06 31.892 0.034 7.14 2.55 14.68
2/14/2021 4:30:00 PM -0.06 31.892 0.035 7.14 2.4 14.67
2/14/2021 4:45:00 PM -0.06 31.892 0.034 7.13 2.62 14.66
2/14/2021 5:00:00 PM -0.07 31.874 0.034 7.13 2.48 14.64
2/14/2021 5:15:00 PM -0.07 31.874 0.034 7.12 2.48 14.62
2/14/2021 5:30:00 PM -0.07 31.874 0.034 7.11 2.59 14.59
2/14/2021 5:45:00 PM -0.07 31.874 0.034 7.1 2.63 14.57
2/14/2021 6:00:00 PM -0.07 31.874 0.034 7.11 2.59 14.55
2/14/2021 6:15:00 PM -0.07 31.874 0.035 7.09 2.47 14.53
2/14/2021 6:30:00 PM -0.07 31.874 0.035 7.09 2.62 14.51
2/14/2021 6:45:00 PM -0.07 31.874 0.034 7.08 2.61 14.5
2/14/2021 7:00:00 PM -0.07 31.874 0.035 7.06 2.56 14.48
2/14/2021 7:15:00 PM -0.07 31.874 0.035 7.07 2.61 14.48
2/14/2021 7:30:00 PM -0.07 31.874 0.035 7.06 2.58 14.46
2/14/2021 7:45:00 PM -0.07 31.874 0.035 7.07 2.51 14.46
2/14/2021 8:00:00 PM -0.07 31.874 0.035 7.06 2.5 14.45
2/14/2021 8:15:00 PM -0.07 31.874 0.035 7.06 2.52 14.45
2/14/2021 8:30:00 PM -0.07 31.874 0.035 7.06 2.61 14.44
2/14/2021 8:45:00 PM -0.07 31.874 0.035 7.05 2.64 14.44
2/14/2021 9:00:00 PM -0.07 31.874 0.035 7.06 2.64 14.45
2/14/2021 9:15:00 PM -0.07 31.874 0.035 7.04 2.59 14.44
2/14/2021 9:30:00 PM -0.07 31.874 0.035 7.04 2.57 14.46
2/14/2021 9:45:00 PM -0.07 31.874 0.035 7.04 2.61 14.44
2/14/2021 10:00:00 PM -0.07 31.874 0.035 7.04 2.54 14.44
2/14/2021 10:15:00 PM -0.07 31.874 0.035 7.03 2.62 14.44
2/14/2021 10:30:00 PM -0.07 31.874 0.035 7.04 2.63 14.43
2/14/2021 10:45:00 PM -0.07 31.874 0.035 7.04 2.53 14.43
2/14/2021 11:00:00 PM -0.07 31.874 0.035 7.05 2.55 14.43
2/14/2021 11:15:00 PM -0.07 31.874 0.035 7.04 2.55 14.43
2/14/2021 11:30:00 PM -0.07 31.874 0.035 7.05 2.62 14.43
2/14/2021 11:45:00 PM -0.07 31.874 0.035 7.06 2.56 14.42
2/15/2021 12:00:00 AM -0.07 31.874 0.035 7.06 2.57 14.43
2/15/2021 12:15:00 AM -0.07 31.874 0.035 7.06 2.59 14.42
2/15/2021 12:30:00 AM -0.07 31.874 0.035 7.04 2.56 14.43
2/15/2021 12:45:00 AM -0.07 31.874 0.035 7.04 2.63 14.43
2/15/2021 1:00:00 AM -0.07 31.874 0.035 7.04 2.64 14.42
2/15/2021 1:15:00 AM -0.07 31.874 0.035 7.03 2.57 14.43
2/15/2021 1:30:00 AM -0.07 31.874 0.035 7.04 2.54 14.43
2/15/2021 1:45:00 AM -0.07 31.874 0.035 7.03 2.67 14.42
2/15/2021 2:00:00 AM -0.07 31.874 0.035 7.03 2.51 14.42
2/15/2021 2:15:00 AM -0.07 31.874 0.035 7.04 2.64 14.43
2/15/2021 2:30:00 AM -0.07 31.874 0.035 7.03 2.52 14.43
2/15/2021 2:45:00 AM -0.07 31.874 0.035 7.04 2.56 14.42
2/15/2021 3:00:00 AM -0.07 31.874 0.035 7.04 2.51 14.42
2/15/2021 3:15:00 AM -0.07 31.874 0.035 7.04 2.66 14.42
2/15/2021 3:30:00 AM -0.07 31.874 0.035 7.05 2.6 14.42
2/15/2021 3:45:00 AM -0.07 31.874 0.035 7.04 2.46 14.42
2/15/2021 4:00:00 AM -0.07 31.874 0.035 7.04 2.58 14.41
2/15/2021 4:15:00 AM -0.07 31.874 0.035 7.03 2.53 14.42
2/15/2021 4:30:00 AM -0.07 31.874 0.035 7.05 2.55 14.42
2/15/2021 4:45:00 AM -0.07 31.874 0.035 7.05 2.58 14.42
2/15/2021 5:00:00 AM -0.07 31.874 0.035 7.04 2.58 14.42
2/15/2021 5:15:00 AM -0.07 31.874 0.035 7.06 2.6 14.42
2/15/2021 5:30:00 AM -0.07 31.874 0.035 7.06 2.5 14.42
2/15/2021 5:45:00 AM -0.07 31.874 0.035 7.05 2.52 14.42
2/15/2021 6:00:00 AM -0.07 31.874 0.035 7.05 2.54 14.41
2/15/2021 6:15:00 AM -0.07 31.874 0.035 7.04 2.47 14.41
2/15/2021 6:30:00 AM -0.07 31.874 0.035 7.06 2.63 14.42
2/15/2021 6:45:00 AM -0.07 31.874 0.035 7.04 2.54 14.42
2/15/2021 7:00:00 AM -0.07 31.874 0.035 7.05 2.59 14.42
2/15/2021 7:15:00 AM -0.07 31.874 0.035 7.05 2.52 14.42
2/15/2021 7:30:00 AM -0.07 31.874 0.035 7.05 2.47 14.43
2/15/2021 7:45:00 AM -0.07 31.874 0.035 7.07 2.47 14.45
2/15/2021 8:00:00 AM -0.07 31.874 0.035 7.08 2.57 14.48
2/15/2021 8:15:00 AM -0.07 31.874 0.035 7.07 2.47 14.49
2/15/2021 8:30:00 AM -0.07 31.874 0.035 7.08 2.61 14.53
2/15/2021 8:45:00 AM -0.07 31.874 0.035 7.1 2.6 14.54
2/15/2021 9:00:00 AM -0.06 31.892 0.035 7.1 2.48 14.58
2/15/2021 9:15:00 AM -0.06 31.892 0.035 7.11 2.58 14.6
2/15/2021 9:30:00 AM -0.06 31.892 0.035 7.1 2.53 14.63
2/15/2021 9:45:00 AM -0.06 31.892 0.035 7.13 2.54 14.64
2/15/2021 10:00:00 AM -0.06 31.892 0.035 7.13 2.55 14.64
2/15/2021 10:15:00 AM -0.06 31.892 0.035 7.13 2.62 14.64
2/15/2021 10:30:00 AM -0.07 31.874 0.035 7.14 2.5 14.65
2/15/2021 10:45:00 AM -0.07 31.874 0.035 7.13 2.53 14.65
2/15/2021 11:00:00 AM -0.07 31.874 0.035 7.15 2.55 14.64
2/15/2021 11:15:00 AM -0.07 31.874 0.035 7.13 2.6 14.64
2/15/2021 11:30:00 AM -0.07 31.874 0.035 7.12 2.76 14.66
2/15/2021 11:45:00 AM -0.05 31.91 0.035 7.14 2.55 14.68
2/15/2021 12:00:00 PM -0.05 31.91 0.035 7.14 2.56 14.67
2/15/2021 12:15:00 PM -0.05 31.91 0.035 7.14 2.55 14.67
2/15/2021 12:30:00 PM -0.04 31.928 0.035 7.14 2.55 14.68
2/15/2021 12:45:00 PM -0.04 31.928 0.035 7.14 2.8 14.68
2/15/2021 1:00:00 PM -0.04 31.928 0.035 7.15 2.57 14.68
2/15/2021 1:15:00 PM -0.03 31.946 0.035 7.15 2.52 14.67
2/15/2021 1:30:00 PM -0.03 31.946 0.035 7.15 2.58 14.67
2/15/2021 1:45:00 PM -0.03 31.946 0.035 7.16 2.54 14.66
2/15/2021 2:00:00 PM -0.03 31.946 0.034 7.15 2.56 14.65
2/15/2021 2:15:00 PM -0.03 31.946 0.034 7.15 2.62 14.65
2/15/2021 2:30:00 PM -0.03 31.946 0.034 7.15 2.6 14.64
2/15/2021 2:45:00 PM -0.04 31.928 0.034 7.13 2.55 14.63
2/15/2021 3:00:00 PM -0.04 31.928 0.034 7.12 2.5 14.62
2/15/2021 3:15:00 PM -0.04 31.928 0.034 7.13 2.57 14.6
2/15/2021 3:30:00 PM -0.05 31.91 0.034 7.13 2.58 14.58
2/15/2021 3:45:00 PM -0.05 31.91 0.034 7.12 2.54 14.56
2/15/2021 4:00:00 PM -0.05 31.91 0.034 7.1 2.55 14.55
2/15/2021 4:15:00 PM -0.05 31.91 0.034 7.09 2.55 14.55
2/15/2021 4:30:00 PM -0.05 31.91 0.034 7.1 2.54 14.53
2/15/2021 4:45:00 PM -0.05 31.91 0.034 7.1 2.55 14.52
2/15/2021 5:00:00 PM -0.05 31.91 0.034 7.11 2.48 14.5
2/15/2021 5:15:00 PM -0.05 31.91 0.034 7.1 2.57 14.48
2/15/2021 5:30:00 PM -0.06 31.892 0.034 7.09 2.52 14.48
2/15/2021 5:45:00 PM -0.06 31.892 0.034 7.06 2.55 14.45
2/15/2021 6:00:00 PM -0.06 31.892 0.035 7.07 2.44 14.43
2/15/2021 6:15:00 PM -0.06 31.892 0.035 7.06 2.43 14.42
2/15/2021 6:30:00 PM -0.06 31.892 0.034 7.06 2.66 14.41
2/15/2021 6:45:00 PM -0.06 31.892 0.034 7.06 2.51 14.4
2/15/2021 7:00:00 PM -0.06 31.892 0.034 7.05 2.62 14.4
2/15/2021 7:15:00 PM -0.06 31.892 0.034 7.05 2.58 14.37
2/15/2021 7:30:00 PM -0.06 31.892 0.034 7.07 2.61 14.38
2/15/2021 7:45:00 PM -0.07 31.874 0.035 7.04 2.7 14.38
2/15/2021 8:00:00 PM -0.07 31.874 0.034 7.06 2.65 14.36
2/15/2021 8:15:00 PM -0.08 31.856 0.034 7.04 2.53 14.36
2/15/2021 8:30:00 PM -0.08 31.856 0.034 7.04 2.65 14.35
2/15/2021 8:45:00 PM -0.08 31.856 0.035 7.01 3.1 14.36
2/15/2021 9:00:00 PM -0.08 31.856 0.035 7.05 2.48 14.34
2/15/2021 9:15:00 PM -0.08 31.856 0.034 7.06 6.6 14.35
2/15/2021 9:30:00 PM -0.08 31.856 0.035 7.06 4.55 14.34
2/15/2021 9:45:00 PM -0.08 31.856 0.035 7.08 3.14 14.33
2/15/2021 10:00:00 PM -0.08 31.856 0.035 7.07 2.98 14.32
2/15/2021 10:15:00 PM -0.08 31.856 0.035 7.07 2.95 14.31
2/15/2021 10:30:00 PM -0.08 31.856 0.035 7.07 2.97 14.3
2/15/2021 10:45:00 PM -0.08 31.856 0.035 7.06 2.95 14.29
2/15/2021 11:00:00 PM -0.08 31.856 0.035 7.06 2.9 14.28
2/15/2021 11:15:00 PM -0.08 31.856 0.034 7.06 2.92 14.27
2/15/2021 11:30:00 PM -0.08 31.856 0.035 7.06 2.97 14.27
2/15/2021 11:45:00 PM -0.08 31.856 0.034 7.06 3.16 14.26
2/16/2021 12:00:00 AM -0.08 31.856 0.034 7.06 2.92 14.25
2/16/2021 12:15:00 AM -0.08 31.856 0.034 7.06 2.98 14.23
2/16/2021 12:30:00 AM -0.08 31.856 0.034 7.05 3.01 14.23
2/16/2021 12:45:00 AM -0.08 31.856 0.034 7.06 2.88 14.22
2/16/2021 1:00:00 AM -0.08 31.856 0.034 7.06 2.91 14.21
2/16/2021 1:15:00 AM -0.08 31.856 0.035 7.05 2.91 14.2
2/16/2021 1:30:00 AM -0.08 31.856 0.034 7.05 2.92 14.19
2/16/2021 1:45:00 AM -0.08 31.856 0.034 7.05 2.9 14.19
2/16/2021 2:00:00 AM -0.08 31.856 0.034 7.04 2.9 14.18
2/16/2021 2:15:00 AM -0.08 31.856 0.034 7.04 2.95 14.17
2/16/2021 2:30:00 AM -0.08 31.856 0.034 7.06 3.03 14.16
2/16/2021 2:45:00 AM -0.08 31.856 0.034 7.04 2.94 14.16
2/16/2021 3:00:00 AM -0.08 31.856 0.034 7.05 2.91 14.15
2/16/2021 3:15:00 AM -0.08 31.856 0.034 7.04 2.92 14.14
2/16/2021 3:30:00 AM -0.08 31.856 0.034 7.04 3.06 14.15
2/16/2021 3:45:00 AM -0.08 31.856 0.034 7.05 2.85 14.14
2/16/2021 4:00:00 AM -0.08 31.856 0.034 7.07 3 14.13
2/16/2021 4:15:00 AM -0.07 31.874 0.034 7.04 2.9 14.13
2/16/2021 4:30:00 AM -0.08 31.856 0.034 7.05 2.94 14.13
2/16/2021 4:45:00 AM -0.07 31.874 0.034 7.04 2.94 14.12
2/16/2021 5:00:00 AM -0.08 31.856 0.034 7.05 2.93 14.12
2/16/2021 5:15:00 AM -0.07 31.874 0.034 7.04 2.93 14.11
2/16/2021 5:30:00 AM -0.07 31.874 0.034 7.04 2.9 14.11
2/16/2021 5:45:00 AM -0.07 31.874 0.034 7.02 2.92 14.11
2/16/2021 6:00:00 AM -0.07 31.874 0.034 7.02 2.92 14.1
2/16/2021 6:15:00 AM -0.07 31.874 0.034 7.02 2.98 14.1
2/16/2021 6:30:00 AM -0.07 31.874 0.034 7.01 2.92 14.1
2/16/2021 6:45:00 AM -0.07 31.874 0.034 7.02 2.9 14.09
2/16/2021 7:00:00 AM -0.07 31.874 0.034 7.03 2.88 14.09
2/16/2021 7:15:00 AM -0.07 31.874 0.034 7.01 2.9 14.09
2/16/2021 7:30:00 AM -0.07 31.874 0.034 7.01 2.77 14.09
2/16/2021 7:45:00 AM -0.07 31.874 0.034 7.02 2.84 14.1
2/16/2021 8:00:00 AM -0.07 31.874 0.034 7.02 2.77 14.1
2/16/2021 8:15:00 AM -0.07 31.874 0.034 7.02 2.8 14.12
2/16/2021 8:30:00 AM -0.07 31.874 0.034 7.03 2.79 14.14
2/16/2021 8:45:00 AM -0.07 31.874 0.034 7.03 2.89 14.16
2/16/2021 9:00:00 AM -0.07 31.874 0.034 7.05 2.96 14.17
2/16/2021 9:15:00 AM -0.07 31.874 0.034 7.06 2.82 14.21
2/16/2021 9:30:00 AM -0.07 31.874 0.034 7.07 2.85 14.23
2/16/2021 9:45:00 AM -0.07 31.874 0.034 7.07 2.82 14.26
2/16/2021 10:00:00 AM -0.07 31.874 0.034 7.06 2.71 14.28
2/16/2021 10:15:00 AM -0.07 31.874 0.034 7.08 2.7 14.3
2/16/2021 10:30:00 AM -0.07 31.874 0.034 7.09 2.79 14.3
2/16/2021 10:45:00 AM -0.06 31.892 0.034 7.09 2.64 14.31
2/16/2021 11:00:00 AM -0.06 31.892 0.034 7.09 2.67 14.34
2/16/2021 11:15:00 AM -0.06 31.892 0.034 7.11 2.74 14.35
2/16/2021 11:30:00 AM -0.06 31.892 0.034 7.1 2.71 14.35
2/16/2021 11:45:00 AM -0.06 31.892 0.033 7.1 2.67 14.35
2/16/2021 12:00:00 PM -0.06 31.892 0.033 7.12 2.7 14.34
2/16/2021 12:15:00 PM -0.06 31.892 0.034 7.1 2.63 14.34
2/16/2021 12:30:00 PM -0.06 31.892 0.033 7.11 2.67 14.35
2/16/2021 12:45:00 PM -0.07 31.874 0.033 7.11 2.66 14.34
2/16/2021 1:00:00 PM -0.06 31.892 0.033 7.1 2.67 14.35
2/16/2021 1:15:00 PM -0.06 31.892 0.033 7.11 2.72 14.35
2/16/2021 1:30:00 PM -0.06 31.892 0.033 7.11 2.63 14.36
2/16/2021 1:45:00 PM -0.05 31.91 0.033 7.12 2.68 14.39
2/16/2021 2:00:00 PM -0.05 31.91 0.033 7.13 2.69 14.39
2/16/2021 2:15:00 PM -0.06 31.892 0.033 7.12 2.64 14.38
2/16/2021 2:30:00 PM -0.07 31.874 0.033 7.11 2.63 14.37
2/16/2021 2:45:00 PM -0.07 31.874 0.033 7.1 2.68 14.37
2/16/2021 3:00:00 PM -0.06 31.892 0.033 7.11 2.75 14.38
2/16/2021 3:15:00 PM -0.06 31.892 0.033 7.11 2.63 14.4
2/16/2021 3:30:00 PM -0.06 31.892 0.033 7.11 2.69 14.4
2/16/2021 3:45:00 PM -0.07 31.874 0.033 7.11 2.73 14.4
2/16/2021 4:00:00 PM -0.07 31.874 0.033 7.11 2.77 14.4
2/16/2021 4:15:00 PM -0.07 31.874 0.033 7.1 2.68 14.39
2/16/2021 4:30:00 PM -0.07 31.874 0.034 7.09 2.65 14.37
2/16/2021 4:45:00 PM -0.07 31.874 0.033 7.09 2.73 14.38
2/16/2021 5:00:00 PM -0.07 31.874 0.033 7.1 2.77 14.37
2/16/2021 5:15:00 PM -0.07 31.874 0.033 7.09 2.72 14.36
2/16/2021 5:30:00 PM -0.07 31.874 0.034 7.09 2.75 14.35
2/16/2021 5:45:00 PM -0.08 31.856 0.033 7.09 2.69 14.33
2/16/2021 6:00:00 PM -0.08 31.856 0.034 7.08 2.61 14.33
2/16/2021 6:15:00 PM -0.08 31.856 0.034 7.07 2.65 14.31
2/16/2021 6:30:00 PM -0.08 31.856 0.034 7.05 2.63 14.32
2/16/2021 6:45:00 PM -0.08 31.856 0.034 7.04 2.7 14.3
2/16/2021 7:00:00 PM -0.08 31.856 0.034 7.05 2.64 14.31
2/16/2021 7:15:00 PM -0.08 31.856 0.034 7.04 2.6 14.31
2/16/2021 7:30:00 PM -0.08 31.856 0.034 7.05 2.75 14.31
2/16/2021 7:45:00 PM -0.08 31.856 0.034 7.04 2.59 14.31
2/16/2021 8:00:00 PM -0.08 31.856 0.034 7.03 2.63 14.32
2/16/2021 8:15:00 PM -0.08 31.856 0.034 7.03 2.56 14.32
2/16/2021 8:30:00 PM -0.09 31.838 0.034 7.04 2.6 14.33
2/16/2021 8:45:00 PM -0.08 31.856 0.034 7.03 2.73 14.33
2/16/2021 9:00:00 PM -0.08 31.856 0.034 7.04 2.68 14.34
2/16/2021 9:15:00 PM -0.08 31.856 0.034 7.03 2.62 14.34
2/16/2021 9:30:00 PM -0.08 31.856 0.034 7.04 2.68 14.34
2/16/2021 9:45:00 PM -0.09 31.838 0.034 7.03 2.54 14.34
2/16/2021 10:00:00 PM -0.09 31.838 0.034 7.04 2.64 14.36
2/16/2021 10:15:00 PM -0.09 31.838 0.034 7.03 2.59 14.36
2/16/2021 10:30:00 PM -0.09 31.838 0.034 7.04 2.65 14.36
2/16/2021 10:45:00 PM -0.09 31.838 0.034 7.03 2.56 14.37
2/16/2021 11:00:00 PM -0.09 31.838 0.034 7.04 2.69 14.37
2/16/2021 11:15:00 PM -0.08 31.856 0.034 7.03 2.63 14.39
2/16/2021 11:30:00 PM -0.09 31.838 0.034 7.04 2.63 14.39
2/16/2021 11:45:00 PM -0.08 31.856 0.034 7.04 2.58 14.39
2/17/2021 12:00:00 AM -0.08 31.856 0.034 7.04 2.54 14.39
2/17/2021 12:15:00 AM -0.08 31.856 0.034 7.04 2.51 14.4
2/17/2021 12:30:00 AM -0.08 31.856 0.034 7.05 2.56 14.4
2/17/2021 12:45:00 AM -0.09 31.838 0.034 7.04 2.56 14.41
2/17/2021 1:00:00 AM -0.08 31.856 0.035 7.04 2.56 14.41
2/17/2021 1:15:00 AM -0.09 31.838 0.035 7.05 2.64 14.41
2/17/2021 1:30:00 AM -0.09 31.838 0.035 7.05 2.5 14.42
2/17/2021 1:45:00 AM -0.09 31.838 0.035 7.05 2.59 14.42
2/17/2021 2:00:00 AM -0.09 31.838 0.035 7.05 2.58 14.43
2/17/2021 2:15:00 AM -0.08 31.856 0.035 7.05 2.55 14.42
2/17/2021 2:30:00 AM -0.09 31.838 0.035 7.05 2.6 14.43
2/17/2021 2:45:00 AM -0.08 31.856 0.035 7.07 2.57 14.43
2/17/2021 3:00:00 AM -0.08 31.856 0.035 7.05 2.56 14.43
2/17/2021 3:15:00 AM -0.09 31.838 0.035 7.05 2.62 14.45
2/17/2021 3:30:00 AM -0.08 31.856 0.035 7.05 2.54 14.44
2/17/2021 3:45:00 AM -0.09 31.838 0.035 7.06 2.54 14.45
2/17/2021 4:00:00 AM -0.09 31.838 0.035 7.05 2.6 14.45
2/17/2021 4:15:00 AM -0.09 31.838 0.035 7.05 2.59 14.46
2/17/2021 4:30:00 AM -0.09 31.838 0.035 7.05 2.47 14.46
2/17/2021 4:45:00 AM -0.08 31.856 0.035 7.06 2.52 14.46
2/17/2021 5:00:00 AM -0.08 31.856 0.035 7.07 2.5 14.47
2/17/2021 5:15:00 AM -0.09 31.838 0.035 7.06 2.76 14.48
2/17/2021 5:30:00 AM -0.08 31.856 0.035 7.06 2.66 14.48
2/17/2021 5:45:00 AM -0.08 31.856 0.036 7.05 2.5 14.48
2/17/2021 6:00:00 AM -0.08 31.856 0.036 7.05 2.6 14.49
2/17/2021 6:15:00 AM -0.08 31.856 0.036 7.05 2.52 14.5
2/17/2021 6:30:00 AM -0.08 31.856 0.036 7.06 2.53 14.51
2/17/2021 6:45:00 AM -0.09 31.838 0.036 7.05 2.53 14.5
2/17/2021 7:00:00 AM -0.08 31.856 0.036 7.05 2.52 14.5
2/17/2021 7:15:00 AM -0.08 31.856 0.036 7.05 2.54 14.52
2/17/2021 7:30:00 AM -0.09 31.838 0.036 7.06 2.58 14.53
2/17/2021 7:45:00 AM -0.09 31.838 0.036 7.05 2.56 14.56
2/17/2021 8:00:00 AM -0.08 31.856 0.036 7.07 2.53 14.59
2/17/2021 8:15:00 AM -0.08 31.856 0.036 7.08 2.62 14.63
2/17/2021 8:30:00 AM -0.08 31.856 0.036 7.08 2.55 14.65
2/17/2021 8:45:00 AM -0.08 31.856 0.036 7.09 2.59 14.68
2/17/2021 9:00:00 AM -0.08 31.856 0.036 7.1 2.67 14.69
2/17/2021 9:15:00 AM -0.08 31.856 0.036 7.1 2.91 14.71
2/17/2021 9:30:00 AM -0.08 31.856 0.036 7.1 2.57 14.71
2/17/2021 9:45:00 AM -0.08 31.856 0.036 7.1 2.57 14.73
2/17/2021 10:00:00 AM -0.08 31.856 0.036 7.11 2.58 14.73
2/17/2021 10:15:00 AM -0.08 31.856 0.036 7.11 2.5 14.74
2/17/2021 10:30:00 AM -0.08 31.856 0.036 7.12 2.5 14.75
2/17/2021 10:45:00 AM -0.08 31.856 0.036 7.12 2.6 14.77
2/17/2021 11:00:00 AM -0.07 31.874 0.036 7.13 2.49 14.78
2/17/2021 11:15:00 AM -0.07 31.874 0.036 7.12 2.61 14.79
2/17/2021 11:30:00 AM -0.07 31.874 0.036 7.12 2.65 14.8
2/17/2021 11:45:00 AM -0.06 31.892 0.036 7.13 2.55 14.79
2/17/2021 12:00:00 PM -0.05 31.91 0.036 7.15 2.52 14.79
2/17/2021 12:15:00 PM -0.06 31.892 0.036 7.12 2.49 14.78
2/17/2021 12:30:00 PM -0.02 31.964 0.036 7.13 2.56 14.77
2/17/2021 12:45:00 PM 0 32 0.036 7.16 2.5 14.76
2/17/2021 1:00:00 PM -0.03 31.946 0.036 7.13 2.6 14.76
2/17/2021 1:15:00 PM -0.03 31.946 0.036 7.13 2.61 14.76
2/17/2021 1:30:00 PM -0.02 31.964 0.035 7.14 2.6 14.78
2/17/2021 1:45:00 PM -0.03 31.946 0.035 7.15 2.6 14.77
2/17/2021 2:00:00 PM -0.01 31.982 0.035 7.15 2.62 14.77
2/17/2021 2:15:00 PM -0.03 31.946 0.035 7.16 2.63 14.77
2/17/2021 2:30:00 PM -0.02 31.964 0.035 7.15 2.55 14.77
2/17/2021 2:45:00 PM -0.04 31.928 0.035 7.15 2.68 14.75
2/17/2021 3:00:00 PM -0.06 31.892 0.035 7.14 2.6 14.73
2/17/2021 3:15:00 PM -0.05 31.91 0.035 7.15 2.6 14.73
2/17/2021 3:30:00 PM -0.06 31.892 0.035 7.15 2.6 14.73
2/17/2021 3:45:00 PM -0.06 31.892 0.035 7.15 2.53 14.73
2/17/2021 4:00:00 PM -0.07 31.874 0.035 7.15 2.62 14.72
2/17/2021 4:15:00 PM -0.07 31.874 0.035 7.13 2.71 14.71
2/17/2021 4:30:00 PM -0.08 31.856 0.035 7.12 2.57 14.69
2/17/2021 4:45:00 PM -0.08 31.856 0.035 7.12 2.63 14.67
2/17/2021 5:00:00 PM -0.08 31.856 0.035 7.11 2.65 14.66
2/17/2021 5:15:00 PM -0.08 31.856 0.035 7.1 2.72 14.64
2/17/2021 5:30:00 PM -0.08 31.856 0.035 7.1 2.66 14.63
2/17/2021 5:45:00 PM -0.08 31.856 0.034 7.09 2.64 14.61
2/17/2021 6:00:00 PM -0.08 31.856 0.035 7.1 2.61 14.6
2/17/2021 6:15:00 PM -0.08 31.856 0.035 7.07 2.56 14.59
2/17/2021 6:30:00 PM -0.08 31.856 0.035 7.08 2.64 14.57
2/17/2021 6:45:00 PM -0.08 31.856 0.035 7.07 2.69 14.55
2/17/2021 7:00:00 PM -0.08 31.856 0.035 7.06 2.73 14.55
2/17/2021 7:15:00 PM -0.08 31.856 0.035 7.05 2.6 14.55
2/17/2021 7:30:00 PM -0.08 31.856 0.035 7.06 2.57 14.54
2/17/2021 7:45:00 PM -0.08 31.856 0.035 7.03 2.55 14.53
2/17/2021 8:00:00 PM -0.08 31.856 0.035 7.04 2.59 14.53
2/17/2021 8:15:00 PM -0.08 31.856 0.035 7.04 2.61 14.54
2/17/2021 8:30:00 PM -0.08 31.856 0.035 7.03 2.57 14.53
2/17/2021 8:45:00 PM -0.08 31.856 0.035 7.04 2.54 14.53
2/17/2021 9:00:00 PM -0.08 31.856 0.035 7.06 2.62 14.53
2/17/2021 9:15:00 PM -0.08 31.856 0.035 7.05 2.48 14.52
2/17/2021 9:30:00 PM -0.08 31.856 0.035 7.04 2.54 14.53
2/17/2021 9:45:00 PM -0.08 31.856 0.035 7.05 2.56 14.52
2/17/2021 10:00:00 PM -0.08 31.856 0.035 7.05 2.61 14.53
2/17/2021 10:15:00 PM -0.08 31.856 0.035 7.04 2.59 14.53
2/17/2021 10:30:00 PM -0.08 31.856 0.035 7.05 2.52 14.53
2/17/2021 10:45:00 PM -0.08 31.856 0.035 7.04 2.54 14.53
2/17/2021 11:00:00 PM -0.08 31.856 0.035 7.04 2.53 14.52
2/17/2021 11:15:00 PM -0.08 31.856 0.035 7.05 2.56 14.53
2/17/2021 11:30:00 PM -0.08 31.856 0.035 7.06 2.6 14.53
2/17/2021 11:45:00 PM -0.08 31.856 0.035 7.05 2.52 14.53
2/18/2021 12:00:00 AM -0.08 31.856 0.035 7.04 2.54 14.53
2/18/2021 12:15:00 AM -0.08 31.856 0.035 7.04 2.56 14.53
2/18/2021 12:30:00 AM -0.08 31.856 0.035 7.04 2.63 14.54
2/18/2021 12:45:00 AM -0.08 31.856 0.035 7.04 2.71 14.53
2/18/2021 1:00:00 AM -0.08 31.856 0.035 7.05 2.59 14.53
2/18/2021 1:15:00 AM -0.08 31.856 0.035 7.04 2.56 14.54
2/18/2021 1:30:00 AM -0.08 31.856 0.035 7.05 2.61 14.54
2/18/2021 1:45:00 AM -0.08 31.856 0.035 7.05 2.65 14.54
2/18/2021 2:00:00 AM -0.08 31.856 0.036 7.05 2.53 14.54
2/18/2021 2:15:00 AM -0.08 31.856 0.035 7.05 2.75 14.55
2/18/2021 2:30:00 AM -0.08 31.856 0.035 7.05 2.57 14.54
2/18/2021 2:45:00 AM -0.08 31.856 0.035 7.05 2.6 14.54
2/18/2021 3:00:00 AM -0.08 31.856 0.035 7.06 2.63 14.54
2/18/2021 3:15:00 AM -0.08 31.856 0.035 7.05 2.6 14.53
2/18/2021 3:30:00 AM -0.08 31.856 0.036 7.07 2.55 14.54
2/18/2021 3:45:00 AM -0.08 31.856 0.036 7.07 2.52 14.53
2/18/2021 4:00:00 AM -0.08 31.856 0.036 7.06 2.44 14.52
2/18/2021 4:15:00 AM -0.08 31.856 0.036 7.05 2.61 14.54
2/18/2021 4:30:00 AM -0.08 31.856 0.036 7.06 2.58 14.53
2/18/2021 4:45:00 AM -0.08 31.856 0.036 7.06 2.55 14.52
2/18/2021 5:00:00 AM -0.08 31.856 0.036 7.07 2.64 14.53
2/18/2021 5:15:00 AM -0.08 31.856 0.036 7.04 2.53 14.52
2/18/2021 5:30:00 AM -0.08 31.856 0.036 7.04 2.49 14.52
2/18/2021 5:45:00 AM -0.08 31.856 0.036 7.06 2.51 14.51
2/18/2021 6:00:00 AM -0.08 31.856 0.036 7.05 2.51 14.51
2/18/2021 6:15:00 AM -0.08 31.856 0.036 7.03 2.45 14.51
2/18/2021 6:30:00 AM -0.08 31.856 0.036 7.04 2.6 14.51
2/18/2021 6:45:00 AM -0.08 31.856 0.036 7.06 2.55 14.51
2/18/2021 7:00:00 AM -0.08 31.856 0.036 7.06 2.6 14.51
2/18/2021 7:15:00 AM -0.08 31.856 0.036 7.06 2.49 14.51
2/18/2021 7:30:00 AM -0.08 31.856 0.036 7.07 2.53 14.5
2/18/2021 7:45:00 AM -0.08 31.856 0.036 7.06 2.58 14.52
2/18/2021 8:00:00 AM -0.08 31.856 0.036 7.07 2.5 14.52
2/18/2021 8:15:00 AM -0.08 31.856 0.036 7.07 2.53 14.54
2/18/2021 8:30:00 AM -0.08 31.856 0.036 7.08 2.53 14.54
2/18/2021 8:45:00 AM -0.08 31.856 0.036 7.08 2.51 14.55
2/18/2021 9:00:00 AM -0.08 31.856 0.036 7.07 2.49 14.57
2/18/2021 9:15:00 AM -0.08 31.856 0.036 7.09 2.49 14.58
2/18/2021 9:30:00 AM -0.08 31.856 0.036 7.1 2.48 14.58
2/18/2021 9:45:00 AM -0.08 31.856 0.036 7.11 2.58 14.61
2/18/2021 10:00:00 AM -0.08 31.856 0.036 7.11 2.62 14.63
2/18/2021 10:15:00 AM -0.08 31.856 0.036 7.12 2.65 14.63
2/18/2021 10:30:00 AM -0.08 31.856 0.036 7.11 2.54 14.64
2/18/2021 10:45:00 AM -0.08 31.856 0.036 7.13 2.58 14.65
2/18/2021 11:00:00 AM -0.07 31.874 0.036 7.12 2.61 14.66
2/18/2021 11:15:00 AM -0.07 31.874 0.036 7.14 2.75 14.66
2/18/2021 11:30:00 AM -0.07 31.874 0.036 7.14 2.65 14.67
2/18/2021 11:45:00 AM -0.07 31.874 0.036 7.14 2.49 14.67
2/18/2021 12:00:00 PM -0.07 31.874 0.036 7.13 2.53 14.69
2/18/2021 12:15:00 PM -0.07 31.874 0.036 7.13 2.62 14.69
2/18/2021 12:30:00 PM -0.07 31.874 0.035 7.11 2.58 14.69
2/18/2021 12:45:00 PM -0.07 31.874 0.035 7.11 2.56 14.7
2/18/2021 1:00:00 PM -0.07 31.874 0.035 7.13 2.55 14.69
2/18/2021 1:15:00 PM -0.06 31.892 0.035 7.13 2.6 14.69
2/18/2021 1:30:00 PM -0.06 31.892 0.035 7.13 2.54 14.68
2/18/2021 1:45:00 PM -0.07 31.874 0.035 7.11 2.53 14.69
2/18/2021 2:00:00 PM -0.06 31.892 0.035 7.13 2.52 14.68
2/18/2021 2:15:00 PM -0.06 31.892 0.035 7.13 2.47 14.68
2/18/2021 2:30:00 PM -0.06 31.892 0.035 7.15 2.49 14.68
2/18/2021 2:45:00 PM -0.06 31.892 0.035 7.12 2.56 14.67
2/18/2021 3:00:00 PM -0.07 31.874 0.035 7.1 2.42 14.66
2/18/2021 3:15:00 PM -0.07 31.874 0.035 7.12 2.48 14.64
2/18/2021 3:30:00 PM -0.07 31.874 0.035 7.11 2.61 14.63
2/18/2021 3:45:00 PM -0.07 31.874 0.035 7.1 2.61 14.63
2/18/2021 4:00:00 PM -0.07 31.874 0.035 7.09 2.56 14.62
2/18/2021 4:15:00 PM -0.07 31.874 0.035 7.1 2.65 14.61
2/18/2021 4:30:00 PM -0.07 31.874 0.035 7.12 2.58 14.61
2/18/2021 4:45:00 PM -0.07 31.874 0.035 7.08 2.53 14.59
2/18/2021 5:00:00 PM -0.07 31.874 0.035 7.08 2.61 14.57
2/18/2021 5:15:00 PM -0.07 31.874 0.035 7.07 2.47 14.57
2/18/2021 5:30:00 PM -0.07 31.874 0.035 7.08 2.49 14.56
2/18/2021 5:45:00 PM -0.07 31.874 0.035 7.05 2.55 14.53
2/18/2021 6:00:00 PM -0.07 31.874 0.035 7.04 2.58 14.52
2/18/2021 6:15:00 PM -0.07 31.874 0.035 7.08 2.48 14.5
2/18/2021 6:30:00 PM -0.07 31.874 0.035 7.03 2.6 14.5
2/18/2021 6:45:00 PM -0.08 31.856 0.035 7.03 2.55 14.49
2/18/2021 7:00:00 PM -0.08 31.856 0.035 7.08 2.63 14.48
2/18/2021 7:15:00 PM -0.08 31.856 0.035 7.03 2.57 14.48
2/18/2021 7:30:00 PM -0.08 31.856 0.035 7.03 2.61 14.47
2/18/2021 7:45:00 PM -0.08 31.856 0.035 7.04 2.57 14.47
2/18/2021 8:00:00 PM -0.08 31.856 0.035 7.03 2.56 14.46
2/18/2021 8:15:00 PM -0.08 31.856 0.035 7.03 2.48 14.47
2/18/2021 8:30:00 PM -0.08 31.856 0.035 7.01 2.54 14.47
2/18/2021 8:45:00 PM -0.08 31.856 0.035 7.03 2.58 14.46
2/18/2021 9:00:00 PM -0.08 31.856 0.035 7.02 2.47 14.46
2/18/2021 9:15:00 PM -0.08 31.856 0.035 7.02 2.57 14.46
2/18/2021 9:30:00 PM -0.08 31.856 0.035 7.01 2.52 14.45
2/18/2021 9:45:00 PM -0.08 31.856 0.035 7.01 2.62 14.47
2/18/2021 10:00:00 PM -0.08 31.856 0.035 7.01 2.51 14.46
2/18/2021 10:15:00 PM -0.08 31.856 0.035 7.04 2.63 14.46
2/18/2021 10:30:00 PM -0.08 31.856 0.035 7.05 2.6 14.45
2/18/2021 10:45:00 PM -0.08 31.856 0.035 7.03 2.69 14.47
2/18/2021 11:00:00 PM -0.08 31.856 0.035 7.02 2.54 14.46
2/18/2021 11:15:00 PM -0.08 31.856 0.035 7.01 2.56 14.46
2/18/2021 11:30:00 PM -0.08 31.856 0.035 7.04 2.54 14.45
2/18/2021 11:45:00 PM -0.08 31.856 0.035 7 2.56 14.45
2/19/2021 12:00:00 AM -0.08 31.856 0.035 7 2.51 14.45
2/19/2021 12:15:00 AM -0.08 31.856 0.035 7.03 2.5 14.45
2/19/2021 12:30:00 AM -0.08 31.856 0.035 7.02 2.45 14.45
2/19/2021 12:45:00 AM -0.08 31.856 0.035 7.01 2.54 14.45
2/19/2021 1:00:00 AM -0.08 31.856 0.035 7.02 2.52 14.43
2/19/2021 1:15:00 AM -0.08 31.856 0.035 7.03 2.52 14.44
2/19/2021 1:30:00 AM -0.08 31.856 0.035 7.04 2.58 14.44
2/19/2021 1:45:00 AM -0.08 31.856 0.035 7.05 2.6 14.44
2/19/2021 2:00:00 AM -0.08 31.856 0.035 7.03 2.54 14.42
2/19/2021 2:15:00 AM -0.08 31.856 0.035 7 2.61 14.43
2/19/2021 2:30:00 AM -0.08 31.856 0.035 7.03 2.68 14.43
2/19/2021 2:45:00 AM -0.08 31.856 0.035 7.02 2.55 14.43
2/19/2021 3:00:00 AM -0.08 31.856 0.035 7.03 2.6 14.43
2/19/2021 3:15:00 AM -0.08 31.856 0.035 7.03 2.61 14.42
2/19/2021 3:30:00 AM -0.08 31.856 0.035 7.02 2.55 14.43
2/19/2021 3:45:00 AM -0.08 31.856 0.035 7.03 2.55 14.43
2/19/2021 4:00:00 AM -0.08 31.856 0.035 7.02 2.5 14.43
2/19/2021 4:15:00 AM -0.07 31.874 0.035 7.04 2.5 14.42
2/19/2021 4:30:00 AM -0.08 31.856 0.035 7 2.55 14.41
2/19/2021 4:45:00 AM -0.08 31.856 0.035 7.01 2.53 14.42
2/19/2021 5:00:00 AM -0.07 31.874 0.035 7.03 2.44 14.41
2/19/2021 5:15:00 AM -0.08 31.856 0.035 7.01 2.54 14.42
2/19/2021 5:30:00 AM -0.08 31.856 0.035 7.04 2.53 14.41
2/19/2021 5:45:00 AM -0.07 31.874 0.036 7.03 2.54 14.41
2/19/2021 6:00:00 AM -0.07 31.874 0.036 7.04 2.54 14.41
2/19/2021 6:15:00 AM -0.07 31.874 0.036 7.05 2.47 14.41
2/19/2021 6:30:00 AM -0.07 31.874 0.036 7.02 2.51 14.41
2/19/2021 6:45:00 AM -0.07 31.874 0.035 7.02 2.48 14.41
2/19/2021 7:00:00 AM -0.07 31.874 0.036 7.03 2.55 14.4
2/19/2021 7:15:00 AM -0.07 31.874 0.036 7.06 2.53 14.41
2/19/2021 7:30:00 AM -0.07 31.874 0.036 7.04 2.48 14.43
2/19/2021 7:45:00 AM -0.07 31.874 0.036 7.07 2.55 14.44
2/19/2021 8:00:00 AM -0.07 31.874 0.036 7.03 2.4 14.46
2/19/2021 8:15:00 AM -0.07 31.874 0.036 7.03 2.49 14.46
2/19/2021 8:30:00 AM -0.07 31.874 0.035 7.04 2.56 14.46
2/19/2021 8:45:00 AM -0.07 31.874 0.035 7.07 2.53 14.49
2/19/2021 9:00:00 AM -0.06 31.892 0.036 7.03 2.51 14.5
2/19/2021 9:15:00 AM -0.06 31.892 0.035 7.07 2.65 14.52
2/19/2021 9:30:00 AM -0.05 31.91 0.035 7.04 2.55 14.53
2/19/2021 9:45:00 AM -0.05 31.91 0.035 7.08 2.49 14.56
2/19/2021 10:00:00 AM -0.05 31.91 0.035 7.08 2.48 14.55
2/19/2021 10:15:00 AM -0.06 31.892 0.035 7.07 2.49 14.56
2/19/2021 10:30:00 AM -0.05 31.91 0.035 7.09 2.55 14.57
2/19/2021 10:45:00 AM -0.05 31.91 0.035 7.08 2.5 14.57
2/19/2021 11:00:00 AM -0.04 31.928 0.035 7.09 2.44 14.58
2/19/2021 11:15:00 AM -0.03 31.946 0.035 7.08 2.53 14.59
2/19/2021 11:30:00 AM -0.02 31.964 0.035 7.09 2.62 14.59
2/19/2021 11:45:00 AM -0.02 31.964 0.035 7.12 2.53 14.59
2/19/2021 12:00:00 PM -0.02 31.964 0.035 7.11 2.51 14.6
2/19/2021 12:15:00 PM -0.03 31.946 0.035 7.13 2.47 14.59
2/19/2021 12:30:00 PM -0.03 31.946 0.035 7.12 2.5 14.58
2/19/2021 12:45:00 PM -0.03 31.946 0.035 7.09 2.46 14.58
2/19/2021 1:00:00 PM -0.03 31.946 0.035 7.1 2.54 14.57
2/19/2021 1:15:00 PM -0.02 31.964 0.035 7.11 2.5 14.57
2/19/2021 1:30:00 PM -0.02 31.964 0.035 7.13 2.5 14.57
2/19/2021 1:45:00 PM -0.02 31.964 0.035 7.12 2.55 14.57
2/19/2021 2:00:00 PM -0.02 31.964 0.035 7.11 2.44 14.55
2/19/2021 2:15:00 PM -0.02 31.964 0.035 7.13 2.58 14.55
2/19/2021 2:30:00 PM -0.03 31.946 0.035 7.13 2.57 14.54
2/19/2021 2:45:00 PM -0.04 31.928 0.035 7.13 2.53 14.53
2/19/2021 3:00:00 PM -0.04 31.928 0.035 7.13 2.6 14.53
2/19/2021 3:15:00 PM -0.04 31.928 0.035 7.12 2.63 14.52
2/19/2021 3:30:00 PM -0.04 31.928 0.035 7.12 2.68 14.51
2/19/2021 3:45:00 PM -0.05 31.91 0.035 7.12 2.61 14.5
2/19/2021 4:00:00 PM -0.05 31.91 0.035 7.12 2.53 14.49
2/19/2021 4:15:00 PM -0.05 31.91 0.035 7.11 2.57 14.48
2/19/2021 4:30:00 PM -0.05 31.91 0.035 7.11 2.56 14.48
2/19/2021 4:45:00 PM -0.05 31.91 0.035 7.12 2.66 14.46
2/19/2021 5:00:00 PM -0.05 31.91 0.035 7.11 2.63 14.45
2/19/2021 5:15:00 PM -0.05 31.91 0.035 7.1 2.56 14.46
2/19/2021 5:30:00 PM -0.05 31.91 0.035 7.1 2.64 14.44
2/19/2021 5:45:00 PM -0.05 31.91 0.035 7.09 2.57 14.43
2/19/2021 6:00:00 PM -0.05 31.91 0.035 7.08 2.6 14.41
2/19/2021 6:15:00 PM -0.05 31.91 0.035 7.08 2.64 14.42
2/19/2021 6:30:00 PM -0.05 31.91 0.035 7.08 2.59 14.4
2/19/2021 6:45:00 PM -0.05 31.91 0.035 7.09 2.63 14.4
2/19/2021 7:00:00 PM -0.05 31.91 0.035 7.08 2.61 14.4
2/19/2021 7:15:00 PM -0.05 31.91 0.035 7.05 2.6 14.39
2/19/2021 7:30:00 PM -0.06 31.892 0.035 7.06 2.57 14.39
2/19/2021 7:45:00 PM -0.06 31.892 0.035 7.06 2.57 14.39
2/19/2021 8:00:00 PM -0.06 31.892 0.035 7.06 2.64 14.39
2/19/2021 8:15:00 PM -0.06 31.892 0.035 7.06 2.59 14.39
2/19/2021 8:30:00 PM -0.06 31.892 0.035 7.03 2.53 14.39
2/19/2021 8:45:00 PM -0.06 31.892 0.035 7.04 2.58 14.4
2/19/2021 9:00:00 PM -0.07 31.874 0.035 7.06 2.57 14.41
2/19/2021 9:15:00 PM -0.06 31.892 0.035 7.05 2.63 14.4
2/19/2021 9:30:00 PM -0.07 31.874 0.035 7.06 2.65 14.4
2/19/2021 9:45:00 PM -0.07 31.874 0.035 7.05 2.6 14.41
2/19/2021 10:00:00 PM -0.07 31.874 0.035 7.05 2.55 14.42
2/19/2021 10:15:00 PM -0.07 31.874 0.035 7.04 2.54 14.41
2/19/2021 10:30:00 PM -0.07 31.874 0.035 7.06 2.55 14.42
2/19/2021 10:45:00 PM -0.07 31.874 0.035 7.05 2.65 14.41
2/19/2021 11:00:00 PM -0.07 31.874 0.035 7.07 2.55 14.43
2/19/2021 11:15:00 PM -0.07 31.874 0.035 7.06 2.57 14.43
2/19/2021 11:30:00 PM -0.07 31.874 0.035 7.06 2.6 14.43
2/19/2021 11:45:00 PM -0.08 31.856 0.035 7.04 2.7 14.42
2/20/2021 12:00:00 AM -0.09 31.838 0.035 7.06 2.66 14.43
2/20/2021 12:15:00 AM -0.09 31.838 0.035 7.05 2.65 14.43
2/20/2021 12:30:00 AM -0.09 31.838 0.035 7.05 2.45 14.44
2/20/2021 12:45:00 AM -0.09 31.838 0.035 7.05 2.61 14.44
2/20/2021 1:00:00 AM -0.09 31.838 0.035 7.05 2.6 14.44
2/20/2021 1:15:00 AM -0.09 31.838 0.035 7.06 2.59 14.45
2/20/2021 1:30:00 AM -0.09 31.838 0.035 7.04 2.48 14.45
2/20/2021 1:45:00 AM -0.1 31.82 0.035 7.05 2.49 14.45
2/20/2021 2:00:00 AM -0.1 31.82 0.035 7.05 2.28 14.45
2/20/2021 2:15:00 AM -0.1 31.82 0.035 7.06 2.39 14.46
2/20/2021 2:30:00 AM -0.1 31.82 0.035 7.06 2.52 14.45
2/20/2021 2:45:00 AM -0.1 31.82 0.035 7.06 2.5 14.45
2/20/2021 3:00:00 AM -0.09 31.838 0.036 7.06 2.65 14.45
2/20/2021 3:15:00 AM -0.09 31.838 0.035 7.06 2.91 14.46
2/20/2021 3:30:00 AM -0.09 31.838 0.035 7.05 3.14 14.45
2/20/2021 3:45:00 AM -0.09 31.838 0.035 7.05 3.42 14.45
2/20/2021 4:00:00 AM -0.09 31.838 0.036 7.05 4 14.45
2/20/2021 4:15:00 AM -0.09 31.838 0.036 7.05 4.18 14.45
2/20/2021 4:30:00 AM -0.09 31.838 0.036 7.05 4.31 14.45
2/20/2021 4:45:00 AM -0.09 31.838 0.036 7.05 5.39 14.46
2/20/2021 5:00:00 AM -0.09 31.838 0.036 7.05 4.79 14.44
2/20/2021 5:15:00 AM -0.09 31.838 0.036 7.05 5.42 14.45
2/20/2021 5:30:00 AM -0.09 31.838 0.036 7.05 5.5 14.46
2/20/2021 5:45:00 AM -0.09 31.838 0.036 7.05 5.66 14.45
2/20/2021 6:00:00 AM -0.09 31.838 0.036 7.05 5.64 14.45
2/20/2021 6:15:00 AM -0.09 31.838 0.036 7.06 5.55 14.45
2/20/2021 6:30:00 AM -0.09 31.838 0.036 7.04 6.7 14.45
2/20/2021 6:45:00 AM -0.09 31.838 0.036 7.04 5.27 14.45
2/20/2021 7:00:00 AM -0.09 31.838 0.036 7.04 4.98 14.46
2/20/2021 7:15:00 AM -0.09 31.838 0.036 7.04 5.39 14.46
2/20/2021 7:30:00 AM -0.09 31.838 0.036 7.04 5.17 14.48
2/20/2021 7:45:00 AM -0.09 31.838 0.036 7.06 5.15 14.5
2/20/2021 8:00:00 AM -0.08 31.856 0.036 7.06 5.46 14.51
2/20/2021 8:15:00 AM -0.09 31.838 0.036 7.06 9.9 14.52
2/20/2021 8:30:00 AM -0.08 31.856 0.036 7.07 9.88 14.54
2/20/2021 8:45:00 AM -0.08 31.856 0.036 7.07 9.2 14.57
2/20/2021 9:00:00 AM -0.08 31.856 0.036 7.09 3.18 14.58
2/20/2021 9:15:00 AM -0.08 31.856 0.036 7.09 2.58 14.59
2/20/2021 9:30:00 AM -0.08 31.856 0.036 7.1 2.48 14.62
2/20/2021 9:45:00 AM -0.08 31.856 0.036 7.11 2.47 14.62
2/20/2021 10:00:00 AM -0.08 31.856 0.036 7.11 2.55 14.63
2/20/2021 10:15:00 AM -0.08 31.856 0.036 7.12 2.53 14.64
2/20/2021 10:30:00 AM -0.07 31.874 0.036 7.11 2.48 14.65
2/20/2021 10:45:00 AM -0.08 31.856 0.036 7.11 2.48 14.66
2/20/2021 11:00:00 AM -0.07 31.874 0.036 7.13 2.54 14.67
2/20/2021 11:15:00 AM -0.07 31.874 0.036 7.14 2.46 14.67
2/20/2021 11:30:00 AM -0.06 31.892 0.036 7.14 2.43 14.68
2/20/2021 11:45:00 AM -0.04 31.928 0.036 7.16 2.62 14.68
2/20/2021 12:00:00 PM -0.04 31.928 0.036 7.15 2.61 14.68
2/20/2021 12:15:00 PM -0.04 31.928 0.036 7.14 2.59 14.67
2/20/2021 12:30:00 PM -0.04 31.928 0.036 7.14 2.65 14.67
2/20/2021 12:45:00 PM -0.05 31.91 0.035 7.14 2.57 14.65
2/20/2021 1:00:00 PM -0.05 31.91 0.035 7.15 2.53 14.67
2/20/2021 1:15:00 PM -0.06 31.892 0.035 7.15 2.63 14.66
2/20/2021 1:30:00 PM -0.06 31.892 0.035 7.14 2.54 14.65
2/20/2021 1:45:00 PM -0.05 31.91 0.035 7.15 2.57 14.66
2/20/2021 2:00:00 PM -0.04 31.928 0.035 7.16 2.54 14.66
2/20/2021 2:15:00 PM -0.05 31.91 0.035 7.15 2.62 14.65
2/20/2021 2:30:00 PM -0.06 31.892 0.035 7.16 2.49 14.65
2/20/2021 2:45:00 PM -0.06 31.892 0.035 7.15 2.56 14.64
2/20/2021 3:00:00 PM -0.07 31.874 0.035 7.16 2.47 14.64
2/20/2021 3:15:00 PM -0.06 31.892 0.035 7.15 2.59 14.64
2/20/2021 3:30:00 PM -0.07 31.874 0.035 7.15 2.42 14.62
2/20/2021 3:45:00 PM -0.07 31.874 0.035 7.15 2.46 14.64
2/20/2021 4:00:00 PM -0.07 31.874 0.035 7.15 2.55 14.64
2/20/2021 4:15:00 PM -0.07 31.874 0.035 7.15 2.46 14.63
2/20/2021 4:30:00 PM -0.07 31.874 0.035 7.13 2.55 14.63
2/20/2021 4:45:00 PM -0.07 31.874 0.035 7.12 2.66 14.63
2/20/2021 5:00:00 PM -0.07 31.874 0.035 7.11 2.54 14.62
2/20/2021 5:15:00 PM -0.08 31.856 0.035 7.1 2.61 14.6
2/20/2021 5:30:00 PM -0.08 31.856 0.035 7.09 2.58 14.58
2/20/2021 5:45:00 PM -0.08 31.856 0.035 7.1 2.54 14.56
2/20/2021 6:00:00 PM -0.08 31.856 0.035 7.08 2.47 14.55
2/20/2021 6:15:00 PM -0.08 31.856 0.035 7.09 2.58 14.54
2/20/2021 6:30:00 PM -0.08 31.856 0.035 7.06 2.51 14.53
2/20/2021 6:45:00 PM -0.09 31.838 0.035 7.07 2.56 14.52
2/20/2021 7:00:00 PM -0.09 31.838 0.035 7.06 2.57 14.52
2/20/2021 7:15:00 PM -0.08 31.856 0.035 7.05 2.52 14.51
2/20/2021 7:30:00 PM -0.08 31.856 0.035 7.06 2.54 14.52
2/20/2021 7:45:00 PM -0.09 31.838 0.035 7.05 2.61 14.51
2/20/2021 8:00:00 PM -0.09 31.838 0.035 7.05 2.53 14.51
2/20/2021 8:15:00 PM -0.09 31.838 0.035 7.05 2.44 14.52
2/20/2021 8:30:00 PM -0.09 31.838 0.035 7.03 2.52 14.51
2/20/2021 8:45:00 PM -0.09 31.838 0.035 7.05 2.44 14.51
2/20/2021 9:00:00 PM -0.08 31.856 0.035 7.05 2.52 14.53
2/20/2021 9:15:00 PM -0.09 31.838 0.035 7.03 2.54 14.52
2/20/2021 9:30:00 PM -0.09 31.838 0.035 7.05 2.52 14.52
2/20/2021 9:45:00 PM -0.09 31.838 0.035 7.05 2.57 14.53
2/20/2021 10:00:00 PM -0.09 31.838 0.035 7.05 2.47 14.53
2/20/2021 10:15:00 PM -0.09 31.838 0.035 7.05 2.53 14.54
2/20/2021 10:30:00 PM -0.09 31.838 0.035 7.03 2.54 14.54
2/20/2021 10:45:00 PM -0.09 31.838 0.035 7.05 2.55 14.54
2/20/2021 11:00:00 PM -0.09 31.838 0.035 7.04 2.52 14.55
2/20/2021 11:15:00 PM -0.09 31.838 0.035 7.05 2.59 14.55
2/20/2021 11:30:00 PM -0.09 31.838 0.035 7.05 2.62 14.55
2/20/2021 11:45:00 PM -0.09 31.838 0.035 7.04 2.69 14.56
2/21/2021 12:00:00 AM -0.09 31.838 0.036 7.04 2.79 14.56
2/21/2021 12:15:00 AM -0.09 31.838 0.036 7.04 2.83 14.57
2/21/2021 12:30:00 AM -0.09 31.838 0.036 7.06 2.94 14.56
2/21/2021 12:45:00 AM -0.09 31.838 0.036 7.05 2.9 14.57
2/21/2021 1:00:00 AM -0.09 31.838 0.036 7.03 3.01 14.57
2/21/2021 1:15:00 AM -0.09 31.838 0.036 7.03 3.35 14.56
2/21/2021 1:30:00 AM -0.09 31.838 0.036 7.04 3.46 14.57
2/21/2021 1:45:00 AM -0.09 31.838 0.036 7.05 3.72 14.57
2/21/2021 2:00:00 AM -0.09 31.838 0.036 7.03 3.88 14.57
2/21/2021 2:15:00 AM -0.09 31.838 0.036 7.05 3.96 14.58
2/21/2021 2:30:00 AM -0.09 31.838 0.036 7.06 4.37 14.57
2/21/2021 2:45:00 AM -0.09 31.838 0.036 7.05 4.47 14.58
2/21/2021 3:00:00 AM -0.09 31.838 0.036 7.05 4.67 14.59
2/21/2021 3:15:00 AM -0.09 31.838 0.036 7.06 5.04 14.58
2/21/2021 3:30:00 AM -0.09 31.838 0.036 7.06 5.24 14.58
2/21/2021 3:45:00 AM -0.09 31.838 0.036 7.07 5.29 14.59
2/21/2021 4:00:00 AM -0.09 31.838 0.036 7.06 5.53 14.59
2/21/2021 4:15:00 AM -0.09 31.838 0.036 7.06 5.55 14.6
2/21/2021 4:30:00 AM -0.09 31.838 0.037 7.06 5.27 14.59
2/21/2021 4:45:00 AM -0.09 31.838 0.037 7.05 6.25 14.59
2/21/2021 5:00:00 AM -0.09 31.838 0.037 7.05 6 14.6
2/21/2021 5:15:00 AM -0.09 31.838 0.037 7.06 6.05 14.6
2/21/2021 5:30:00 AM -0.09 31.838 0.037 7.05 6 14.6
2/21/2021 5:45:00 AM -0.09 31.838 0.037 7.06 6.55 14.6
2/21/2021 6:00:00 AM -0.09 31.838 0.037 7.05 6.4 14.61
2/21/2021 6:15:00 AM -0.09 31.838 0.037 7.06 6.21 14.6
2/21/2021 6:30:00 AM -0.09 31.838 0.037 7.06 6.3 14.6
2/21/2021 6:45:00 AM -0.09 31.838 0.037 7.06 6.62 14.6
2/21/2021 7:00:00 AM -0.09 31.838 0.037 7.06 6.62 14.61
2/21/2021 7:15:00 AM -0.09 31.838 0.037 7.05 7.15 14.61
2/21/2021 7:30:00 AM -0.09 31.838 0.037 7.05 6.2 14.62
2/21/2021 7:45:00 AM -0.09 31.838 0.037 7.06 6.24 14.64
2/21/2021 8:00:00 AM -0.09 31.838 0.037 7.06 6.04 14.65
2/21/2021 8:15:00 AM -0.09 31.838 0.038 7.07 5.96 14.66
2/21/2021 8:30:00 AM -0.09 31.838 0.038 7.08 5.96 14.68
2/21/2021 8:45:00 AM -0.09 31.838 0.038 7.08 5.82 14.69
2/21/2021 9:00:00 AM -0.09 31.838 0.038 7.08 5.41 14.71
2/21/2021 9:15:00 AM -0.08 31.856 0.038 7.09 5.93 14.72
2/21/2021 9:30:00 AM -0.08 31.856 0.038 7.09 5.84 14.73
2/21/2021 9:45:00 AM -0.08 31.856 0.038 7.09 6.04 14.74
2/21/2021 10:00:00 AM -0.08 31.856 0.038 7.09 6.25 14.76
2/21/2021 10:15:00 AM -0.08 31.856 0.038 7.09 6.26 14.76
2/21/2021 10:30:00 AM -0.08 31.856 0.038 7.1 5.86 14.77
2/21/2021 10:45:00 AM -0.08 31.856 0.038 7.11 6.73 14.77
2/21/2021 11:00:00 AM -0.08 31.856 0.038 7.12 6.26 14.79
2/21/2021 11:15:00 AM -0.07 31.874 0.038 7.12 5.83 14.79
2/21/2021 11:30:00 AM -0.07 31.874 0.038 7.13 3.35 14.81
2/21/2021 11:45:00 AM -0.07 31.874 0.037 7.13 2.47 14.8
2/21/2021 12:00:00 PM -0.06 31.892 0.037 7.14 2.56 14.81
2/21/2021 12:15:00 PM -0.06 31.892 0.037 7.15 2.55 14.81
2/21/2021 12:30:00 PM -0.05 31.91 0.037 7.15 2.58 14.79
2/21/2021 12:45:00 PM -0.04 31.928 0.037 7.14 2.46 14.81
2/21/2021 1:00:00 PM -0.01 31.982 0.037 7.14 2.58 14.8
2/21/2021 1:15:00 PM 0 32 0.037 7.13 2.64 14.78
2/21/2021 1:30:00 PM 0 32 0.037 7.13 2.64 14.78
2/21/2021 1:45:00 PM 0.01 32.018 0.037 7.16 2.71 14.77
2/21/2021 2:00:00 PM 0 32 0.037 7.15 2.59 14.77
2/21/2021 2:15:00 PM -0.01 31.982 0.037 7.15 2.53 14.76
2/21/2021 2:30:00 PM -0.02 31.964 0.036 7.15 2.54 14.76
2/21/2021 2:45:00 PM -0.03 31.946 0.036 7.16 2.57 14.75
2/21/2021 3:00:00 PM -0.04 31.928 0.036 7.16 2.64 14.75
2/21/2021 3:15:00 PM -0.05 31.91 0.036 7.16 2.56 14.74
2/21/2021 3:30:00 PM -0.06 31.892 0.036 7.16 2.59 14.73
2/21/2021 3:45:00 PM -0.07 31.874 0.036 7.15 2.57 14.71
2/21/2021 4:00:00 PM -0.07 31.874 0.036 7.14 2.7 14.7
2/21/2021 4:15:00 PM -0.08 31.856 0.036 7.12 2.76 14.69
2/21/2021 4:30:00 PM -0.08 31.856 0.036 7.11 2.84 14.67
2/21/2021 4:45:00 PM -0.08 31.856 0.036 7.11 2.87 14.68
2/21/2021 5:00:00 PM -0.08 31.856 0.036 7.09 2.8 14.68
2/21/2021 5:15:00 PM -0.08 31.856 0.036 7.1 2.73 14.67
2/21/2021 5:30:00 PM -0.08 31.856 0.036 7.1 2.91 14.66
2/21/2021 5:45:00 PM -0.08 31.856 0.036 7.1 2.72 14.63
2/21/2021 6:00:00 PM -0.08 31.856 0.036 7.09 2.75 14.61
2/21/2021 6:15:00 PM -0.08 31.856 0.035 7.09 2.68 14.6
2/21/2021 6:30:00 PM -0.08 31.856 0.035 7.08 2.62 14.58
2/21/2021 6:45:00 PM -0.08 31.856 0.035 7.07 2.75 14.56
2/21/2021 7:00:00 PM -0.08 31.856 0.035 7.08 2.61 14.54
2/21/2021 7:15:00 PM -0.08 31.856 0.035 7.07 2.55 14.53
2/21/2021 7:30:00 PM -0.08 31.856 0.035 7.07 2.81 14.52
2/21/2021 7:45:00 PM -0.08 31.856 0.035 7.07 2.58 14.51
2/21/2021 8:00:00 PM -0.08 31.856 0.035 7.06 2.67 14.5
2/21/2021 8:15:00 PM -0.08 31.856 0.035 7.06 2.62 14.5
2/21/2021 8:30:00 PM -0.08 31.856 0.035 7.06 2.57 14.49
2/21/2021 8:45:00 PM -0.08 31.856 0.035 7.06 2.8 14.48
2/21/2021 9:00:00 PM -0.08 31.856 0.035 7.05 2.64 14.49
2/21/2021 9:15:00 PM -0.08 31.856 0.035 7.06 2.59 14.49
2/21/2021 9:30:00 PM -0.08 31.856 0.035 7.05 2.54 14.5
2/21/2021 9:45:00 PM -0.08 31.856 0.035 7.05 2.61 14.49
2/21/2021 10:00:00 PM -0.08 31.856 0.035 7.05 2.59 14.48
2/21/2021 10:15:00 PM -0.08 31.856 0.035 7.04 2.69 14.5
2/21/2021 10:30:00 PM -0.08 31.856 0.035 7.04 2.59 14.49
2/21/2021 10:45:00 PM -0.08 31.856 0.035 7.04 2.6 14.49
2/21/2021 11:00:00 PM -0.08 31.856 0.035 7.04 2.6 14.49
2/21/2021 11:15:00 PM -0.08 31.856 0.036 7.04 2.52 14.49
2/21/2021 11:30:00 PM -0.08 31.856 0.035 7.04 2.64 14.48
2/21/2021 11:45:00 PM -0.07 31.874 0.036 7.05 2.5 14.48
2/22/2021 12:00:00 AM -0.07 31.874 0.035 7.04 2.52 14.48
2/22/2021 12:15:00 AM -0.07 31.874 0.036 7.03 2.51 14.46
2/22/2021 12:30:00 AM -0.07 31.874 0.036 7.04 2.56 14.46
2/22/2021 12:45:00 AM -0.07 31.874 0.036 7.03 2.68 14.46
2/22/2021 1:00:00 AM -0.07 31.874 0.036 7.03 2.51 14.46
2/22/2021 1:15:00 AM -0.07 31.874 0.036 7.02 2.68 14.46
2/22/2021 1:30:00 AM -0.07 31.874 0.036 7.02 2.48 14.45
2/22/2021 1:45:00 AM -0.08 31.856 0.036 7.03 2.54 14.45
2/22/2021 2:00:00 AM -0.08 31.856 0.036 7.04 2.58 14.44
2/22/2021 2:15:00 AM -0.08 31.856 0.036 7.02 2.54 14.45
2/22/2021 2:30:00 AM -0.08 31.856 0.036 7.04 2.55 14.44
2/22/2021 2:45:00 AM -0.08 31.856 0.036 7.04 2.57 14.43
2/22/2021 3:00:00 AM -0.08 31.856 0.036 7.03 2.45 14.42
2/22/2021 3:15:00 AM -0.08 31.856 0.036 7.04 2.5 14.43
2/22/2021 3:30:00 AM -0.08 31.856 0.036 7.01 2.53 14.42
2/22/2021 3:45:00 AM -0.08 31.856 0.036 7.04 2.55 14.42
2/22/2021 4:00:00 AM -0.07 31.874 0.036 7.03 2.56 14.41
2/22/2021 4:15:00 AM -0.07 31.874 0.036 7.05 2.45 14.41
2/22/2021 4:30:00 AM -0.07 31.874 0.036 7.04 2.48 14.41
2/22/2021 4:45:00 AM -0.07 31.874 0.036 7.05 2.56 14.41
2/22/2021 5:00:00 AM -0.07 31.874 0.036 7.05 2.5 14.4
2/22/2021 5:15:00 AM -0.07 31.874 0.036 7.05 2.57 14.39
2/22/2021 5:30:00 AM -0.07 31.874 0.036 7.05 2.47 14.39
2/22/2021 5:45:00 AM -0.07 31.874 0.036 7.04 2.61 14.39
2/22/2021 6:00:00 AM -0.07 31.874 0.036 7.05 2.57 14.37
2/22/2021 6:15:00 AM -0.07 31.874 0.036 7.05 2.59 14.38
2/22/2021 6:30:00 AM -0.07 31.874 0.036 7.03 2.57 14.36
2/22/2021 6:45:00 AM -0.07 31.874 0.036 7.06 2.55 14.36
2/22/2021 7:00:00 AM -0.08 31.856 0.036 7.04 2.55 14.37
2/22/2021 7:15:00 AM -0.08 31.856 0.036 7.05 2.53 14.36
2/22/2021 7:30:00 AM -0.08 31.856 0.036 7.04 3.91 14.36
2/22/2021 7:45:00 AM -0.08 31.856 0.036 7.05 2.59 14.36
2/22/2021 8:00:00 AM -0.08 31.856 0.036 7.05 2.57 14.35
2/22/2021 8:15:00 AM -0.08 31.856 0.036 7.06 2.59 14.35
2/22/2021 8:30:00 AM -0.08 31.856 0.036 7.07 2.56 14.34
2/22/2021 8:45:00 AM -0.08 31.856 0.036 7.08 2.6 14.35
2/22/2021 9:00:00 AM -0.08 31.856 0.036 7.07 2.6 14.34
2/22/2021 9:15:00 AM -0.08 31.856 0.036 7.07 2.57 14.35
2/22/2021 9:30:00 AM -0.08 31.856 0.036 7.06 2.56 14.36
2/22/2021 9:45:00 AM -0.08 31.856 0.036 7.06 2.62 14.36
2/22/2021 10:00:00 AM -0.08 31.856 0.036 7.06 2.58 14.37
2/22/2021 10:15:00 AM -0.08 31.856 0.036 7.07 2.55 14.38
2/22/2021 10:30:00 AM -0.08 31.856 0.036 7.07 2.61 14.39
2/22/2021 10:45:00 AM -0.08 31.856 0.036 7.07 2.46 14.39
2/22/2021 11:00:00 AM -0.08 31.856 0.036 7.08 2.57 14.39
2/22/2021 11:15:00 AM -0.08 31.856 0.036 7.09 2.57 14.39
2/22/2021 11:30:00 AM -0.08 31.856 0.036 7.08 2.53 14.39
2/22/2021 11:45:00 AM -0.07 31.874 0.036 7.09 2.67 14.41
2/22/2021 12:00:00 PM -0.07 31.874 0.036 7.07 2.48 14.41
2/22/2021 12:15:00 PM -0.07 31.874 0.036 7.08 2.57 14.42
2/22/2021 12:30:00 PM -0.07 31.874 0.036 7.09 2.49 14.39
2/22/2021 12:45:00 PM -0.07 31.874 0.036 7.09 2.65 14.4
2/22/2021 1:00:00 PM -0.08 31.856 0.036 7.07 2.59 14.39
2/22/2021 1:15:00 PM -0.07 31.874 0.036 7.09 2.56 14.39
2/22/2021 1:30:00 PM -0.07 31.874 0.036 7.08 2.47 14.38
2/22/2021 1:45:00 PM -0.07 31.874 0.036 7.08 2.71 14.37
2/22/2021 2:00:00 PM -0.06 31.892 0.036 7.09 2.57 14.36
2/22/2021 2:15:00 PM -0.06 31.892 0.036 7.09 2.58 14.35
2/22/2021 2:30:00 PM -0.06 31.892 0.036 7.1 2.56 14.35
2/22/2021 2:45:00 PM -0.06 31.892 0.036 7.08 2.53 14.34
2/22/2021 3:00:00 PM -0.06 31.892 0.036 7.09 2.61 14.33
2/22/2021 3:15:00 PM -0.06 31.892 0.036 7.09 2.54 14.32
2/22/2021 3:30:00 PM -0.05 31.91 0.036 7.09 2.5 14.33
2/22/2021 3:45:00 PM -0.05 31.91 0.036 7.11 2.52 14.32
2/22/2021 4:00:00 PM -0.05 31.91 0.035 7.1 2.55 14.31
2/22/2021 4:15:00 PM -0.07 31.874 0.035 7.09 2.63 14.3
2/22/2021 4:30:00 PM -0.07 31.874 0.036 7.08 2.51 14.29
2/22/2021 4:45:00 PM -0.07 31.874 0.035 7.11 2.52 14.28
2/22/2021 5:00:00 PM -0.07 31.874 0.035 7.09 2.57 14.26
2/22/2021 5:15:00 PM -0.07 31.874 0.035 7.07 2.54 14.25
2/22/2021 5:30:00 PM -0.07 31.874 0.035 7.1 2.56 14.23
2/22/2021 5:45:00 PM -0.06 31.892 0.035 7.09 2.58 14.23
2/22/2021 6:00:00 PM -0.06 31.892 0.035 7.09 2.58 14.22
2/22/2021 6:15:00 PM -0.06 31.892 0.035 7.09 2.51 14.21
2/22/2021 6:30:00 PM -0.06 31.892 0.035 7.06 2.54 14.21
2/22/2021 6:45:00 PM -0.06 31.892 0.035 7.06 2.63 14.21
2/22/2021 7:00:00 PM -0.06 31.892 0.035 7.06 2.6 14.2
2/22/2021 7:15:00 PM -0.06 31.892 0.035 7.06 2.6 14.2
2/22/2021 7:30:00 PM -0.06 31.892 0.035 7.06 2.59 14.2
2/22/2021 7:45:00 PM -0.06 31.892 0.035 7.06 2.54 14.19
2/22/2021 8:00:00 PM -0.06 31.892 0.035 7.05 2.47 14.2
2/22/2021 8:15:00 PM -0.06 31.892 0.035 7.06 2.56 14.2
2/22/2021 8:30:00 PM -0.06 31.892 0.035 7.06 2.54 14.19
2/22/2021 8:45:00 PM -0.06 31.892 0.035 7.05 2.51 14.2
2/22/2021 9:00:00 PM -0.06 31.892 0.035 7.05 2.67 14.2
2/22/2021 9:15:00 PM -0.06 31.892 0.035 7.04 2.5 14.2
2/22/2021 9:30:00 PM -0.06 31.892 0.035 7.05 2.52 14.2
2/22/2021 9:45:00 PM -0.06 31.892 0.035 7.05 2.51 14.2
2/22/2021 10:00:00 PM -0.06 31.892 0.035 7.05 2.69 14.2
2/22/2021 10:15:00 PM -0.06 31.892 0.035 7.04 2.53 14.2
2/22/2021 10:30:00 PM -0.06 31.892 0.035 7.04 2.6 14.2
2/22/2021 10:45:00 PM -0.06 31.892 0.035 7.04 2.62 14.21
2/22/2021 11:00:00 PM -0.06 31.892 0.035 7.05 2.5 14.21
2/22/2021 11:15:00 PM -0.06 31.892 0.035 7.03 2.5 14.22
2/22/2021 11:30:00 PM -0.06 31.892 0.035 7.04 2.59 14.21
2/22/2021 11:45:00 PM -0.06 31.892 0.035 7.03 2.43 14.21
2/23/2021 12:00:00 AM -0.06 31.892 0.035 7.05 2.42 14.21
2/23/2021 12:15:00 AM -0.06 31.892 0.035 7.04 2.52 14.21
2/23/2021 12:30:00 AM -0.06 31.892 0.035 7.05 2.59 14.22
2/23/2021 12:45:00 AM -0.06 31.892 0.035 7.03 2.5 14.21
2/23/2021 1:00:00 AM -0.06 31.892 0.035 7.03 2.59 14.22
2/23/2021 1:15:00 AM -0.06 31.892 0.035 7.02 2.49 14.22
2/23/2021 1:30:00 AM -0.06 31.892 0.035 7.03 2.52 14.22
2/23/2021 1:45:00 AM -0.06 31.892 0.035 7.02 2.49 14.21
2/23/2021 2:00:00 AM -0.06 31.892 0.035 7.03 2.49 14.23
2/23/2021 2:15:00 AM -0.06 31.892 0.035 7.02 2.44 14.22
2/23/2021 2:30:00 AM -0.06 31.892 0.035 7.04 2.51 14.22
2/23/2021 2:45:00 AM -0.06 31.892 0.035 7.03 2.52 14.22
2/23/2021 3:00:00 AM -0.06 31.892 0.035 7.03 2.5 14.22
2/23/2021 3:15:00 AM -0.06 31.892 0.035 7.03 2.47 14.22
2/23/2021 3:30:00 AM -0.07 31.874 0.035 7.04 2.52 14.23
2/23/2021 3:45:00 AM -0.07 31.874 0.035 7.03 2.45 14.21
2/23/2021 4:00:00 AM -0.07 31.874 0.035 7.04 2.53 14.21
2/23/2021 4:15:00 AM -0.07 31.874 0.035 7.04 2.51 14.22
2/23/2021 4:30:00 AM -0.07 31.874 0.035 7.03 2.46 14.21
2/23/2021 4:45:00 AM -0.08 31.856 0.035 7.03 2.45 14.22
2/23/2021 5:00:00 AM -0.08 31.856 0.035 7.04 2.48 14.21
2/23/2021 5:15:00 AM -0.08 31.856 0.035 7.03 2.41 14.22
2/23/2021 5:30:00 AM -0.08 31.856 0.035 7.03 2.54 14.22
2/23/2021 5:45:00 AM -0.08 31.856 0.035 7.04 2.46 14.22
2/23/2021 6:00:00 AM -0.08 31.856 0.035 7.05 2.48 14.21
2/23/2021 6:15:00 AM -0.08 31.856 0.035 7.04 2.48 14.21
2/23/2021 6:30:00 AM -0.08 31.856 0.035 7.05 2.51 14.21
2/23/2021 6:45:00 AM -0.08 31.856 0.035 7.04 2.52 14.21
2/23/2021 7:00:00 AM -0.08 31.856 0.036 7.04 2.48 14.21
2/23/2021 7:15:00 AM -0.07 31.874 0.035 7.04 2.56 14.21
2/23/2021 7:30:00 AM -0.07 31.874 0.036 7.05 2.47 14.22
2/23/2021 7:45:00 AM -0.07 31.874 0.036 7.03 2.46 14.22
2/23/2021 8:00:00 AM -0.06 31.892 0.036 7.06 2.51 14.23
2/23/2021 8:15:00 AM -0.07 31.874 0.036 7.06 2.5 14.25
2/23/2021 8:30:00 AM -0.06 31.892 0.036 7.07 2.55 14.25
2/23/2021 8:45:00 AM -0.07 31.874 0.035 7.07 2.56 14.27
2/23/2021 9:00:00 AM -0.07 31.874 0.035 7.06 2.79 14.27
2/23/2021 9:15:00 AM -0.07 31.874 0.036 7.06 2.52 14.26
2/23/2021 9:30:00 AM -0.06 31.892 0.035 7.07 2.54 14.26
2/23/2021 9:45:00 AM -0.06 31.892 0.035 7.06 2.52 14.26
2/23/2021 10:00:00 AM -0.06 31.892 0.035 7.05 2.61 14.27
2/23/2021 10:15:00 AM -0.06 31.892 0.035 7.08 2.5 14.27
2/23/2021 10:30:00 AM -0.07 31.874 0.035 7.09 2.51 14.27
2/23/2021 10:45:00 AM -0.06 31.892 0.035 7.09 2.57 14.27
2/23/2021 11:00:00 AM -0.05 31.91 0.035 7.08 2.83 14.28
2/23/2021 11:15:00 AM -0.04 31.928 0.035 7.1 2.51 14.29
2/23/2021 11:30:00 AM -0.04 31.928 0.035 7.09 2.51 14.29
2/23/2021 11:45:00 AM -0.03 31.946 0.035 7.11 2.51 14.29
2/23/2021 12:00:00 PM -0.03 31.946 0.035 7.1 2.42 14.29
2/23/2021 12:15:00 PM -0.04 31.928 0.035 7.11 2.68 14.29
2/23/2021 12:30:00 PM -0.04 31.928 0.035 7.1 2.57 14.27
2/23/2021 12:45:00 PM -0.04 31.928 0.035 7.11 2.5 14.28
2/23/2021 1:00:00 PM -0.04 31.928 0.035 7.11 2.51 14.27
2/23/2021 1:15:00 PM -0.04 31.928 0.035 7.11 2.59 14.26
2/23/2021 1:30:00 PM -0.03 31.946 0.035 7.11 2.46 14.27
2/23/2021 1:45:00 PM -0.03 31.946 0.035 7.12 2.48 14.27
2/23/2021 2:00:00 PM -0.03 31.946 0.035 7.12 2.47 14.26
2/23/2021 2:15:00 PM -0.03 31.946 0.035 7.11 2.45 14.27
2/23/2021 2:30:00 PM -0.03 31.946 0.035 7.12 2.46 14.27
2/23/2021 2:45:00 PM -0.03 31.946 0.035 7.1 2.47 14.28
2/23/2021 3:00:00 PM -0.03 31.946 0.035 7.12 2.51 14.26
2/23/2021 3:15:00 PM -0.02 31.964 0.035 7.12 2.55 14.27
2/23/2021 3:30:00 PM -0.02 31.964 0.035 7.11 2.43 14.3
2/23/2021 3:45:00 PM -0.02 31.964 0.035 7.1 2.52 14.29
2/23/2021 4:00:00 PM -0.02 31.964 0.035 7.11 2.51 14.3
2/23/2021 4:15:00 PM -0.02 31.964 0.035 7.1 2.53 14.3
2/23/2021 4:30:00 PM -0.03 31.946 0.035 7.1 2.5 14.3
2/23/2021 4:45:00 PM -0.03 31.946 0.035 7.1 2.48 14.3
2/23/2021 5:00:00 PM -0.03 31.946 0.035 7.09 2.4 14.29
2/23/2021 5:15:00 PM -0.03 31.946 0.035 7.1 2.42 14.27
2/23/2021 5:30:00 PM -0.03 31.946 0.035 7.1 2.39 14.27
2/23/2021 5:45:00 PM -0.04 31.928 0.035 7.08 2.43 14.26
2/23/2021 6:00:00 PM -0.03 31.946 0.035 7.08 2.45 14.26
2/23/2021 6:15:00 PM -0.04 31.928 0.035 7.06 2.52 14.25
2/23/2021 6:30:00 PM -0.04 31.928 0.035 7.07 2.53 14.25
2/23/2021 6:45:00 PM -0.04 31.928 0.035 7.06 2.54 14.25
2/23/2021 7:00:00 PM -0.04 31.928 0.035 7.06 2.55 14.24
2/23/2021 7:15:00 PM -0.04 31.928 0.035 7.06 2.64 14.24
2/23/2021 7:30:00 PM -0.04 31.928 0.035 7.06 2.54 14.26
2/23/2021 7:45:00 PM -0.04 31.928 0.035 7.06 2.48 14.26
2/23/2021 8:00:00 PM -0.04 31.928 0.035 7.06 2.58 14.25
2/23/2021 8:15:00 PM -0.04 31.928 0.035 7.05 2.38 14.26
2/23/2021 8:30:00 PM -0.04 31.928 0.035 7.05 2.58 14.26
2/23/2021 8:45:00 PM -0.04 31.928 0.035 7.05 2.57 14.26
2/23/2021 9:00:00 PM -0.04 31.928 0.035 7.04 2.54 14.27
2/23/2021 9:15:00 PM -0.04 31.928 0.035 7.04 2.6 14.27
2/23/2021 9:30:00 PM -0.04 31.928 0.035 7.04 2.54 14.28
2/23/2021 9:45:00 PM -0.04 31.928 0.035 7.03 2.55 14.29
2/23/2021 10:00:00 PM -0.04 31.928 0.035 7.04 2.53 14.29
2/23/2021 10:15:00 PM -0.04 31.928 0.035 7.04 2.63 14.29
2/23/2021 10:30:00 PM -0.04 31.928 0.035 7.05 2.63 14.3
2/23/2021 10:45:00 PM -0.04 31.928 0.035 7.05 2.52 14.3
2/23/2021 11:00:00 PM -0.04 31.928 0.035 7.05 2.47 14.3
2/23/2021 11:15:00 PM -0.04 31.928 0.035 7.04 2.55 14.31
2/23/2021 11:30:00 PM -0.05 31.91 0.035 7.04 2.51 14.3
2/23/2021 11:45:00 PM -0.05 31.91 0.035 7.05 2.5 14.32
2/24/2021 12:00:00 AM -0.05 31.91 0.035 7.04 2.45 14.31
2/24/2021 12:15:00 AM -0.05 31.91 0.035 7.03 2.46 14.3
2/24/2021 12:30:00 AM -0.05 31.91 0.035 7.05 2.52 14.31
2/24/2021 12:45:00 AM -0.06 31.892 0.035 7.06 2.44 14.32
2/24/2021 1:00:00 AM -0.06 31.892 0.035 7.05 2.48 14.33
2/24/2021 1:15:00 AM -0.06 31.892 0.035 7.05 2.51 14.32
2/24/2021 1:30:00 AM -0.06 31.892 0.035 7.06 2.62 14.33
2/24/2021 1:45:00 AM -0.06 31.892 0.035 7.05 2.58 14.33
2/24/2021 2:00:00 AM -0.06 31.892 0.035 7.06 2.54 14.32
2/24/2021 2:15:00 AM -0.06 31.892 0.035 7.06 2.63 14.34
2/24/2021 2:30:00 AM -0.07 31.874 0.035 7.06 2.6 14.35
2/24/2021 2:45:00 AM -0.07 31.874 0.035 7.05 2.51 14.34
2/24/2021 3:00:00 AM -0.07 31.874 0.035 7.06 2.58 14.34
2/24/2021 3:15:00 AM -0.07 31.874 0.035 7.06 2.55 14.35
2/24/2021 3:30:00 AM -0.07 31.874 0.035 7.06 2.42 14.35
2/24/2021 3:45:00 AM -0.07 31.874 0.035 7.04 2.4 14.35
2/24/2021 4:00:00 AM -0.07 31.874 0.035 7.05 2.41 14.36
2/24/2021 4:15:00 AM -0.07 31.874 0.035 7.04 2.52 14.36
2/24/2021 4:30:00 AM -0.07 31.874 0.035 7.04 2.5 14.36
2/24/2021 4:45:00 AM -0.08 31.856 0.035 7.04 2.54 14.36
2/24/2021 5:00:00 AM -0.08 31.856 0.035 7.06 2.52 14.37
2/24/2021 5:15:00 AM -0.08 31.856 0.035 7.06 2.62 14.38
2/24/2021 5:30:00 AM -0.08 31.856 0.035 7.05 2.54 14.37
2/24/2021 5:45:00 AM -0.08 31.856 0.035 7.05 2.55 14.38
2/24/2021 6:00:00 AM -0.08 31.856 0.035 7.05 2.58 14.38
2/24/2021 6:15:00 AM -0.08 31.856 0.036 7.06 2.49 14.38
2/24/2021 6:30:00 AM -0.07 31.874 0.035 7.05 2.49 14.38
2/24/2021 6:45:00 AM -0.07 31.874 0.035 7.05 2.5 14.39
2/24/2021 7:00:00 AM -0.07 31.874 0.036 7.06 2.45 14.38
2/24/2021 7:15:00 AM -0.07 31.874 0.035 7.06 2.52 14.39
2/24/2021 7:30:00 AM -0.07 31.874 0.035 7.06 2.55 14.4
2/24/2021 7:45:00 AM -0.07 31.874 0.036 7.07 2.51 14.43
2/24/2021 8:00:00 AM -0.06 31.892 0.036 7.07 2.46 14.43
2/24/2021 8:15:00 AM -0.06 31.892 0.036 7.07 2.55 14.45
2/24/2021 8:30:00 AM -0.05 31.91 0.035 7.08 2.45 14.47
2/24/2021 8:45:00 AM -0.05 31.91 0.035 7.09 2.46 14.49
2/24/2021 9:00:00 AM -0.06 31.892 0.035 7.09 2.51 14.48
2/24/2021 9:15:00 AM -0.05 31.91 0.035 7.09 2.48 14.49
2/24/2021 9:30:00 AM -0.05 31.91 0.036 7.09 2.46 14.49
2/24/2021 9:45:00 AM -0.05 31.91 0.035 7.09 2.51 14.5
2/24/2021 10:00:00 AM -0.03 31.946 0.035 7.09 2.49 14.49
2/24/2021 10:15:00 AM -0.02 31.964 0.035 7.11 2.61 14.48
2/24/2021 10:30:00 AM 0 32 0.036 7.1 2.4 14.5
2/24/2021 10:45:00 AM 0.02 32.036 0.035 7.11 2.69 14.48
2/24/2021 11:00:00 AM 0.05 32.09 0.035 7.12 2.52 14.47
2/24/2021 11:15:00 AM 0.08 32.144 0.035 7.12 2.56 14.46
2/24/2021 11:30:00 AM 0.11 32.198 0.035 7.12 2.49 14.46
2/24/2021 11:45:00 AM 0.13 32.234 0.035 7.14 2.39 14.44
2/24/2021 12:00:00 PM 0.16 32.288 0.035 7.14 2.55 14.44
2/24/2021 12:15:00 PM 0.19 32.342 0.035 7.15 2.54 14.42
2/24/2021 12:30:00 PM 0.21 32.378 0.035 7.16 2.52 14.41
2/24/2021 12:45:00 PM 0.23 32.414 0.035 7.15 2.57 14.38
2/24/2021 1:00:00 PM 0.23 32.414 0.035 7.15 2.55 14.37
2/24/2021 1:15:00 PM 0.25 32.45 0.035 7.15 2.56 14.34
2/24/2021 1:30:00 PM 0.24 32.432 0.035 7.15 2.63 14.32
2/24/2021 1:45:00 PM 0.23 32.414 0.035 7.15 2.49 14.31
2/24/2021 2:00:00 PM 0.21 32.378 0.035 7.15 2.59 14.3
2/24/2021 2:15:00 PM 0.2 32.36 0.035 7.14 2.49 14.29
2/24/2021 2:30:00 PM 0.18 32.324 0.035 7.13 2.61 14.28
2/24/2021 2:45:00 PM 0.15 32.27 0.035 7.14 2.57 14.27
2/24/2021 3:00:00 PM 0.13 32.234 0.035 7.13 2.62 14.27
2/24/2021 3:15:00 PM 0.12 32.216 0.035 7.13 2.6 14.26
2/24/2021 3:30:00 PM 0.09 32.162 0.035 7.14 2.72 14.26
2/24/2021 3:45:00 PM 0.08 32.144 0.035 7.13 2.61 14.24
2/24/2021 4:00:00 PM 0.07 32.126 0.035 7.12 2.46 14.23
2/24/2021 4:15:00 PM 0.04 32.072 0.035 7.12 2.72 14.23
2/24/2021 4:30:00 PM 0.03 32.054 0.035 7.12 2.68 14.22
2/24/2021 4:45:00 PM 0.03 32.054 0.035 7.1 2.58 14.2
2/24/2021 5:00:00 PM 0.01 32.018 0.035 7.09 2.63 14.19
2/24/2021 5:15:00 PM 0.01 32.018 0.035 7.1 2.61 14.18
2/24/2021 5:30:00 PM -0.01 31.982 0.035 7.1 2.61 14.16
2/24/2021 5:45:00 PM -0.01 31.982 0.035 7.09 2.6 14.16
2/24/2021 6:00:00 PM -0.01 31.982 0.035 7.09 2.7 14.15
2/24/2021 6:15:00 PM -0.02 31.964 0.035 7.08 2.63 14.16
2/24/2021 6:30:00 PM -0.02 31.964 0.035 7.06 2.67 14.15
2/24/2021 6:45:00 PM -0.02 31.964 0.035 7.06 2.67 14.15
2/24/2021 7:00:00 PM -0.03 31.946 0.035 7.06 2.65 14.15
2/24/2021 7:15:00 PM -0.03 31.946 0.035 7.05 2.72 14.15
2/24/2021 7:30:00 PM -0.03 31.946 0.035 7.05 2.68 14.15
2/24/2021 7:45:00 PM -0.03 31.946 0.035 7.04 2.7 14.14
2/24/2021 8:00:00 PM -0.04 31.928 0.035 7.03 2.73 14.13
2/24/2021 8:15:00 PM -0.03 31.946 0.035 7.04 2.8 14.13
2/24/2021 8:30:00 PM -0.03 31.946 0.035 7.03 2.84 14.12
2/24/2021 8:45:00 PM -0.04 31.928 0.035 7.03 2.75 14.13
2/24/2021 9:00:00 PM -0.04 31.928 0.035 7.02 2.72 14.13
2/24/2021 9:15:00 PM -0.04 31.928 0.035 7.03 2.79 14.11
2/24/2021 9:30:00 PM -0.05 31.91 0.035 7.03 2.8 14.12
2/24/2021 9:45:00 PM -0.05 31.91 0.035 7.03 2.76 14.12
2/24/2021 10:00:00 PM -0.05 31.91 0.035 7.03 2.85 14.11
2/24/2021 10:15:00 PM -0.05 31.91 0.035 7.03 2.84 14.11
2/24/2021 10:30:00 PM -0.05 31.91 0.035 7.03 2.81 14.13
2/24/2021 10:45:00 PM -0.05 31.91 0.035 7.02 2.84 14.12
2/24/2021 11:00:00 PM -0.05 31.91 0.035 7.03 2.83 14.12
2/24/2021 11:15:00 PM -0.05 31.91 0.035 7.03 2.75 14.13
2/24/2021 11:30:00 PM -0.05 31.91 0.035 7.03 2.93 14.13
2/24/2021 11:45:00 PM -0.05 31.91 0.035 7.04 2.96 14.14
2/25/2021 12:00:00 AM -0.05 31.91 0.035 7.03 2.88 14.13
2/25/2021 12:15:00 AM -0.05 31.91 0.035 7.03 2.96 14.15
2/25/2021 12:30:00 AM -0.05 31.91 0.035 7.04 2.95 14.15
2/25/2021 12:45:00 AM -0.05 31.91 0.035 7.04 2.9 14.15
2/25/2021 1:00:00 AM -0.05 31.91 0.035 7.05 2.91 14.15
2/25/2021 1:15:00 AM -0.05 31.91 0.035 7.04 2.96 14.16
2/25/2021 1:30:00 AM -0.05 31.91 0.035 7.04 3.13 14.17
2/25/2021 1:45:00 AM -0.05 31.91 0.035 7.03 2.96 14.17
2/25/2021 2:00:00 AM -0.05 31.91 0.035 7.03 3.15 14.18
2/25/2021 2:15:00 AM -0.06 31.892 0.035 7.04 3.04 14.19
2/25/2021 2:30:00 AM -0.05 31.91 0.035 7.03 2.98 14.2
2/25/2021 2:45:00 AM -0.05 31.91 0.035 7.04 2.85 14.2
2/25/2021 3:00:00 AM -0.05 31.91 0.035 7.02 3.03 14.21
2/25/2021 3:15:00 AM -0.05 31.91 0.035 7.03 2.94 14.21
2/25/2021 3:30:00 AM -0.05 31.91 0.035 7.01 3.02 14.23
2/25/2021 3:45:00 AM -0.06 31.892 0.035 7.03 3.05 14.22
2/25/2021 4:00:00 AM -0.06 31.892 0.035 7.03 3.04 14.23
2/25/2021 4:15:00 AM -0.06 31.892 0.035 7.03 3.11 14.22
2/25/2021 4:30:00 AM -0.06 31.892 0.035 7.04 2.98 14.24
2/25/2021 4:45:00 AM -0.06 31.892 0.035 7.04 2.79 14.25
2/25/2021 5:00:00 AM -0.06 31.892 0.035 7.04 2.98 14.25
2/25/2021 5:15:00 AM -0.06 31.892 0.035 7.03 3.01 14.24
2/25/2021 5:30:00 AM -0.06 31.892 0.035 7.04 2.93 14.26
2/25/2021 5:45:00 AM -0.06 31.892 0.035 7.03 2.96 14.27
2/25/2021 6:00:00 AM -0.06 31.892 0.035 7.04 2.79 14.26
2/25/2021 6:15:00 AM -0.05 31.91 0.035 7.02 3.17 14.27
2/25/2021 6:30:00 AM -0.05 31.91 0.035 7.04 2.91 14.27
2/25/2021 6:45:00 AM -0.05 31.91 0.035 7.01 2.92 14.28
2/25/2021 7:00:00 AM -0.05 31.91 0.035 7.05 3.06 14.29
2/25/2021 7:15:00 AM -0.05 31.91 0.035 7.03 2.89 14.3
2/25/2021 7:30:00 AM -0.04 31.928 0.035 7.06 2.95 14.31
2/25/2021 7:45:00 AM -0.04 31.928 0.035 7.06 3 14.33
2/25/2021 8:00:00 AM -0.04 31.928 0.035 7.07 2.89 14.35
2/25/2021 8:15:00 AM -0.03 31.946 0.035 7.06 2.93 14.37
2/25/2021 8:30:00 AM -0.03 31.946 0.035 7.07 2.88 14.39
2/25/2021 8:45:00 AM -0.03 31.946 0.035 7.07 2.85 14.4
2/25/2021 9:00:00 AM -0.01 31.982 0.035 7.08 2.97 14.41
2/25/2021 9:15:00 AM 0 32 0.035 7.09 2.94 14.4
2/25/2021 9:30:00 AM 0.01 32.018 0.035 7.09 2.84 14.41
2/25/2021 9:45:00 AM 0.01 32.018 0.035 7.09 2.91 14.42
2/25/2021 10:00:00 AM 0.04 32.072 0.035 7.07 2.85 14.41
2/25/2021 10:15:00 AM 0.06 32.108 0.035 7.1 2.76 14.43
2/25/2021 10:30:00 AM 0.1 32.18 0.035 7.07 2.9 14.41
2/25/2021 10:45:00 AM 0.18 32.324 0.035 7.08 2.86 14.4
2/25/2021 11:00:00 AM 0.18 32.324 0.035 7.09 2.88 14.39
2/25/2021 11:15:00 AM 0.22 32.396 0.035 7.09 2.86 14.38
2/25/2021 11:30:00 AM 0.33 32.594 0.035 7.1 2.79 14.33
2/25/2021 11:45:00 AM 0.4 32.72 0.035 7.1 3.03 14.32
2/25/2021 12:00:00 PM 0.43 32.774 0.034 7.11 2.96 14.28
2/25/2021 12:15:00 PM 0.54 32.972 0.034 7.11 2.85 14.23
2/25/2021 12:30:00 PM 0.63 33.134 0.034 7.1 2.97 14.18
2/25/2021 12:45:00 PM 0.65 33.17 0.034 7.14 3.18 14.15
2/25/2021 1:00:00 PM 0.74 33.332 0.034 7.13 2.9 14.11
2/25/2021 1:15:00 PM 0.84 33.512 0.034 7.15 3.02 14.08
2/25/2021 1:30:00 PM 0.86 33.548 0.034 7.15 3.43 14.06
2/25/2021 1:45:00 PM 0.96 33.728 0.034 7.13 2.83 14.01
2/25/2021 2:00:00 PM 1.01 33.818 0.034 7.15 2.75 13.98
2/25/2021 2:15:00 PM 1.07 33.926 0.034 7.15 2.98 13.96
2/25/2021 2:30:00 PM 1.08 33.944 0.034 7.15 3.05 13.94
2/25/2021 2:45:00 PM 1.19 34.142 0.034 7.15 3.42 13.89
2/25/2021 3:00:00 PM 1.38 34.484 0.034 7.15 2.98 13.85
2/25/2021 3:15:00 PM 1.46 34.628 0.034 7.15 3.08 13.83
2/25/2021 3:30:00 PM 1.57 34.826 0.035 7.14 4.02 13.82
2/25/2021 3:45:00 PM 1.57 34.826 0.035 7.14 2.88 13.8
2/25/2021 4:00:00 PM 1.62 34.916 0.035 7.14 2.82 13.76
2/25/2021 4:15:00 PM 1.65 34.97 0.035 7.13 2.75 13.75
2/25/2021 4:30:00 PM 1.68 35.024 0.035 7.13 3.2 13.73
2/25/2021 4:45:00 PM 1.69 35.042 0.035 7.12 3.58 13.71
2/25/2021 5:00:00 PM 1.71 35.078 0.035 7.11 2.98 13.7
2/25/2021 5:15:00 PM 1.72 35.096 0.035 7.12 3.12 13.69
2/25/2021 5:30:00 PM 1.75 35.15 0.035 7.12 3.01 13.68
2/25/2021 5:45:00 PM 1.75 35.15 0.035 7.1 3.07 13.66
2/25/2021 6:00:00 PM 1.75 35.15 0.035 7.09 3.01 13.65
2/25/2021 6:15:00 PM 1.74 35.132 0.035 7.09 3.02 13.64
2/25/2021 6:30:00 PM 1.72 35.096 0.035 7.09 3.16 13.63
2/25/2021 6:45:00 PM 1.73 35.114 0.035 7.08 3.11 13.64
2/25/2021 7:00:00 PM 1.7 35.06 0.035 7.08 3.06 13.64
2/25/2021 7:15:00 PM 1.72 35.096 0.035 7.08 3.1 13.64
2/25/2021 7:30:00 PM 1.72 35.096 0.035 7.07 3.34 13.64
2/25/2021 7:45:00 PM 1.71 35.078 0.036 7.07 3.06 13.65
2/25/2021 8:00:00 PM 1.67 35.006 0.035 7.08 3.15 13.65
2/25/2021 8:15:00 PM 1.7 35.06 0.036 7.07 2.95 13.66
2/25/2021 8:30:00 PM 1.68 35.024 0.036 7.06 3.14 13.67
2/25/2021 8:45:00 PM 1.66 34.988 0.036 7.07 3.1 13.68
2/25/2021 9:00:00 PM 1.64 34.952 0.036 7.07 3.08 13.7
2/25/2021 9:15:00 PM 1.61 34.898 0.036 7.07 2.99 13.72
2/25/2021 9:30:00 PM 1.58 34.844 0.036 7.07 2.97 13.73
2/25/2021 9:45:00 PM 1.54 34.772 0.036 7.05 3.09 13.74
2/25/2021 10:00:00 PM 1.51 34.718 0.036 7.06 2.94 13.79
2/25/2021 10:15:00 PM 1.47 34.646 0.036 7.06 3.31 13.79
2/25/2021 10:30:00 PM 1.44 34.592 0.036 7.07 2.92 13.81
2/25/2021 10:45:00 PM 1.4 34.52 0.036 7.07 3.1 13.83
2/25/2021 11:00:00 PM 1.36 34.448 0.036 7.07 2.89 13.85
2/25/2021 11:15:00 PM 1.33 34.394 0.036 7.07 3.11 13.87
2/25/2021 11:30:00 PM 1.29 34.322 0.036 7.06 2.98 13.88
2/25/2021 11:45:00 PM 1.26 34.268 0.036 7.07 2.95 13.91
2/26/2021 12:00:00 AM 1.22 34.196 0.036 7.06 2.87 13.92
2/26/2021 12:15:00 AM 1.18 34.124 0.036 7.07 2.99 13.94
2/26/2021 12:30:00 AM 1.14 34.052 0.036 7.08 3.07 13.97
2/26/2021 12:45:00 AM 1.1 33.98 0.036 7.07 2.89 13.98
2/26/2021 1:00:00 AM 1.06 33.908 0.036 7.07 3.26 14.01
2/26/2021 1:15:00 AM 1.02 33.836 0.036 7.07 2.81 14.04
2/26/2021 1:30:00 AM 0.98 33.764 0.036 7.07 2.86 14.04
2/26/2021 1:45:00 AM 0.94 33.692 0.036 7.07 3.19 14.07
2/26/2021 2:00:00 AM 0.89 33.602 0.036 7.06 2.82 14.08
2/26/2021 2:15:00 AM 0.86 33.548 0.036 7.07 2.9 14.1
2/26/2021 2:30:00 AM 0.82 33.476 0.036 7.07 2.9 14.12
2/26/2021 2:45:00 AM 0.78 33.404 0.036 7.07 2.89 14.13
2/26/2021 3:00:00 AM 0.74 33.332 0.036 7.06 3.04 14.15
2/26/2021 3:15:00 AM 0.71 33.278 0.037 7.07 3.19 14.17
2/26/2021 3:30:00 AM 0.67 33.206 0.036 7.07 2.95 14.18
2/26/2021 3:45:00 AM 0.64 33.152 0.037 7.06 2.85 14.19
2/26/2021 4:00:00 AM 0.62 33.116 0.037 7.08 2.87 14.22
2/26/2021 4:15:00 AM 0.59 33.062 0.037 7.08 3.05 14.22
2/26/2021 4:30:00 AM 0.56 33.008 0.037 7.07 2.99 14.24
2/26/2021 4:45:00 AM 0.53 32.954 0.037 7.07 2.84 14.25
2/26/2021 5:00:00 AM 0.51 32.918 0.037 7.07 2.78 14.27
2/26/2021 5:15:00 AM 0.49 32.882 0.037 7.07 2.9 14.29
2/26/2021 5:30:00 AM 0.46 32.828 0.037 7.08 2.9 14.31
2/26/2021 5:45:00 AM 0.44 32.792 0.037 7.07 2.87 14.33
2/26/2021 6:00:00 AM 0.42 32.756 0.037 7.07 2.87 14.35
2/26/2021 6:15:00 AM 0.39 32.702 0.037 7.07 3.48 14.35
2/26/2021 6:30:00 AM 0.35 32.63 0.037 7.08 3.02 14.37
2/26/2021 6:45:00 AM 0.33 32.594 0.037 7.07 2.97 14.38
2/26/2021 7:00:00 AM 0.3 32.54 0.037 7.07 2.86 14.39
2/26/2021 7:15:00 AM 0.27 32.486 0.037 7.07 2.85 14.43
2/26/2021 7:30:00 AM 0.25 32.45 0.037 7.09 2.83 14.46
2/26/2021 7:45:00 AM 0.23 32.414 0.037 7.09 2.81 14.49
2/26/2021 8:00:00 AM 0.21 32.378 0.037 7.09 2.69 14.53
2/26/2021 8:15:00 AM 0.19 32.342 0.037 7.11 2.75 14.56
2/26/2021 8:30:00 AM 0.17 32.306 0.037 7.1 2.79 14.57
2/26/2021 8:45:00 AM 0.15 32.27 0.037 7.1 2.87 14.59
2/26/2021 9:00:00 AM 0.14 32.252 0.037 7.11 2.79 14.62
2/26/2021 9:15:00 AM 0.13 32.234 0.036 7.12 2.86 14.61
2/26/2021 9:30:00 AM 0.13 32.234 0.037 7.11 2.72 14.64
2/26/2021 9:45:00 AM 0.14 32.252 0.036 7.12 2.68 14.63
2/26/2021 10:00:00 AM 0.15 32.27 0.036 7.12 2.93 14.64
2/26/2021 10:15:00 AM 0.2 32.36 0.037 7.13 2.71 14.65
2/26/2021 10:30:00 AM 0.28 32.504 0.036 7.13 3.15 14.63
2/26/2021 10:45:00 AM 0.39 32.702 0.036 7.13 2.68 14.61
2/26/2021 11:00:00 AM 0.52 32.936 0.036 7.14 2.78 14.57
2/26/2021 11:15:00 AM 0.67 33.206 0.036 7.14 2.8 14.54
2/26/2021 11:30:00 AM 0.78 33.404 0.036 7.15 3.01 14.48
2/26/2021 11:45:00 AM 0.93 33.674 0.036 7.15 2.84 14.44
2/26/2021 12:00:00 PM 1.06 33.908 0.036 7.15 2.8 14.39
2/26/2021 12:15:00 PM 1.16 34.088 0.036 7.16 2.82 14.34
2/26/2021 12:30:00 PM 1.26 34.268 0.036 7.16 2.75 14.3
2/26/2021 12:45:00 PM 1.34 34.412 0.036 7.15 3.09 14.25
2/26/2021 1:00:00 PM 1.44 34.592 0.036 7.15 2.75 14.21
2/26/2021 1:15:00 PM 1.52 34.736 0.036 7.16 2.72 14.18
2/26/2021 1:30:00 PM 1.6 34.88 0.036 7.16 2.79 14.14
2/26/2021 1:45:00 PM 1.64 34.952 0.036 7.16 2.82 14.12
2/26/2021 2:00:00 PM 1.67 35.006 0.036 7.15 2.86 14.09
2/26/2021 2:15:00 PM 1.7 35.06 0.036 7.15 2.65 14.08
2/26/2021 2:30:00 PM 1.74 35.132 0.036 7.16 2.65 14.05
2/26/2021 2:45:00 PM 1.76 35.168 0.036 7.15 2.68 14.03
2/26/2021 3:00:00 PM 1.79 35.222 0.036 7.16 2.68 14.02
2/26/2021 3:15:00 PM 1.82 35.276 0.036 7.15 2.67 14
2/26/2021 3:30:00 PM 1.84 35.312 0.035 7.14 2.84 13.97
2/26/2021 3:45:00 PM 1.86 35.348 0.035 7.15 2.77 13.95
2/26/2021 4:00:00 PM 1.9 35.42 0.035 7.14 2.72 13.93
2/26/2021 4:15:00 PM 1.85 35.33 0.035 7.14 2.58 13.92
2/26/2021 4:30:00 PM 1.83 35.294 0.035 7.14 2.74 13.89
2/26/2021 4:45:00 PM 1.92 35.456 0.035 7.14 2.7 13.85
2/26/2021 5:00:00 PM 1.94 35.492 0.035 7.13 2.77 13.83
2/26/2021 5:15:00 PM 1.98 35.564 0.035 7.11 2.65 13.79
2/26/2021 5:30:00 PM 1.99 35.582 0.035 7.12 2.72 13.76
2/26/2021 5:45:00 PM 1.99 35.582 0.035 7.11 2.72 13.74
2/26/2021 6:00:00 PM 2 35.6 0.035 7.1 2.71 13.7
2/26/2021 6:15:00 PM 2 35.6 0.035 7.1 2.8 13.7
2/26/2021 6:30:00 PM 1.99 35.582 0.036 7.09 2.8 13.66
2/26/2021 6:45:00 PM 1.98 35.564 0.036 7.08 2.73 13.66
2/26/2021 7:00:00 PM 1.96 35.528 0.035 7.09 2.93 13.65
2/26/2021 7:15:00 PM 1.95 35.51 0.036 7.09 2.69 13.65
2/26/2021 7:30:00 PM 1.93 35.474 0.036 7.08 2.69 13.66
2/26/2021 7:45:00 PM 1.92 35.456 0.036 7.07 2.8 13.65
2/26/2021 8:00:00 PM 1.9 35.42 0.036 7.07 2.67 13.65
2/26/2021 8:15:00 PM 1.89 35.402 0.036 7.07 2.82 13.67
2/26/2021 8:30:00 PM 1.87 35.366 0.036 7.07 2.75 13.67
2/26/2021 8:45:00 PM 1.85 35.33 0.036 7.07 2.68 13.67
2/26/2021 9:00:00 PM 1.83 35.294 0.036 7.06 2.73 13.67
2/26/2021 9:15:00 PM 1.81 35.258 0.036 7.06 2.67 13.68
2/26/2021 9:30:00 PM 1.78 35.204 0.036 7.06 2.76 13.71
2/26/2021 9:45:00 PM 1.77 35.186 0.036 7.05 2.76 13.71
2/26/2021 10:00:00 PM 1.75 35.15 0.036 7.07 2.77 13.72
2/26/2021 10:15:00 PM 1.74 35.132 0.036 7.07 2.76 13.74
2/26/2021 10:30:00 PM 1.73 35.114 0.036 7.07 2.78 13.73
2/26/2021 10:45:00 PM 1.72 35.096 0.036 7.07 2.7 13.76
2/26/2021 11:00:00 PM 1.7 35.06 0.036 7.05 2.74 13.74
2/26/2021 11:15:00 PM 1.69 35.042 0.036 7.06 2.83 13.75
2/26/2021 11:30:00 PM 1.68 35.024 0.036 7.07 2.72 13.76
2/26/2021 11:45:00 PM 1.67 35.006 0.036 7.07 2.76 13.76
2/27/2021 12:00:00 AM 1.66 34.988 0.036 7.06 2.89 13.77
2/27/2021 12:15:00 AM 1.65 34.97 0.036 7.07 2.79 13.78
2/27/2021 12:30:00 AM 1.64 34.952 0.036 7.07 2.77 13.78
2/27/2021 12:45:00 AM 1.64 34.952 0.036 7.07 2.81 13.77
2/27/2021 1:00:00 AM 1.63 34.934 0.036 7.07 2.69 13.77
2/27/2021 1:15:00 AM 1.62 34.916 0.036 7.07 2.75 13.77
2/27/2021 1:30:00 AM 1.61 34.898 0.036 7.07 2.77 13.78
2/27/2021 1:45:00 AM 1.61 34.898 0.036 7.07 2.67 13.79
2/27/2021 2:00:00 AM 1.59 34.862 0.036 7.07 2.95 13.8
2/27/2021 2:15:00 AM 1.58 34.844 0.036 7.07 2.82 13.78
2/27/2021 2:30:00 AM 1.58 34.844 0.036 7.07 2.56 13.79
2/27/2021 2:45:00 AM 1.57 34.826 0.036 7.07 2.64 13.79
2/27/2021 3:00:00 AM 1.57 34.826 0.036 7.08 2.53 13.79
2/27/2021 3:15:00 AM 1.57 34.826 0.036 7.07 2.66 13.78
2/27/2021 3:30:00 AM 1.57 34.826 0.036 7.08 2.63 13.79
2/27/2021 3:45:00 AM 1.56 34.808 0.036 7.07 2.78 13.79
2/27/2021 4:00:00 AM 1.57 34.826 0.036 7.08 2.78 13.79
2/27/2021 4:15:00 AM 1.56 34.808 0.036 7.08 2.7 13.79
2/27/2021 4:30:00 AM 1.57 34.826 0.036 7.07 2.76 13.78
2/27/2021 4:45:00 AM 1.57 34.826 0.036 7.08 2.72 13.77
2/27/2021 5:00:00 AM 1.57 34.826 0.036 7.08 2.8 13.78
2/27/2021 5:15:00 AM 1.57 34.826 0.036 7.06 2.64 13.77
2/27/2021 5:30:00 AM 1.57 34.826 0.036 7.08 2.71 13.77
2/27/2021 5:45:00 AM 1.57 34.826 0.036 7.07 2.74 13.77
2/27/2021 6:00:00 AM 1.57 34.826 0.036 7.07 3.41 13.76
2/27/2021 6:15:00 AM 1.57 34.826 0.036 7.08 2.61 13.77
2/27/2021 6:30:00 AM 1.57 34.826 0.036 7.07 2.75 13.75
2/27/2021 6:45:00 AM 1.58 34.844 0.036 7.07 2.73 13.76
2/27/2021 7:00:00 AM 1.58 34.844 0.036 7.08 2.62 13.74
2/27/2021 7:15:00 AM 1.58 34.844 0.036 7.08 2.66 13.75
2/27/2021 7:30:00 AM 1.56 34.808 0.036 7.09 2.67 13.75
2/27/2021 7:45:00 AM 1.59 34.862 0.036 7.09 2.74 13.75
2/27/2021 8:00:00 AM 1.61 34.898 0.036 7.09 2.59 13.77
2/27/2021 8:15:00 AM 1.61 34.898 0.036 7.08 2.58 13.77
2/27/2021 8:30:00 AM 1.62 34.916 0.036 7.11 2.71 13.78
2/27/2021 8:45:00 AM 1.64 34.952 0.036 7.1 2.69 13.79
2/27/2021 9:00:00 AM 1.64 34.952 0.036 7.1 2.7 13.81
2/27/2021 9:15:00 AM 1.66 34.988 0.036 7.11 2.49 13.81
2/27/2021 9:30:00 AM 1.67 35.006 0.036 7.12 2.67 13.82
2/27/2021 9:45:00 AM 1.7 35.06 0.036 7.12 2.56 13.83
2/27/2021 10:00:00 AM 1.72 35.096 0.036 7.13 2.61 13.84
2/27/2021 10:15:00 AM 1.74 35.132 0.036 7.14 2.86 13.84
2/27/2021 10:30:00 AM 1.76 35.168 0.036 7.14 2.62 13.82
2/27/2021 10:45:00 AM 1.78 35.204 0.036 7.14 2.71 13.82
2/27/2021 11:00:00 AM 1.82 35.276 0.036 7.15 2.66 13.83
2/27/2021 11:15:00 AM 1.84 35.312 0.036 7.14 2.74 13.81
2/27/2021 11:30:00 AM 1.89 35.402 0.036 7.15 2.66 13.82
2/27/2021 11:45:00 AM 1.96 35.528 0.036 7.15 2.69 13.81
2/27/2021 12:00:00 PM 2 35.6 0.036 7.16 2.68 13.81
2/27/2021 12:15:00 PM 2.05 35.69 0.036 7.16 2.59 13.8
2/27/2021 12:30:00 PM 2.11 35.798 0.036 7.17 2.77 13.78
2/27/2021 12:45:00 PM 2.18 35.924 0.036 7.16 2.53 13.76
2/27/2021 1:00:00 PM 2.24 36.032 0.036 7.16 2.57 13.75
2/27/2021 1:15:00 PM 2.29 36.122 0.036 7.17 2.77 13.72
2/27/2021 1:30:00 PM 2.34 36.212 0.036 7.17 2.55 13.7
2/27/2021 1:45:00 PM 2.39 36.302 0.035 7.17 2.71 13.67
2/27/2021 2:00:00 PM 2.45 36.41 0.036 7.17 2.48 13.63
2/27/2021 2:15:00 PM 2.52 36.536 0.035 7.16 2.65 13.61
2/27/2021 2:30:00 PM 2.59 36.662 0.035 7.17 2.79 13.6
2/27/2021 2:45:00 PM 2.66 36.788 0.035 7.16 2.66 13.58
2/27/2021 3:00:00 PM 2.73 36.914 0.035 7.17 2.52 13.56
2/27/2021 3:15:00 PM 2.78 37.004 0.035 7.16 2.63 13.54
2/27/2021 3:30:00 PM 2.82 37.076 0.035 7.16 2.6 13.52
2/27/2021 3:45:00 PM 2.86 37.148 0.035 7.16 2.58 13.5
2/27/2021 4:00:00 PM 2.88 37.184 0.035 7.16 2.74 13.47
2/27/2021 4:15:00 PM 2.85 37.13 0.035 7.15 2.54 13.45
2/27/2021 4:30:00 PM 2.84 37.112 0.035 7.14 2.6 13.43
2/27/2021 4:45:00 PM 2.81 37.058 0.035 7.14 2.72 13.42
2/27/2021 5:00:00 PM 2.77 36.986 0.035 7.11 2.66 13.41
2/27/2021 5:15:00 PM 2.75 36.95 0.035 7.12 2.65 13.4
2/27/2021 5:30:00 PM 2.72 36.896 0.035 7.12 2.8 13.39
2/27/2021 5:45:00 PM 2.68 36.824 0.035 7.11 2.84 13.38
2/27/2021 6:00:00 PM 2.64 36.752 0.035 7.1 2.69 13.39
2/27/2021 6:15:00 PM 2.6 36.68 0.035 7.09 2.52 13.37
2/27/2021 6:30:00 PM 2.57 36.626 0.035 7.08 2.6 13.37
2/27/2021 6:45:00 PM 2.53 36.554 0.035 7.07 2.67 13.38
2/27/2021 7:00:00 PM 2.5 36.5 0.035 7.07 2.67 13.38
2/27/2021 7:15:00 PM 2.47 36.446 0.035 7.05 2.69 13.39
2/27/2021 7:30:00 PM 2.44 36.392 0.035 7.06 2.72 13.4
2/27/2021 7:45:00 PM 2.43 36.374 0.036 7.06 2.64 13.4
2/27/2021 8:00:00 PM 2.41 36.338 0.036 7.06 2.74 13.42
2/27/2021 8:15:00 PM 2.38 36.284 0.036 7.06 2.75 13.45
2/27/2021 8:30:00 PM 2.36 36.248 0.035 7.05 2.81 13.45
2/27/2021 8:45:00 PM 2.33 36.194 0.036 7.06 2.71 13.47
2/27/2021 9:00:00 PM 2.3 36.14 0.036 7.05 2.81 13.48
2/27/2021 9:15:00 PM 2.27 36.086 0.036 7.06 2.64 13.49
2/27/2021 9:30:00 PM 2.24 36.032 0.036 7.05 2.71 13.51
2/27/2021 9:45:00 PM 2.21 35.978 0.036 7.05 2.61 13.54
2/27/2021 10:00:00 PM 2.17 35.906 0.036 7.06 2.63 13.54
2/27/2021 10:15:00 PM 2.15 35.87 0.036 7.05 2.64 13.56
2/27/2021 10:30:00 PM 2.12 35.816 0.036 7.05 2.66 13.58
2/27/2021 10:45:00 PM 2.08 35.744 0.036 7.05 2.64 13.59
2/27/2021 11:00:00 PM 2.05 35.69 0.036 7.05 2.74 13.61
2/27/2021 11:15:00 PM 2.03 35.654 0.036 7.05 2.77 13.61
2/27/2021 11:30:00 PM 2 35.6 0.036 7.05 2.82 13.64
2/27/2021 11:45:00 PM 1.97 35.546 0.036 7.05 2.77 13.63
2/28/2021 12:00:00 AM 1.95 35.51 0.036 7.06 2.72 13.65
2/28/2021 12:15:00 AM 1.92 35.456 0.036 7.05 2.7 13.66
2/28/2021 12:30:00 AM 1.9 35.42 0.036 7.05 2.71 13.66
2/28/2021 12:45:00 AM 1.87 35.366 0.036 7.05 2.69 13.68
2/28/2021 1:00:00 AM 1.85 35.33 0.036 7.05 2.65 13.69
2/28/2021 1:15:00 AM 1.83 35.294 0.036 7.06 2.67 13.7
2/28/2021 1:30:00 AM 1.81 35.258 0.036 7.05 2.68 13.7
2/28/2021 1:45:00 AM 1.79 35.222 0.036 7.06 2.9 13.72
2/28/2021 2:00:00 AM 1.77 35.186 0.036 7.05 2.67 13.74
2/28/2021 2:15:00 AM 1.75 35.15 0.036 7.06 2.63 13.73
2/28/2021 2:30:00 AM 1.73 35.114 0.036 7.05 2.62 13.76
2/28/2021 2:45:00 AM 1.72 35.096 0.036 7.06 2.79 13.76
2/28/2021 3:00:00 AM 1.7 35.06 0.036 7.05 2.72 13.76
2/28/2021 3:15:00 AM 1.69 35.042 0.036 7.06 2.68 13.76
2/28/2021 3:30:00 AM 1.68 35.024 0.036 7.06 2.73 13.77
2/28/2021 3:45:00 AM 1.66 34.988 0.036 7.06 2.71 13.78
2/28/2021 4:00:00 AM 1.65 34.97 0.036 7.06 2.7 13.77
2/28/2021 4:15:00 AM 1.64 34.952 0.036 7.06 2.67 13.78
2/28/2021 4:30:00 AM 1.63 34.934 0.036 7.05 2.86 13.78
2/28/2021 4:45:00 AM 1.62 34.916 0.036 7.05 2.62 13.79
2/28/2021 5:00:00 AM 1.61 34.898 0.036 7.06 2.6 13.81
2/28/2021 5:15:00 AM 1.6 34.88 0.036 7.05 2.72 13.8
2/28/2021 5:30:00 AM 1.59 34.862 0.036 7.06 2.69 13.79
2/28/2021 5:45:00 AM 1.58 34.844 0.036 7.06 2.7 13.81
2/28/2021 6:00:00 AM 1.57 34.826 0.036 7.06 2.63 13.82
2/28/2021 6:15:00 AM 1.57 34.826 0.036 7.07 2.59 13.81
2/28/2021 6:30:00 AM 1.56 34.808 0.036 7.06 2.67 13.82
2/28/2021 6:45:00 AM 1.56 34.808 0.036 7.05 2.49 13.81
2/28/2021 7:00:00 AM 1.56 34.808 0.036 7.05 2.72 13.83
2/28/2021 7:15:00 AM 1.57 34.826 0.036 7.07 2.66 13.81
2/28/2021 7:30:00 AM 1.57 34.826 0.036 7.07 2.69 13.84
2/28/2021 7:45:00 AM 1.58 34.844 0.036 7.07 2.68 13.84
2/28/2021 8:00:00 AM 1.59 34.862 0.036 7.07 2.63 13.86
2/28/2021 8:15:00 AM 1.6 34.88 0.036 7.08 2.66 13.86
2/28/2021 8:30:00 AM 1.62 34.916 0.036 7.08 2.72 13.87
2/28/2021 8:45:00 AM 1.63 34.934 0.036 7.09 2.6 13.87
2/28/2021 9:00:00 AM 1.65 34.97 0.036 7.09 2.72 13.89
2/28/2021 9:15:00 AM 1.67 35.006 0.036 7.1